Provisional Data: Little Muncy Creek near Moreland, PA


Please select a monitoring station.
Please select start date.
Please select start date.

Toggle Unit: C/F Toggle Unit: C/F
Sample Time Temperature (C) Temperature (F) Specific Conductivity (mS/cm) pH   Turbidity (NTU+) DO (mg/L)
12/23/2021 12:00:00 AM 0.69 33.242 0.099 7.33 5.82 14
12/23/2021 12:15:00 AM 0.67 33.206 0.1 7.33 5.85 13.99
12/23/2021 12:30:00 AM 0.64 33.152 0.1 7.32 7.11 14.01
12/23/2021 12:45:00 AM 0.61 33.098 0.1 7.32 7.07 14.02
12/23/2021 1:00:00 AM 0.59 33.062 0.1 7.32 7.11 14.03
12/23/2021 1:15:00 AM 0.56 33.008 0.1 7.32 7.1 14.04
12/23/2021 1:30:00 AM 0.54 32.972 0.1 7.32 7 14.05
12/23/2021 1:45:00 AM 0.51 32.918 0.1 7.32 7.08 14.07
12/23/2021 2:00:00 AM 0.49 32.882 0.1 7.31 6.83 14.07
12/23/2021 2:15:00 AM 0.46 32.828 0.1 7.31 7.11 14.09
12/23/2021 2:30:00 AM 0.43 32.774 0.1 7.31 6.99 14.1
12/23/2021 2:45:00 AM 0.41 32.738 0.1 7.31 7.2 14.12
12/23/2021 3:00:00 AM 0.37 32.666 0.1 7.3 7.1 14.13
12/23/2021 3:15:00 AM 0.34 32.612 0.1 7.3 7.12 14.15
12/23/2021 3:30:00 AM 0.31 32.558 0.1 7.3 7.14 14.17
12/23/2021 3:45:00 AM 0.27 32.486 0.101 7.3 7.16 14.18
12/23/2021 4:00:00 AM 0.23 32.414 0.101 7.3 7.11 14.2
12/23/2021 4:15:00 AM 0.2 32.36 0.101 7.3 7.06 14.21
12/23/2021 4:30:00 AM 0.16 32.288 0.101 7.29 7.02 14.23
12/23/2021 4:45:00 AM 0.12 32.216 0.101 7.29 6.95 14.24
12/23/2021 5:00:00 AM 0.08 32.144 0.101 7.29 6.99 14.26
12/23/2021 5:15:00 AM 0.05 32.09 0.101 7.28 6.84 14.27
12/23/2021 5:30:00 AM 0.01 32.018 0.101 7.28 6.92 14.28
12/23/2021 5:45:00 AM -0.02 31.964 0.101 7.28 6.95 14.3
12/23/2021 6:00:00 AM -0.05 31.91 0.101 7.28 6.9 14.32
12/23/2021 6:15:00 AM -0.06 31.892 0.101 7.28 6.88 14.34
12/23/2021 6:30:00 AM -0.05 31.91 0.101 7.28 7.05 14.35
12/23/2021 6:45:00 AM -0.05 31.91 0.101 7.28 7.06 14.37
12/23/2021 7:00:00 AM -0.04 31.928 0.101 7.28 7.08 14.38
12/23/2021 7:15:00 AM -0.04 31.928 0.101 7.28 7.11 14.4
12/23/2021 7:30:00 AM -0.04 31.928 0.101 7.28 7.02 14.4
12/23/2021 7:45:00 AM -0.04 31.928 0.101 7.28 7.12 14.42
12/23/2021 8:00:00 AM -0.04 31.928 0.101 7.29 7 14.47
12/23/2021 8:15:00 AM -0.03 31.946 0.101 7.3 6.97 14.54
12/23/2021 8:30:00 AM -0.03 31.946 0.101 7.31 6.89 14.62
12/23/2021 8:45:00 AM -0.03 31.946 0.101 7.32 6.92 14.7
12/23/2021 9:00:00 AM -0.02 31.964 0.101 7.34 6.79 14.8
12/23/2021 9:15:00 AM -0.01 31.982 0.101 7.35 6.77 14.86
12/23/2021 9:30:00 AM 0.02 32.036 0.101 7.37 6.78 14.96
12/23/2021 9:45:00 AM 0.03 32.054 0.101 7.39 6.64 15.04
12/23/2021 10:00:00 AM 0.05 32.09 0.101 7.4 6.5 15.1
12/23/2021 10:15:00 AM 0.08 32.144 0.101 7.42 6.57 15.15
12/23/2021 10:30:00 AM 0.11 32.198 0.101 7.44 6.43 15.22
12/23/2021 10:45:00 AM 0.17 32.306 0.101 7.46 6.46 15.27
12/23/2021 11:00:00 AM 0.21 32.378 0.102 7.47 6.42 15.32
12/23/2021 11:15:00 AM 0.27 32.486 0.102 7.49 6.57 15.37
12/23/2021 11:30:00 AM 0.33 32.594 0.102 7.51 6.36 15.41
12/23/2021 11:45:00 AM 0.39 32.702 0.102 7.53 6.46 15.44
12/23/2021 12:00:00 PM 0.44 32.792 0.102 7.55 6.65 15.46
12/23/2021 12:15:00 PM 0.5 32.9 0.101 7.57 6.72 15.47
12/23/2021 12:30:00 PM 0.56 33.008 0.101 7.58 6.62 15.48
12/23/2021 12:45:00 PM 0.65 33.17 0.101 7.59 6.56 15.48
12/23/2021 1:00:00 PM 0.7 33.26 0.1 7.6 6.68 15.49
12/23/2021 1:15:00 PM 0.74 33.332 0.1 7.61 6.66 15.49
12/23/2021 1:30:00 PM 0.78 33.404 0.1 7.62 6.98 15.49
12/23/2021 1:45:00 PM 0.79 33.422 0.1 7.63 7.2 15.48
12/23/2021 2:00:00 PM 0.8 33.44 0.1 7.63 6.65 15.46
12/23/2021 2:15:00 PM 0.78 33.404 0.1 7.63 6.77 15.45
12/23/2021 2:30:00 PM 0.75 33.35 0.1 7.63 7 15.43
12/23/2021 2:45:00 PM 0.73 33.314 0.1 7.63 6.89 15.43
12/23/2021 3:00:00 PM 0.74 33.332 0.1 7.63 6.96 15.41
12/23/2021 3:15:00 PM 0.72 33.296 0.1 7.63 6.85 15.38
12/23/2021 3:30:00 PM 0.7 33.26 0.1 7.62 6.85 15.33
12/23/2021 3:45:00 PM 0.7 33.26 0.1 7.62 6.88 15.3
12/23/2021 4:00:00 PM 0.71 33.278 0.099 7.61 6.8 15.26
12/23/2021 4:15:00 PM 0.71 33.278 0.099 7.61 6.8 15.22
12/23/2021 4:30:00 PM 0.71 33.278 0.099 7.59 6.8 15.14
12/23/2021 4:45:00 PM 0.71 33.278 0.099 7.58 6.75 15.05
12/23/2021 5:00:00 PM 0.7 33.26 0.1 7.55 6.88 14.96
12/23/2021 5:15:00 PM 0.73 33.314 0.1 7.53 6.79 14.86
12/23/2021 5:30:00 PM 0.75 33.35 0.1 7.51 6.89 14.78
12/23/2021 5:45:00 PM 0.77 33.386 0.1 7.5 6.88 14.69
12/23/2021 6:00:00 PM 0.78 33.404 0.1 7.48 6.9 14.64
12/23/2021 6:15:00 PM 0.78 33.404 0.1 7.47 6.69 14.59
12/23/2021 6:30:00 PM 0.79 33.422 0.1 7.45 6.81 14.52
12/23/2021 6:45:00 PM 0.78 33.404 0.099 7.44 6.71 14.47
12/23/2021 7:00:00 PM 0.78 33.404 0.099 7.43 6.71 14.45
12/23/2021 7:15:00 PM 0.78 33.404 0.099 7.42 6.62 14.41
12/23/2021 7:30:00 PM 0.78 33.404 0.099 7.41 6.71 14.38
12/23/2021 7:45:00 PM 0.78 33.404 0.099 7.4 6.72 14.35
12/23/2021 8:00:00 PM 0.78 33.404 0.099 7.39 6.71 14.33
12/23/2021 8:15:00 PM 0.78 33.404 0.099 7.39 6.61 14.31
12/23/2021 8:30:00 PM 0.78 33.404 0.099 7.38 6.62 14.28
12/23/2021 8:45:00 PM 0.78 33.404 0.099 7.37 6.62 14.26
12/23/2021 9:00:00 PM 0.78 33.404 0.099 7.37 6.69 14.24
12/23/2021 9:15:00 PM 0.78 33.404 0.099 7.36 6.67 14.23
12/23/2021 9:30:00 PM 0.78 33.404 0.099 7.36 6.77 14.2
12/23/2021 9:45:00 PM 0.78 33.404 0.099 7.35 7.06 14.19
12/23/2021 10:00:00 PM 0.78 33.404 0.099 7.35 7.09 14.18
12/23/2021 10:15:00 PM 0.79 33.422 0.099 7.34 7.1 14.16
12/23/2021 10:30:00 PM 0.79 33.422 0.099 7.34 7.33 14.15
12/23/2021 10:45:00 PM 0.79 33.422 0.099 7.34 7.5 14.13
12/23/2021 11:00:00 PM 0.8 33.44 0.099 7.33 7.38 14.12
12/23/2021 11:15:00 PM 0.81 33.458 0.099 7.33 7.41 14.11
12/23/2021 11:30:00 PM 0.81 33.458 0.099 7.33 7.4 14.1
12/23/2021 11:45:00 PM 0.81 33.458 0.1 7.33 7.37 14.08
12/24/2021 12:00:00 AM 0.82 33.476 0.1 7.32 7.36 14.08
12/24/2021 12:15:00 AM 0.83 33.494 0.1 7.32 7.36 14.07
12/24/2021 12:30:00 AM 0.81 33.458 0.1 7.32 7.44 14.05
12/24/2021 12:45:00 AM 0.66 33.188 0.1 7.32 7.21 14.05
12/24/2021 1:00:00 AM 0.55 32.99 0.099 7.32 7.1 14.05
12/24/2021 1:15:00 AM 0.4 32.72 0.099 7.32 7.25 14.07
12/24/2021 1:30:00 AM 0.38 32.684 0.099 7.31 7.14 14.07
12/24/2021 1:45:00 AM 0.41 32.738 0.1 7.31 7.87 14.07
12/24/2021 2:00:00 AM 0.43 32.774 0.1 7.31 7.9 14.09
12/24/2021 2:15:00 AM 0.43 32.774 0.1 7.31 7.86 14.09
12/24/2021 2:30:00 AM 0.42 32.756 0.1 7.31 7.88 14.11
12/24/2021 2:45:00 AM 0.39 32.702 0.1 7.31 7.8 14.12
12/24/2021 3:00:00 AM 0.38 32.684 0.1 7.3 7.51 14.14
12/24/2021 3:15:00 AM 0.4 32.72 0.1 7.3 7.65 14.14
12/24/2021 3:30:00 AM 0.42 32.756 0.1 7.3 7.5 14.14
12/24/2021 3:45:00 AM 0.46 32.828 0.1 7.3 7.12 14.14
12/24/2021 4:00:00 AM 0.48 32.864 0.1 7.3 7.25 14.13
12/24/2021 4:15:00 AM 0.5 32.9 0.1 7.3 7.04 14.12
12/24/2021 4:30:00 AM 0.52 32.936 0.1 7.3 7.09 14.12
12/24/2021 4:45:00 AM 0.52 32.936 0.101 7.3 7.05 14.12
12/24/2021 5:00:00 AM 0.53 32.954 0.101 7.3 6.91 14.12
12/24/2021 5:15:00 AM 0.53 32.954 0.101 7.3 6.92 14.13
12/24/2021 5:30:00 AM 0.53 32.954 0.101 7.3 6.91 14.13
12/24/2021 5:45:00 AM 0.53 32.954 0.101 7.3 6.97 14.13
12/24/2021 6:00:00 AM 0.52 32.936 0.101 7.29 6.91 14.14
12/24/2021 6:15:00 AM 0.52 32.936 0.101 7.3 6.89 14.15
12/24/2021 6:30:00 AM 0.52 32.936 0.101 7.3 6.86 14.14
12/24/2021 6:45:00 AM 0.53 32.954 0.101 7.3 6.88 14.15
12/24/2021 7:00:00 AM 0.54 32.972 0.101 7.3 7.02 14.14
12/24/2021 7:15:00 AM 0.55 32.99 0.101 7.3 6.99 14.13
12/24/2021 7:30:00 AM 0.56 33.008 0.101 7.3 7.05 14.13
12/24/2021 7:45:00 AM 0.57 33.026 0.101 7.3 7.09 14.14
12/24/2021 8:00:00 AM 0.59 33.062 0.101 7.3 7.11 14.16
12/24/2021 8:15:00 AM 0.61 33.098 0.101 7.31 7.1 14.2
12/24/2021 8:30:00 AM 0.63 33.134 0.101 7.32 7.07 14.25
12/24/2021 8:45:00 AM 0.65 33.17 0.101 7.33 7.02 14.32
12/24/2021 9:00:00 AM 0.68 33.224 0.101 7.34 7.07 14.39
12/24/2021 9:15:00 AM 0.72 33.296 0.101 7.36 7.08 14.47
12/24/2021 9:30:00 AM 0.76 33.368 0.1 7.37 7.98 14.55
12/24/2021 9:45:00 AM 0.79 33.422 0.1 7.39 7.49 14.6
12/24/2021 10:00:00 AM 0.84 33.512 0.1 7.4 7.39 14.69
12/24/2021 10:15:00 AM 0.89 33.602 0.1 7.42 7.38 14.77
12/24/2021 10:30:00 AM 0.95 33.71 0.1 7.44 7.36 14.83
12/24/2021 10:45:00 AM 1.01 33.818 0.1 7.46 7.36 14.89
12/24/2021 11:00:00 AM 1.06 33.908 0.1 7.48 7.26 14.96
12/24/2021 11:15:00 AM 1.14 34.052 0.1 7.49 6.82 14.98
12/24/2021 11:30:00 AM 1.25 34.25 0.099 7.52 6.82 15.03
12/24/2021 11:45:00 AM 1.35 34.43 0.099 7.53 6.81 15.06
12/24/2021 12:00:00 PM 1.46 34.628 0.099 7.55 6.86 15.09
12/24/2021 12:15:00 PM 1.55 34.79 0.099 7.57 7.34 15.11
12/24/2021 12:30:00 PM 1.67 35.006 0.099 7.58 7.29 15.12
12/24/2021 12:45:00 PM 1.74 35.132 0.099 7.6 7.05 15.11
12/24/2021 1:00:00 PM 1.78 35.204 0.099 7.61 7.17 15.09
12/24/2021 1:15:00 PM 1.83 35.294 0.099 7.62 6.7 15.09
12/24/2021 1:30:00 PM 1.89 35.402 0.099 7.64 6.49 15.08
12/24/2021 1:45:00 PM 1.91 35.438 0.099 7.65 6.51 15.08
12/24/2021 2:00:00 PM 1.94 35.492 0.098 7.66 6.46 15.08
12/24/2021 2:15:00 PM 1.96 35.528 0.098 7.67 6.58 15.06
12/24/2021 2:30:00 PM 1.96 35.528 0.098 7.68 6.61 15.04
12/24/2021 2:45:00 PM 1.95 35.51 0.098 7.68 6.76 15.01
12/24/2021 3:00:00 PM 1.95 35.51 0.098 7.68 6.75 14.97
12/24/2021 3:15:00 PM 1.96 35.528 0.098 7.68 6.64 14.94
12/24/2021 3:30:00 PM 1.98 35.564 0.098 7.68 6.66 14.88
12/24/2021 3:45:00 PM 2 35.6 0.098 7.67 6.75 14.83
12/24/2021 4:00:00 PM 2.02 35.636 0.098 7.67 6.78 14.79
12/24/2021 4:15:00 PM 2.02 35.636 0.098 7.65 6.77 14.71
12/24/2021 4:30:00 PM 2.02 35.636 0.098 7.63 6.91 14.6
12/24/2021 4:45:00 PM 2.01 35.618 0.098 7.6 6.76 14.48
12/24/2021 5:00:00 PM 2.01 35.618 0.098 7.58 7.15 14.39
12/24/2021 5:15:00 PM 2.01 35.618 0.098 7.55 7.11 14.28
12/24/2021 5:30:00 PM 2 35.6 0.099 7.53 7 14.21
12/24/2021 5:45:00 PM 1.99 35.582 0.099 7.51 7.54 14.14
12/24/2021 6:00:00 PM 1.98 35.564 0.099 7.49 7.43 14.08
12/24/2021 6:15:00 PM 1.97 35.546 0.099 7.47 7.31 14.01
12/24/2021 6:30:00 PM 1.97 35.546 0.099 7.46 7.29 13.96
12/24/2021 6:45:00 PM 1.96 35.528 0.099 7.44 7.16 13.91
12/24/2021 7:00:00 PM 1.96 35.528 0.099 7.43 7.25 13.87
12/24/2021 7:15:00 PM 1.95 35.51 0.099 7.42 7.3 13.84
12/24/2021 7:30:00 PM 1.95 35.51 0.099 7.41 6.44 13.81
12/24/2021 7:45:00 PM 1.94 35.492 0.099 7.4 6.4 13.77
12/24/2021 8:00:00 PM 1.94 35.492 0.099 7.39 7.49 13.76
12/24/2021 8:15:00 PM 1.95 35.51 0.099 7.38 6.67 13.72
12/24/2021 8:30:00 PM 1.96 35.528 0.099 7.38 6.8 13.7
12/24/2021 8:45:00 PM 1.96 35.528 0.099 7.37 6.91 13.68
12/24/2021 9:00:00 PM 1.96 35.528 0.099 7.36 6.45 13.66
12/24/2021 9:15:00 PM 1.97 35.546 0.099 7.36 6.56 13.64
12/24/2021 9:30:00 PM 1.98 35.564 0.099 7.35 6.5 13.62
12/24/2021 9:45:00 PM 1.99 35.582 0.099 7.35 6.84 13.6
12/24/2021 10:00:00 PM 2 35.6 0.099 7.34 6.74 13.58
12/24/2021 10:15:00 PM 2.01 35.618 0.099 7.34 6.65 13.56
12/24/2021 10:30:00 PM 2.02 35.636 0.099 7.33 6.73 13.54
12/24/2021 10:45:00 PM 2.03 35.654 0.099 7.33 6.86 13.53
12/24/2021 11:00:00 PM 2.05 35.69 0.099 7.32 6.83 13.52
12/24/2021 11:15:00 PM 2.06 35.708 0.099 7.32 6.6 13.5
12/24/2021 11:30:00 PM 2.07 35.726 0.099 7.32 7.03 13.49
12/24/2021 11:45:00 PM 2.08 35.744 0.099 7.32 6.83 13.48
12/25/2021 12:00:00 AM 2.1 35.78 0.099 7.31 6.78 13.47
12/25/2021 12:15:00 AM 2.1 35.78 0.1 7.31 6.68 13.45
12/25/2021 12:30:00 AM 2.11 35.798 0.1 7.31 6.47 13.44
12/25/2021 12:45:00 AM 2.12 35.816 0.1 7.31 6.93 13.44
12/25/2021 1:00:00 AM 2.13 35.834 0.1 7.31 7.03 13.44
12/25/2021 1:15:00 AM 2.14 35.852 0.1 7.3 7.06 13.42
12/25/2021 1:30:00 AM 2.15 35.87 0.1 7.3 7.05 13.41
12/25/2021 1:45:00 AM 2.16 35.888 0.1 7.3 7.09 13.4
12/25/2021 2:00:00 AM 2.16 35.888 0.1 7.3 7.21 13.4
12/25/2021 2:15:00 AM 2.17 35.906 0.1 7.3 7.05 13.38
12/25/2021 2:30:00 AM 2.17 35.906 0.1 7.3 7.05 13.38
12/25/2021 2:45:00 AM 2.17 35.906 0.1 7.3 7.01 13.37
12/25/2021 3:00:00 AM 2.18 35.924 0.1 7.3 6.8 13.37
12/25/2021 3:15:00 AM 2.18 35.924 0.1 7.3 6.8 13.37
12/25/2021 3:30:00 AM 2.18 35.924 0.1 7.3 6.68 13.36
12/25/2021 3:45:00 AM 2.19 35.942 0.1 7.3 6.77 13.36
12/25/2021 4:00:00 AM 2.19 35.942 0.1 7.3 6.74 13.36
12/25/2021 4:15:00 AM 2.2 35.96 0.1 7.3 6.74 13.35
12/25/2021 4:30:00 AM 2.2 35.96 0.1 7.3 6.58 13.35
12/25/2021 4:45:00 AM 2.21 35.978 0.1 7.3 6.5 13.34
12/25/2021 5:00:00 AM 2.21 35.978 0.1 7.29 6.64 13.34
12/25/2021 5:15:00 AM 2.21 35.978 0.1 7.29 6.46 13.33
12/25/2021 5:30:00 AM 2.22 35.996 0.101 7.29 6.36 13.33
12/25/2021 5:45:00 AM 2.22 35.996 0.101 7.29 6.53 13.32
12/25/2021 6:00:00 AM 2.23 36.014 0.101 7.29 6.5 13.32
12/25/2021 6:15:00 AM 2.24 36.032 0.101 7.29 6.65 13.31
12/25/2021 6:30:00 AM 2.25 36.05 0.101 7.29 6.53 13.31
12/25/2021 6:45:00 AM 2.26 36.068 0.101 7.29 6.58 13.29
12/25/2021 7:00:00 AM 2.27 36.086 0.101 7.29 6.66 13.3
12/25/2021 7:15:00 AM 2.28 36.104 0.101 7.29 6.61 13.28
12/25/2021 7:30:00 AM 2.29 36.122 0.101 7.29 6.72 13.28
12/25/2021 7:45:00 AM 2.3 36.14 0.101 7.29 6.56 13.28
12/25/2021 8:00:00 AM 2.31 36.158 0.101 7.29 6.65 13.29
12/25/2021 8:15:00 AM 2.33 36.194 0.101 7.3 6.5 13.29
12/25/2021 8:30:00 AM 2.34 36.212 0.101 7.3 7.26 13.31
12/25/2021 8:45:00 AM 2.36 36.248 0.101 7.31 6.67 13.34
12/25/2021 9:00:00 AM 2.38 36.284 0.101 7.32 6.65 13.37
12/25/2021 9:15:00 AM 2.4 36.32 0.101 7.32 6.62 13.38
12/25/2021 9:30:00 AM 2.42 36.356 0.101 7.33 6.73 13.41
12/25/2021 9:45:00 AM 2.45 36.41 0.101 7.34 6.71 13.44
12/25/2021 10:00:00 AM 2.47 36.446 0.101 7.34 6.68 13.46
12/25/2021 10:15:00 AM 2.49 36.482 0.101 7.35 6.73 13.5
12/25/2021 10:30:00 AM 2.52 36.536 0.1 7.36 6.69 13.55
12/25/2021 10:45:00 AM 2.56 36.608 0.1 7.37 6.68 13.62
12/25/2021 11:00:00 AM 2.6 36.68 0.1 7.39 6.72 13.71
12/25/2021 11:15:00 AM 2.66 36.788 0.1 7.41 6.68 13.78
12/25/2021 11:30:00 AM 2.69 36.842 0.1 7.42 6.84 13.8
12/25/2021 11:45:00 AM 2.71 36.878 0.1 7.44 6.54 13.83
12/25/2021 12:00:00 PM 2.75 36.95 0.1 7.45 6.56 13.88
12/25/2021 12:15:00 PM 2.79 37.022 0.1 7.46 6.59 13.91
12/25/2021 12:30:00 PM 2.84 37.112 0.1 7.48 6.67 13.96
12/25/2021 12:45:00 PM 2.89 37.202 0.1 7.5 6.55 14.01
12/25/2021 1:00:00 PM 2.94 37.292 0.1 7.52 6.69 14.04
12/25/2021 1:15:00 PM 2.98 37.364 0.1 7.54 6.75 14.05
12/25/2021 1:30:00 PM 3.01 37.418 0.1 7.55 6.61 14.03
12/25/2021 1:45:00 PM 3.04 37.472 0.1 7.55 6.82 14
12/25/2021 2:00:00 PM 3.07 37.526 0.1 7.56 8.48 13.99
12/25/2021 2:15:00 PM 3.12 37.616 0.1 7.57 8.34 14.03
12/25/2021 2:30:00 PM 3.18 37.724 0.1 7.58 8.58 14.05
12/25/2021 2:45:00 PM 3.23 37.814 0.1 7.6 8.67 14.08
12/25/2021 3:00:00 PM 3.26 37.868 0.1 7.61 8.43 14.05
12/25/2021 3:15:00 PM 3.29 37.922 0.1 7.61 8.51 14.04
12/25/2021 3:30:00 PM 3.32 37.976 0.1 7.61 8.5 13.99
12/25/2021 3:45:00 PM 3.34 38.012 0.1 7.61 8.43 13.93
12/25/2021 4:00:00 PM 3.35 38.03 0.1 7.59 8.43 13.86
12/25/2021 4:15:00 PM 3.37 38.066 0.101 7.57 8.41 13.75
12/25/2021 4:30:00 PM 3.39 38.102 0.101 7.55 8.25 13.66
12/25/2021 4:45:00 PM 3.41 38.138 0.101 7.53 8.46 13.57
12/25/2021 5:00:00 PM 3.42 38.156 0.101 7.51 8.47 13.48
12/25/2021 5:15:00 PM 3.43 38.174 0.101 7.49 8.51 13.39
12/25/2021 5:30:00 PM 3.45 38.21 0.101 7.47 8.58 13.31
12/25/2021 5:45:00 PM 3.46 38.228 0.101 7.46 8.55 13.25
12/25/2021 6:00:00 PM 3.46 38.228 0.101 7.44 8.62 13.22
12/25/2021 6:15:00 PM 3.47 38.246 0.101 7.43 8.57 13.17
12/25/2021 6:30:00 PM 3.48 38.264 0.101 7.42 8.75 13.12
12/25/2021 6:45:00 PM 3.49 38.282 0.101 7.41 8.37 13.09
12/25/2021 7:00:00 PM 3.48 38.264 0.1 7.4 8.37 13.05
12/25/2021 7:15:00 PM 3.49 38.282 0.1 7.39 8.06 13.02
12/25/2021 7:30:00 PM 3.5 38.3 0.1 7.38 8.03 13
12/25/2021 7:45:00 PM 3.51 38.318 0.1 7.37 8.11 12.95
12/25/2021 8:00:00 PM 3.52 38.336 0.1 7.36 8.32 12.96
12/25/2021 8:15:00 PM 3.52 38.336 0.1 7.36 8.3 12.93
12/25/2021 8:30:00 PM 3.53 38.354 0.1 7.35 7.98 12.92
12/25/2021 8:45:00 PM 3.54 38.372 0.1 7.34 8.09 12.9
12/25/2021 9:00:00 PM 3.54 38.372 0.1 7.34 8.11 12.89
12/25/2021 9:15:00 PM 3.55 38.39 0.1 7.33 7.97 12.86
12/25/2021 9:30:00 PM 3.55 38.39 0.1 7.33 8.06 12.85
12/25/2021 9:45:00 PM 3.56 38.408 0.1 7.33 7.93 12.85
12/25/2021 10:00:00 PM 3.57 38.426 0.1 7.32 7.8 12.84
12/25/2021 10:15:00 PM 3.58 38.444 0.1 7.32 7.91 12.82
12/25/2021 10:30:00 PM 3.59 38.462 0.1 7.31 7.77 12.81
12/25/2021 10:45:00 PM 3.59 38.462 0.1 7.31 7.93 12.81
12/25/2021 11:00:00 PM 3.59 38.462 0.1 7.31 7.95 12.8
12/25/2021 11:15:00 PM 3.6 38.48 0.1 7.31 7.86 12.79
12/25/2021 11:30:00 PM 3.61 38.498 0.1 7.31 8.13 12.78
12/25/2021 11:45:00 PM 3.61 38.498 0.1 7.3 8.55 12.79
12/26/2021 12:00:00 AM 3.62 38.516 0.1 7.3 8.35 12.77
12/26/2021 12:15:00 AM 3.62 38.516 0.1 7.3 8.27 12.77
12/26/2021 12:30:00 AM 3.62 38.516 0.1 7.3 8.51 12.77
12/26/2021 12:45:00 AM 3.61 38.498 0.1 7.3 8.1 12.78
12/26/2021 1:00:00 AM 3.61 38.498 0.1 7.29 8.27 12.78
12/26/2021 1:15:00 AM 3.58 38.444 0.1 7.29 8.12 12.78
12/26/2021 1:30:00 AM 3.58 38.444 0.1 7.29 8.15 12.79
12/26/2021 1:45:00 AM 3.57 38.426 0.1 7.3 8.35 12.79
12/26/2021 2:00:00 AM 3.55 38.39 0.1 7.3 8.3 12.79
12/26/2021 2:15:00 AM 3.53 38.354 0.1 7.3 8.23 12.79
12/26/2021 2:30:00 AM 3.51 38.318 0.1 7.3 8.2 12.82
12/26/2021 2:45:00 AM 3.49 38.282 0.101 7.3 8.69 12.82
12/26/2021 3:00:00 AM 3.47 38.246 0.101 7.3 8.37 12.82
12/26/2021 3:15:00 AM 3.46 38.228 0.101 7.3 8.51 12.83
12/26/2021 3:30:00 AM 3.46 38.228 0.101 7.3 8.36 12.84
12/26/2021 3:45:00 AM 3.45 38.21 0.101 7.3 8.74 12.84
12/26/2021 4:00:00 AM 3.45 38.21 0.101 7.3 8.92 12.86
12/26/2021 4:15:00 AM 3.45 38.21 0.101 7.3 8.46 12.84
12/26/2021 4:30:00 AM 3.45 38.21 0.101 7.3 8.72 12.85
12/26/2021 4:45:00 AM 3.46 38.228 0.101 7.3 8.67 12.87
12/26/2021 5:00:00 AM 3.46 38.228 0.101 7.3 8.47 12.87
12/26/2021 5:15:00 AM 3.47 38.246 0.101 7.3 8.64 12.86
12/26/2021 5:30:00 AM 3.47 38.246 0.101 7.3 8.7 12.86
12/26/2021 5:45:00 AM 3.47 38.246 0.101 7.3 8.47 12.87
12/26/2021 6:00:00 AM 3.47 38.246 0.101 7.3 8.46 12.88
12/26/2021 6:15:00 AM 3.46 38.228 0.101 7.3 8.8 12.88
12/26/2021 6:30:00 AM 3.45 38.21 0.101 7.3 8.83 12.89
12/26/2021 6:45:00 AM 3.45 38.21 0.101 7.3 8.74 12.89
12/26/2021 7:00:00 AM 3.44 38.192 0.101 7.3 8.86 12.9
12/26/2021 7:15:00 AM 3.42 38.156 0.101 7.3 9 12.91
12/26/2021 7:30:00 AM 3.39 38.102 0.101 7.3 9.11 12.91
12/26/2021 7:45:00 AM 3.36 38.048 0.101 7.3 8.75 12.95
12/26/2021 8:00:00 AM 3.33 37.994 0.101 7.31 8.7 13.01
12/26/2021 8:15:00 AM 3.3 37.94 0.101 7.32 8.56 13.08
12/26/2021 8:30:00 AM 3.28 37.904 0.101 7.33 8.59 13.16
12/26/2021 8:45:00 AM 3.28 37.904 0.101 7.34 8.46 13.25
12/26/2021 9:00:00 AM 3.31 37.958 0.101 7.36 8.42 13.36
12/26/2021 9:15:00 AM 3.32 37.976 0.101 7.38 8.47 13.46
12/26/2021 9:30:00 AM 3.33 37.994 0.101 7.4 8.35 13.54
12/26/2021 9:45:00 AM 3.35 38.03 0.101 7.41 8.41 13.61
12/26/2021 10:00:00 AM 3.38 38.084 0.101 7.43 8.41 13.69
12/26/2021 10:15:00 AM 3.43 38.174 0.101 7.45 8.26 13.76
12/26/2021 10:30:00 AM 3.47 38.246 0.101 7.47 8.34 13.83
12/26/2021 10:45:00 AM 3.52 38.336 0.101 7.49 8.31 13.88
12/26/2021 11:00:00 AM 3.6 38.48 0.1 7.51 8.31 13.95
12/26/2021 11:15:00 AM 3.69 38.642 0.1 7.53 8.34 13.99
12/26/2021 11:30:00 AM 3.75 38.75 0.1 7.55 8.31 14.04
12/26/2021 11:45:00 AM 3.83 38.894 0.1 7.57 8.33 14.09
12/26/2021 12:00:00 PM 3.92 39.056 0.1 7.59 8.41 14.12
12/26/2021 12:15:00 PM 4.02 39.236 0.1 7.61 8.32 14.15
12/26/2021 12:30:00 PM 4.11 39.398 0.1 7.63 8.33 14.16
12/26/2021 12:45:00 PM 4.16 39.488 0.1 7.64 8.37 14.15
12/26/2021 1:00:00 PM 4.19 39.542 0.1 7.65 8.62 14.14
12/26/2021 1:15:00 PM 4.23 39.614 0.1 7.66 8.63 14.14
12/26/2021 1:30:00 PM 4.27 39.686 0.099 7.67 8.48 14.13
12/26/2021 1:45:00 PM 4.27 39.686 0.099 7.69 8.43 14.13
12/26/2021 2:00:00 PM 4.26 39.668 0.099 7.7 8.47 14.13
12/26/2021 2:15:00 PM 4.26 39.668 0.099 7.7 8.47 14.11
12/26/2021 2:30:00 PM 4.31 39.758 0.099 7.72 8.34 14.11
12/26/2021 2:45:00 PM 4.3 39.74 0.099 7.72 8.33 14.06
12/26/2021 3:00:00 PM 4.29 39.722 0.099 7.72 8.3 14.04
12/26/2021 3:15:00 PM 4.31 39.758 0.099 7.73 8.29 14.04
12/26/2021 3:30:00 PM 4.29 39.722 0.099 7.71 8.22 13.97
12/26/2021 3:45:00 PM 4.27 39.686 0.099 7.7 8.18 13.9
12/26/2021 4:00:00 PM 4.26 39.668 0.099 7.69 8.2 13.83
12/26/2021 4:15:00 PM 4.25 39.65 0.099 7.66 8.2 13.72
12/26/2021 4:30:00 PM 4.23 39.614 0.099 7.63 8.3 13.62
12/26/2021 4:45:00 PM 4.22 39.596 0.099 7.6 8.05 13.52
12/26/2021 5:00:00 PM 4.2 39.56 0.099 7.58 8.14 13.41
12/26/2021 5:15:00 PM 4.18 39.524 0.099 7.55 8.14 13.33
12/26/2021 5:30:00 PM 4.17 39.506 0.099 7.53 8.18 13.26
12/26/2021 5:45:00 PM 4.15 39.47 0.099 7.51 8.22 13.2
12/26/2021 6:00:00 PM 4.13 39.434 0.099 7.49 8.45 13.12
12/26/2021 6:15:00 PM 4.11 39.398 0.099 7.48 8.55 13.1
12/26/2021 6:30:00 PM 4.08 39.344 0.099 7.46 8.25 13.08
12/26/2021 6:45:00 PM 4.06 39.308 0.099 7.45 8.54 13.04
12/26/2021 7:00:00 PM 4.03 39.254 0.099 7.44 8.43 13.01
12/26/2021 7:15:00 PM 3.99 39.182 0.099 7.43 8.35 12.96
12/26/2021 7:30:00 PM 3.95 39.11 0.099 7.41 8.44 12.96
12/26/2021 7:45:00 PM 3.92 39.056 0.099 7.41 8.16 12.96
12/26/2021 8:00:00 PM 3.88 38.984 0.099 7.4 8.29 12.93
12/26/2021 8:15:00 PM 3.84 38.912 0.099 7.39 9.91 12.92
12/26/2021 8:30:00 PM 3.8 38.84 0.1 7.38 8.28 12.91
12/26/2021 8:45:00 PM 3.75 38.75 0.1 7.37 8.21 12.9
12/26/2021 9:00:00 PM 3.71 38.678 0.1 7.37 8.21 12.9
12/26/2021 9:15:00 PM 3.67 38.606 0.1 7.36 8.46 12.91
12/26/2021 9:30:00 PM 3.64 38.552 0.1 7.35 8.27 12.89
12/26/2021 9:45:00 PM 3.6 38.48 0.1 7.35 8.36 12.91
12/26/2021 10:00:00 PM 3.57 38.426 0.1 7.34 8.28 12.91
12/26/2021 10:15:00 PM 3.54 38.372 0.1 7.34 8.27 12.93
12/26/2021 10:30:00 PM 3.52 38.336 0.1 7.33 8.25 12.93
12/26/2021 10:45:00 PM 3.5 38.3 0.1 7.33 8.34 12.91
12/26/2021 11:00:00 PM 3.47 38.246 0.1 7.33 8.33 12.94
12/26/2021 11:15:00 PM 3.44 38.192 0.1 7.32 8.34 12.96
12/26/2021 11:30:00 PM 3.42 38.156 0.1 7.32 8.31 12.95
12/26/2021 11:45:00 PM 3.39 38.102 0.1 7.32 8.32 12.94
12/27/2021 12:00:00 AM 3.37 38.066 0.1 7.31 8.51 12.97
12/27/2021 12:15:00 AM 3.35 38.03 0.1 7.31 8.47 12.97
12/27/2021 12:30:00 AM 3.32 37.976 0.1 7.31 8.43 12.95
12/27/2021 12:45:00 AM 3.3 37.94 0.1 7.31 8.38 13
12/27/2021 1:00:00 AM 3.27 37.886 0.1 7.31 8.56 13.02
12/27/2021 1:15:00 AM 3.22 37.796 0.1 7.3 8.55 13.04
12/27/2021 1:30:00 AM 3.18 37.724 0.101 7.31 8.46 13.04
12/27/2021 1:45:00 AM 3.14 37.652 0.101 7.3 8.46 13.05
12/27/2021 2:00:00 AM 3.09 37.562 0.101 7.3 8.52 13.05
12/27/2021 2:15:00 AM 3.04 37.472 0.101 7.3 8.55 13.05
12/27/2021 2:30:00 AM 3 37.4 0.101 7.3 8.57 13.09
12/27/2021 2:45:00 AM 2.94 37.292 0.101 7.3 8.56 13.1
12/27/2021 3:00:00 AM 2.9 37.22 0.101 7.3 8.5 13.12
12/27/2021 3:15:00 AM 2.84 37.112 0.101 7.3 8.35 13.15
12/27/2021 3:30:00 AM 2.79 37.022 0.101 7.3 8.99 13.17
12/27/2021 3:45:00 AM 2.75 36.95 0.102 7.29 8.48 13.17
12/27/2021 4:00:00 AM 2.7 36.86 0.102 7.29 8.37 13.2
12/27/2021 4:15:00 AM 2.67 36.806 0.102 7.29 8.45 13.22
12/27/2021 4:30:00 AM 2.63 36.734 0.102 7.29 8.45 13.24
12/27/2021 4:45:00 AM 2.6 36.68 0.102 7.29 8.55 13.25
12/27/2021 5:00:00 AM 2.56 36.608 0.102 7.29 8.55 13.27
12/27/2021 5:15:00 AM 2.53 36.554 0.102 7.29 8.62 13.27
12/27/2021 5:30:00 AM 2.51 36.518 0.102 7.29 8.65 13.28
12/27/2021 5:45:00 AM 2.48 36.464 0.102 7.29 8.53 13.27
12/27/2021 6:00:00 AM 2.45 36.41 0.102 7.29 8.55 13.31
12/27/2021 6:15:00 AM 2.43 36.374 0.102 7.29 8.56 13.31
12/27/2021 6:30:00 AM 2.41 36.338 0.102 7.29 8.48 13.31
12/27/2021 6:45:00 AM 2.39 36.302 0.102 7.29 12.64 13.32
12/27/2021 7:00:00 AM 2.37 36.266 0.102 7.28 10.08 13.32
12/27/2021 7:15:00 AM 2.35 36.23 0.102 7.28 9.86 13.36
12/27/2021 7:30:00 AM 2.33 36.194 0.102 7.28 9.17 13.37
12/27/2021 7:45:00 AM 2.31 36.158 0.102 7.28 11.04 13.38
12/27/2021 8:00:00 AM 2.3 36.14 0.102 7.28 11.82 13.4
12/27/2021 8:15:00 AM 2.29 36.122 0.102 7.28 11.96 13.43
12/27/2021 8:30:00 AM 2.28 36.104 0.102 7.28 11.97 13.45
12/27/2021 8:45:00 AM 2.28 36.104 0.102 7.29 12.7 13.5
12/27/2021 9:00:00 AM 2.27 36.086 0.102 7.29 12.84 13.53
12/27/2021 9:15:00 AM 2.28 36.104 0.102 7.3 13.81 13.57
12/27/2021 9:30:00 AM 2.26 36.068 0.102 7.31 13.77 13.59
12/27/2021 9:45:00 AM 2.27 36.086 0.102 7.31 7.94 13.61
12/27/2021 10:00:00 AM 2.28 36.104 0.102 7.32 7.79 13.65
12/27/2021 10:15:00 AM 2.29 36.122 0.102 7.34 7.86 13.71
12/27/2021 10:30:00 AM 2.31 36.158 0.102 7.35 7.9 13.78
12/27/2021 10:45:00 AM 2.36 36.248 0.102 7.37 8 13.89
12/27/2021 11:00:00 AM 2.39 36.302 0.102 7.39 8.02 13.98
12/27/2021 11:15:00 AM 2.47 36.446 0.102 7.41 8.05 14.04
12/27/2021 11:30:00 AM 2.51 36.518 0.101 7.43 7.98 14.17
12/27/2021 11:45:00 AM 2.57 36.626 0.101 7.46 8.09 14.24
12/27/2021 12:00:00 PM 2.59 36.662 0.101 7.47 7.99 14.29
12/27/2021 12:15:00 PM 2.6 36.68 0.101 7.49 8 14.33
12/27/2021 12:30:00 PM 2.61 36.698 0.101 7.51 8.03 14.36
12/27/2021 12:45:00 PM 2.63 36.734 0.101 7.53 8.1 14.42
12/27/2021 1:00:00 PM 2.64 36.752 0.101 7.54 8.07 14.41
12/27/2021 1:15:00 PM 2.64 36.752 0.101 7.55 7.97 14.39
12/27/2021 1:30:00 PM 2.63 36.734 0.101 7.54 7.99 14.32
12/27/2021 1:45:00 PM 2.55 36.59 0.101 7.54 8 14.26
12/27/2021 2:00:00 PM 2.34 36.212 0.101 7.53 8.38 14.23
12/27/2021 2:15:00 PM 2.36 36.248 0.101 7.53 8.31 14.18
12/27/2021 2:30:00 PM 2.38 36.284 0.1 7.52 8.29 14.16
12/27/2021 2:45:00 PM 2.38 36.284 0.1 7.52 8.25 14.13
12/27/2021 3:00:00 PM 2.4 36.32 0.1 7.52 8.26 14.12
12/27/2021 3:15:00 PM 2.42 36.356 0.1 7.51 8.2 14.1
12/27/2021 3:30:00 PM 2.4 36.32 0.1 7.51 8.1 14.07
12/27/2021 3:45:00 PM 2.37 36.266 0.1 7.51 8.12 14.05
12/27/2021 4:00:00 PM 2.36 36.248 0.1 7.5 7.96 14.04
12/27/2021 4:15:00 PM 2.37 36.266 0.1 7.48 8.02 13.97
12/27/2021 4:30:00 PM 2.39 36.302 0.1 7.47 7.83 13.92
12/27/2021 4:45:00 PM 2.4 36.32 0.101 7.46 7.96 13.85
12/27/2021 5:00:00 PM 2.41 36.338 0.101 7.45 8.07 13.8
12/27/2021 5:15:00 PM 2.42 36.356 0.101 7.44 8.41 13.74
12/27/2021 5:30:00 PM 2.42 36.356 0.101 7.43 8.36 13.7
12/27/2021 5:45:00 PM 2.41 36.338 0.101 7.42 8.39 13.66
12/27/2021 6:00:00 PM 2.41 36.338 0.101 7.41 8.51 13.61
12/27/2021 6:15:00 PM 2.4 36.32 0.101 7.4 8.34 13.58
12/27/2021 6:30:00 PM 2.38 36.284 0.101 7.39 8.29 13.55
12/27/2021 6:45:00 PM 2.37 36.266 0.101 7.38 8.16 13.53
12/27/2021 7:00:00 PM 2.36 36.248 0.101 7.37 8.26 13.52
12/27/2021 7:15:00 PM 2.35 36.23 0.101 7.37 8.14 13.52
12/27/2021 7:30:00 PM 2.35 36.23 0.101 7.36 8.05 13.5
12/27/2021 7:45:00 PM 2.35 36.23 0.101 7.36 8.1 13.47
12/27/2021 8:00:00 PM 2.35 36.23 0.101 7.35 8.07 13.45
12/27/2021 8:15:00 PM 2.35 36.23 0.101 7.35 8.07 13.43
12/27/2021 8:30:00 PM 2.34 36.212 0.1 7.34 8.34 13.43
12/27/2021 8:45:00 PM 2.34 36.212 0.1 7.34 8.66 13.41
12/27/2021 9:00:00 PM 2.34 36.212 0.1 7.33 8.69 13.41
12/27/2021 9:15:00 PM 2.34 36.212 0.1 7.33 8.79 13.39
12/27/2021 9:30:00 PM 2.34 36.212 0.1 7.33 8.79 13.39
12/27/2021 9:45:00 PM 2.34 36.212 0.1 7.32 8.7 13.38
12/27/2021 10:00:00 PM 2.35 36.23 0.1 7.32 8.59 13.34
12/27/2021 10:15:00 PM 2.35 36.23 0.1 7.31 8.81 13.34
12/27/2021 10:30:00 PM 2.35 36.23 0.1 7.31 8.64 13.33
12/27/2021 10:45:00 PM 2.34 36.212 0.1 7.31 8.94 13.33
12/27/2021 11:00:00 PM 2.34 36.212 0.1 7.31 9.14 13.33
12/27/2021 11:15:00 PM 2.34 36.212 0.1 7.3 8.95 13.34
12/27/2021 11:30:00 PM 2.34 36.212 0.1 7.3 9.04 13.33
12/27/2021 11:45:00 PM 2.34 36.212 0.101 7.3 9.2 13.31
12/28/2021 12:00:00 AM 2.35 36.23 0.101 7.3 9.24 13.3
12/28/2021 12:15:00 AM 2.35 36.23 0.102 7.3 9.3 13.3
12/28/2021 12:30:00 AM 2.35 36.23 0.102 7.3 9.54 13.31
12/28/2021 12:45:00 AM 2.36 36.248 0.103 7.3 9.57 13.32
12/28/2021 1:00:00 AM 2.36 36.248 0.104 7.3 10.07 13.31
12/28/2021 1:15:00 AM 2.37 36.266 0.105 7.3 10.29 13.31
12/28/2021 1:30:00 AM 2.37 36.266 0.105 7.3 9.93 13.31
12/28/2021 1:45:00 AM 2.37 36.266 0.105 7.3 9.68 13.29
12/28/2021 2:00:00 AM 2.38 36.284 0.105 7.3 9.47 13.31
12/28/2021 2:15:00 AM 2.38 36.284 0.105 7.3 9.42 13.3
12/28/2021 2:30:00 AM 2.39 36.302 0.105 7.3 11.37 13.29
12/28/2021 2:45:00 AM 2.39 36.302 0.106 7.3 9.32 13.29
12/28/2021 3:00:00 AM 2.4 36.32 0.106 7.3 9.22 13.29
12/28/2021 3:15:00 AM 2.4 36.32 0.106 7.3 9.3 13.29
12/28/2021 3:30:00 AM 2.41 36.338 0.107 7.3 9.33 13.28
12/28/2021 3:45:00 AM 2.41 36.338 0.107 7.3 9.23 13.27
12/28/2021 4:00:00 AM 2.42 36.356 0.108 7.3 9.27 13.28
12/28/2021 4:15:00 AM 2.42 36.356 0.109 7.3 9.37 13.27
12/28/2021 4:30:00 AM 2.4 36.32 0.109 7.3 9.37 13.27
12/28/2021 4:45:00 AM 2.4 36.32 0.11 7.3 9.47 13.27
12/28/2021 5:00:00 AM 2.41 36.338 0.11 7.3 9.47 13.26
12/28/2021 5:15:00 AM 2.42 36.356 0.111 7.3 9.46 13.27
12/28/2021 5:30:00 AM 2.42 36.356 0.111 7.3 9.55 13.26
12/28/2021 5:45:00 AM 2.42 36.356 0.111 7.3 9.45 13.26
12/28/2021 6:00:00 AM 2.43 36.374 0.111 7.3 9.47 13.26
12/28/2021 6:15:00 AM 2.43 36.374 0.111 7.3 9.42 13.26
12/28/2021 6:30:00 AM 2.44 36.392 0.111 7.3 9.46 13.26
12/28/2021 6:45:00 AM 2.44 36.392 0.111 7.3 9.25 13.26
12/28/2021 7:00:00 AM 2.45 36.41 0.111 7.3 9.32 13.26
12/28/2021 7:15:00 AM 2.45 36.41 0.111 7.3 9.09 13.27
12/28/2021 7:30:00 AM 2.46 36.428 0.11 7.29 8.92 13.27
12/28/2021 7:45:00 AM 2.47 36.446 0.11 7.3 8.92 13.28
12/28/2021 8:00:00 AM 2.47 36.446 0.11 7.3 8.79 13.31
12/28/2021 8:15:00 AM 2.48 36.464 0.109 7.31 8.76 13.35
12/28/2021 8:30:00 AM 2.5 36.5 0.109 7.32 8.84 13.4
12/28/2021 8:45:00 AM 2.51 36.518 0.109 7.33 8.66 13.42
12/28/2021 9:00:00 AM 2.52 36.536 0.108 7.34 8.71 13.5
12/28/2021 9:15:00 AM 2.54 36.572 0.108 7.35 8.71 13.57
12/28/2021 9:30:00 AM 2.57 36.626 0.108 7.36 8.65 13.67
12/28/2021 9:45:00 AM 2.61 36.698 0.107 7.38 8.71 13.74
12/28/2021 10:00:00 AM 2.65 36.77 0.107 7.4 8.71 13.83
12/28/2021 10:15:00 AM 2.68 36.824 0.107 7.42 8.71 13.91
12/28/2021 10:30:00 AM 2.72 36.896 0.107 7.44 8.69 13.97
12/28/2021 10:45:00 AM 2.76 36.968 0.106 7.45 8.67 14.02
12/28/2021 11:00:00 AM 2.78 37.004 0.106 7.46 8.64 14.07
12/28/2021 11:15:00 AM 2.81 37.058 0.106 7.47 8.56 14.1
12/28/2021 11:30:00 AM 2.88 37.184 0.106 7.5 8.49 14.18
12/28/2021 11:45:00 AM 2.93 37.274 0.106 7.52 8.48 14.2
12/28/2021 12:00:00 PM 2.96 37.328 0.105 7.53 8.43 14.21
12/28/2021 12:15:00 PM 2.99 37.382 0.105 7.54 8.44 14.22
12/28/2021 12:30:00 PM 3.01 37.418 0.105 7.55 8.44 14.22
12/28/2021 12:45:00 PM 3.06 37.508 0.105 7.56 8.53 14.23
12/28/2021 1:00:00 PM 3.09 37.562 0.105 7.58 8.47 14.24
12/28/2021 1:15:00 PM 3.12 37.616 0.105 7.58 8.42 14.21
12/28/2021 1:30:00 PM 3.15 37.67 0.105 7.59 8.43 14.19
12/28/2021 1:45:00 PM 3.17 37.706 0.105 7.59 8.61 14.17
12/28/2021 2:00:00 PM 3.19 37.742 0.105 7.59 8.55 14.13
12/28/2021 2:15:00 PM 3.22 37.796 0.105 7.58 8.5 14.09
12/28/2021 2:30:00 PM 3.26 37.868 0.105 7.59 8.41 14.1
12/28/2021 2:45:00 PM 3.28 37.904 0.105 7.59 8.38 14.09
12/28/2021 3:00:00 PM 3.3 37.94 0.105 7.59 8.5 14.05
12/28/2021 3:15:00 PM 3.31 37.958 0.105 7.59 8.43 14
12/28/2021 3:30:00 PM 3.32 37.976 0.105 7.57 8.45 13.92
12/28/2021 3:45:00 PM 3.33 37.994 0.105 7.56 8.5 13.84
12/28/2021 4:00:00 PM 3.34 38.012 0.105 7.54 8.4 13.78
12/28/2021 4:15:00 PM 3.35 38.03 0.105 7.52 8.31 13.7
12/28/2021 4:30:00 PM 3.36 38.048 0.105 7.51 8.22 13.64
12/28/2021 4:45:00 PM 3.36 38.048 0.105 7.49 8.52 13.55
12/28/2021 5:00:00 PM 3.36 38.048 0.106 7.47 8.46 13.48
12/28/2021 5:15:00 PM 3.36 38.048 0.106 7.45 8.67 13.42
12/28/2021 5:30:00 PM 3.36 38.048 0.106 7.44 8.28 13.37
12/28/2021 5:45:00 PM 3.36 38.048 0.106 7.43 8.35 13.3
12/28/2021 6:00:00 PM 3.37 38.066 0.106 7.42 8.3 13.27
12/28/2021 6:15:00 PM 3.37 38.066 0.106 7.41 8.37 13.24
12/28/2021 6:30:00 PM 3.37 38.066 0.106 7.4 8.43 13.22
12/28/2021 6:45:00 PM 3.37 38.066 0.106 7.39 8.43 13.19
12/28/2021 7:00:00 PM 3.37 38.066 0.106 7.38 8.36 13.15
12/28/2021 7:15:00 PM 3.37 38.066 0.106 7.37 8.23 13.13
12/28/2021 7:30:00 PM 3.37 38.066 0.106 7.37 8.5 13.12
12/28/2021 7:45:00 PM 3.37 38.066 0.106 7.36 8.36 13.08
12/28/2021 8:00:00 PM 3.38 38.084 0.106 7.35 8.28 13.06
12/28/2021 8:15:00 PM 3.38 38.084 0.106 7.35 8.19 13.05
12/28/2021 8:30:00 PM 3.38 38.084 0.106 7.35 8.23 13.04
12/28/2021 8:45:00 PM 3.37 38.066 0.106 7.34 8.26 13.01
12/28/2021 9:00:00 PM 3.37 38.066 0.106 7.34 8.37 13.02
12/28/2021 9:15:00 PM 3.33 37.994 0.105 7.33 8.41 13.01
12/28/2021 9:30:00 PM 3.34 38.012 0.105 7.33 8.99 13
12/28/2021 9:45:00 PM 3.33 37.994 0.105 7.33 8.42 12.99
12/28/2021 10:00:00 PM 3.33 37.994 0.105 7.32 8.49 12.99
12/28/2021 10:15:00 PM 3.33 37.994 0.105 7.33 8.41 12.98
12/28/2021 10:30:00 PM 3.33 37.994 0.105 7.32 8.45 12.97
12/28/2021 10:45:00 PM 3.33 37.994 0.105 7.32 8.71 12.97
12/28/2021 11:00:00 PM 3.33 37.994 0.104 7.32 8.69 12.98
12/28/2021 11:15:00 PM 3.33 37.994 0.104 7.32 8.48 12.96
12/28/2021 11:30:00 PM 3.34 38.012 0.104 7.31 8.57 12.96
12/28/2021 11:45:00 PM 3.35 38.03 0.105 7.31 8.78 12.96
12/29/2021 12:00:00 AM 3.35 38.03 0.105 7.31 8.71 12.94
12/29/2021 12:15:00 AM 3.36 38.048 0.105 7.31 8.69 12.95
12/29/2021 12:30:00 AM 3.36 38.048 0.105 7.31 9.85 12.93
12/29/2021 12:45:00 AM 3.36 38.048 0.106 7.31 9.8 12.93
12/29/2021 1:00:00 AM 3.36 38.048 0.107 7.31 10.48 12.93
12/29/2021 1:15:00 AM 3.36 38.048 0.108 7.31 11.67 12.93
12/29/2021 1:30:00 AM 3.36 38.048 0.11 7.32 13.83 12.92
12/29/2021 1:45:00 AM 3.36 38.048 0.111 7.33 16.32 12.94
12/29/2021 2:00:00 AM 3.36 38.048 0.112 7.34 16.98 12.95
12/29/2021 2:15:00 AM 3.37 38.066 0.113 7.34 17.49 12.93
12/29/2021 2:30:00 AM 3.39 38.102 0.113 7.34 21.05 12.93
12/29/2021 2:45:00 AM 3.4 38.12 0.113 7.34 21.02 12.92
12/29/2021 3:00:00 AM 3.41 38.138 0.114 7.34 21.33 12.93
12/29/2021 3:15:00 AM 3.42 38.156 0.115 7.34 27.58 12.94
12/29/2021 3:30:00 AM 3.42 38.156 0.115 7.35 23.5 12.92
12/29/2021 3:45:00 AM 3.43 38.174 0.116 7.34 30.96 12.93
12/29/2021 4:00:00 AM 3.44 38.192 0.117 7.35 30.46 12.91
12/29/2021 4:15:00 AM 3.44 38.192 0.117 7.34 29.87 12.9
12/29/2021 4:30:00 AM 3.45 38.21 0.117 7.34 23.58 12.91
12/29/2021 4:45:00 AM 3.45 38.21 0.117 7.34 27.54 12.9
12/29/2021 5:00:00 AM 3.46 38.228 0.117 7.34 23.71 12.88
12/29/2021 5:15:00 AM 3.46 38.228 0.117 7.34 21.52 12.88
12/29/2021 5:30:00 AM 3.46 38.228 0.117 7.34 20.26 12.88
12/29/2021 5:45:00 AM 3.47 38.246 0.116 7.33 19.71 12.88
12/29/2021 6:00:00 AM 3.47 38.246 0.116 7.33 18.85 12.89
12/29/2021 6:15:00 AM 3.47 38.246 0.116 7.33 17.96 12.9
12/29/2021 6:30:00 AM 3.48 38.264 0.115 7.33 18.93 12.89
12/29/2021 6:45:00 AM 3.48 38.264 0.114 7.33 20.41 12.9
12/29/2021 7:00:00 AM 3.48 38.264 0.114 7.32 20.02 12.91
12/29/2021 7:15:00 AM 3.49 38.282 0.113 7.32 20.57 12.9
12/29/2021 7:30:00 AM 3.49 38.282 0.113 7.32 22.12 12.89
12/29/2021 7:45:00 AM 3.49 38.282 0.113 7.32 24.08 12.91
12/29/2021 8:00:00 AM 3.5 38.3 0.112 7.32 22.97 12.91
12/29/2021 8:15:00 AM 3.5 38.3 0.112 7.32 22.4 12.92
12/29/2021 8:30:00 AM 3.51 38.318 0.112 7.32 21.73 12.96
12/29/2021 8:45:00 AM 3.52 38.336 0.111 7.32 21.99 12.99
12/29/2021 9:00:00 AM 3.53 38.354 0.111 7.33 22.48 13
12/29/2021 9:15:00 AM 3.54 38.372 0.111 7.34 23.15 13.04
12/29/2021 9:30:00 AM 3.56 38.408 0.111 7.34 23.03 13.09
12/29/2021 9:45:00 AM 3.58 38.444 0.11 7.35 22.88 13.14
12/29/2021 10:00:00 AM 3.61 38.498 0.11 7.36 22.75 13.23
12/29/2021 10:15:00 AM 3.65 38.57 0.11 7.38 21.97 13.3
12/29/2021 10:30:00 AM 3.68 38.624 0.11 7.4 22.59 13.37
12/29/2021 10:45:00 AM 3.72 38.696 0.109 7.42 22.71 13.44
12/29/2021 11:00:00 AM 3.76 38.768 0.109 7.43 22.43 13.5
12/29/2021 11:15:00 AM 3.79 38.822 0.109 7.44 22.15 13.55
12/29/2021 11:30:00 AM 3.82 38.876 0.109 7.46 22.69 13.59
12/29/2021 11:45:00 AM 3.85 38.93 0.109 7.47 22.54 13.6
12/29/2021 12:00:00 PM 3.9 39.02 0.109 7.49 22.69 13.64
12/29/2021 12:15:00 PM 3.94 39.092 0.109 7.5 22.81 13.68
12/29/2021 12:30:00 PM 4 39.2 0.109 7.52 22.68 13.73
12/29/2021 12:45:00 PM 4.05 39.29 0.108 7.53 22.26 13.75
12/29/2021 1:00:00 PM 4.11 39.398 0.108 7.54 22.34 13.77
12/29/2021 1:15:00 PM 4.17 39.506 0.108 7.56 21.86 13.79
12/29/2021 1:30:00 PM 4.21 39.578 0.108 7.58 22.3 13.81
12/29/2021 1:45:00 PM 4.26 39.668 0.108 7.59 22.37 13.81
12/29/2021 2:00:00 PM 4.3 39.74 0.108 7.6 22.19 13.79
12/29/2021 2:15:00 PM 4.33 39.794 0.108 7.6 21.24 13.76
12/29/2021 2:30:00 PM 4.37 39.866 0.108 7.61 20.86 13.74
12/29/2021 2:45:00 PM 4.4 39.92 0.108 7.6 21.09 13.71
12/29/2021 3:00:00 PM 4.43 39.974 0.108 7.6 21.63 13.65
12/29/2021 3:15:00 PM 4.45 40.01 0.108 7.59 21.51 13.61
12/29/2021 3:30:00 PM 4.47 40.046 0.108 7.58 21.39 13.53
12/29/2021 3:45:00 PM 4.49 40.082 0.108 7.57 21.47 13.49
12/29/2021 4:00:00 PM 4.5 40.1 0.108 7.55 21.72 13.41
12/29/2021 4:15:00 PM 4.5 40.1 0.108 7.54 21.38 13.33
12/29/2021 4:30:00 PM 4.51 40.118 0.109 7.52 21.45 13.27
12/29/2021 4:45:00 PM 4.51 40.118 0.109 7.5 20.8 13.18
12/29/2021 5:00:00 PM 4.52 40.136 0.109 7.48 20.89 13.1
12/29/2021 5:15:00 PM 4.52 40.136 0.109 7.46 21.09 13.03
12/29/2021 5:30:00 PM 4.52 40.136 0.109 7.44 21.13 12.98
12/29/2021 5:45:00 PM 4.53 40.154 0.109 7.43 21.01 12.91
12/29/2021 6:00:00 PM 4.53 40.154 0.109 7.42 20.63 12.88
12/29/2021 6:15:00 PM 4.53 40.154 0.109 7.4 20.78 12.83
12/29/2021 6:30:00 PM 4.54 40.172 0.109 7.39 21.99 12.79
12/29/2021 6:45:00 PM 4.54 40.172 0.109 7.38 23.18 12.77
12/29/2021 7:00:00 PM 4.54 40.172 0.11 7.37 22.69 12.74
12/29/2021 7:15:00 PM 4.54 40.172 0.11 7.37 22.83 12.72
12/29/2021 7:30:00 PM 4.53 40.154 0.11 7.36 21.98 12.69
12/29/2021 7:45:00 PM 4.53 40.154 0.11 7.35 21.62 12.68
12/29/2021 8:00:00 PM 4.53 40.154 0.11 7.35 21.48 12.67
12/29/2021 8:15:00 PM 4.53 40.154 0.11 7.34 21.61 12.65
12/29/2021 8:30:00 PM 4.53 40.154 0.11 7.33 21.5 12.64
12/29/2021 8:45:00 PM 4.52 40.136 0.11 7.33 21.48 12.62
12/29/2021 9:00:00 PM 4.52 40.136 0.11 7.32 22.17 12.61
12/29/2021 9:15:00 PM 4.5 40.1 0.11 7.32 21.56 12.59
12/29/2021 9:30:00 PM 4.5 40.1 0.11 7.32 22.07 12.6
12/29/2021 9:45:00 PM 4.5 40.1 0.11 7.31 21.84 12.58
12/29/2021 10:00:00 PM 4.51 40.118 0.11 7.31 21.96 12.59
12/29/2021 10:15:00 PM 4.51 40.118 0.11 7.31 22.04 12.58
12/29/2021 10:30:00 PM 4.51 40.118 0.11 7.31 21.51 12.59
12/29/2021 10:45:00 PM 4.51 40.118 0.11 7.3 21.65 12.58
12/29/2021 11:00:00 PM 4.51 40.118 0.11 7.3 22.48 12.58
12/29/2021 11:15:00 PM 4.51 40.118 0.11 7.3 21.26 12.56
12/29/2021 11:30:00 PM 4.52 40.136 0.11 7.3 21.01 12.58
12/29/2021 11:45:00 PM 4.52 40.136 0.11 7.3 21.24 12.57
12/30/2021 12:00:00 AM 4.52 40.136 0.11 7.29 21.86 12.57
12/30/2021 12:15:00 AM 4.53 40.154 0.11 7.29 23.18 12.57
12/30/2021 12:30:00 AM 4.53 40.154 0.11 7.29 23.44 12.55
12/30/2021 12:45:00 AM 4.54 40.172 0.11 7.29 23.32 12.55
12/30/2021 1:00:00 AM 4.54 40.172 0.111 7.29 24.94 12.54
12/30/2021 1:15:00 AM 4.54 40.172 0.11 7.29 24.04 12.56
12/30/2021 1:30:00 AM 4.55 40.19 0.111 7.29 24.19 12.55
12/30/2021 1:45:00 AM 4.55 40.19 0.111 7.29 25.78 12.53
12/30/2021 2:00:00 AM 4.56 40.208 0.111 7.29 76.95 12.53
12/30/2021 2:15:00 AM 4.56 40.208 0.111 7.28 25.38 12.53
12/30/2021 2:30:00 AM 4.57 40.226 0.111 7.28 25.41 12.53
12/30/2021 2:45:00 AM 4.57 40.226 0.111 7.29 23.92 12.52
12/30/2021 3:00:00 AM 4.57 40.226 0.111 7.28 23.78 12.53
12/30/2021 3:15:00 AM 4.58 40.244 0.111 7.28 23.71 12.51
12/30/2021 3:30:00 AM 4.58 40.244 0.111 7.28 25.47 12.52
12/30/2021 3:45:00 AM 4.58 40.244 0.111 7.28 23.49 12.5
12/30/2021 4:00:00 AM 4.59 40.262 0.111 7.28 22.86 12.51
12/30/2021 4:15:00 AM 4.59 40.262 0.111 7.28 22.47 12.52
12/30/2021 4:30:00 AM 4.6 40.28 0.111 7.28 21.1 12.51
12/30/2021 4:45:00 AM 4.61 40.298 0.111 7.28 24.6 12.51
12/30/2021 5:00:00 AM 4.61 40.298 0.111 7.28 19.88 12.5
12/30/2021 5:15:00 AM 4.62 40.316 0.111 7.28 22.29 12.5
12/30/2021 5:30:00 AM 4.62 40.316 0.111 7.28 19.71 12.51
12/30/2021 5:45:00 AM 4.63 40.334 0.111 7.28 18.82 12.51
12/30/2021 6:00:00 AM 4.63 40.334 0.111 7.28 16.83 12.5
12/30/2021 6:15:00 AM 4.64 40.352 0.111 7.28 16.33 12.5
12/30/2021 6:30:00 AM 4.65 40.37 0.111 7.28 16.28 12.49
12/30/2021 6:45:00 AM 4.65 40.37 0.111 7.28 16.07 12.49
12/30/2021 7:00:00 AM 4.66 40.388 0.111 7.28 15.87 12.5
12/30/2021 7:15:00 AM 4.67 40.406 0.111 7.28 15.05 12.49
12/30/2021 7:30:00 AM 4.68 40.424 0.111 7.27 14.66 12.48
12/30/2021 7:45:00 AM 4.68 40.424 0.111 7.27 16.31 12.49
12/30/2021 8:00:00 AM 4.69 40.442 0.111 7.27 15.43 12.5
12/30/2021 8:15:00 AM 4.7 40.46 0.111 7.28 15.27 12.51
12/30/2021 8:30:00 AM 4.71 40.478 0.111 7.28 16.17 12.52
12/30/2021 8:45:00 AM 4.72 40.496 0.111 7.28 15.69 12.52
12/30/2021 9:00:00 AM 4.73 40.514 0.111 7.28 13.06 12.54
12/30/2021 9:15:00 AM 4.75 40.55 0.111 7.29 11.79 12.55
12/30/2021 9:30:00 AM 4.76 40.568 0.111 7.29 11.71 12.58
12/30/2021 9:45:00 AM 4.77 40.586 0.11 7.3 11.94 12.62
12/30/2021 10:00:00 AM 4.79 40.622 0.111 7.3 11.8 12.66
12/30/2021 10:15:00 AM 4.81 40.658 0.111 7.31 11.82 12.69
12/30/2021 10:30:00 AM 4.82 40.676 0.11 7.32 11.86 12.72
12/30/2021 10:45:00 AM 4.84 40.712 0.11 7.33 12.83 12.75
12/30/2021 11:00:00 AM 4.87 40.766 0.11 7.34 12.72 12.81
12/30/2021 11:15:00 AM 4.9 40.82 0.11 7.35 12.41 12.88
12/30/2021 11:30:00 AM 4.93 40.874 0.11 7.37 12.34 12.92
12/30/2021 11:45:00 AM 4.95 40.91 0.11 7.38 12.46 12.97
12/30/2021 12:00:00 PM 4.97 40.946 0.11 7.38 12.87 12.96
12/30/2021 12:15:00 PM 4.99 40.982 0.11 7.39 12.87 12.99
12/30/2021 12:30:00 PM 5.03 41.054 0.11 7.41 12.78 13.03
12/30/2021 12:45:00 PM 5.08 41.144 0.11 7.42 12.92 13.09
12/30/2021 1:00:00 PM 5.12 41.216 0.11 7.44 12.95 13.13
12/30/2021 1:15:00 PM 5.16 41.288 0.11 7.45 12.92 13.15
12/30/2021 1:30:00 PM 5.19 41.342 0.109 7.46 13.21 13.17
12/30/2021 1:45:00 PM 5.22 41.396 0.109 7.47 12.94 13.17
12/30/2021 2:00:00 PM 5.24 41.432 0.109 7.48 12.98 13.15
12/30/2021 2:15:00 PM 5.27 41.486 0.109 7.48 12.99 13.12
12/30/2021 2:30:00 PM 5.29 41.522 0.109 7.48 12.76 13.09
12/30/2021 2:45:00 PM 5.32 41.576 0.109 7.48 13.07 13.05
12/30/2021 3:00:00 PM 5.34 41.612 0.109 7.47 12.94 12.99
12/30/2021 3:15:00 PM 5.36 41.648 0.109 7.46 13 12.95
12/30/2021 3:30:00 PM 5.38 41.684 0.109 7.46 15.05 12.89
12/30/2021 3:45:00 PM 5.39 41.702 0.109 7.44 13.27 12.84
12/30/2021 4:00:00 PM 5.39 41.702 0.109 7.43 13.26 12.75
12/30/2021 4:15:00 PM 5.4 41.72 0.109 7.42 13.71 12.73
12/30/2021 4:30:00 PM 5.41 41.738 0.109 7.41 13.33 12.66
12/30/2021 4:45:00 PM 5.42 41.756 0.109 7.39 13.52 12.62
12/30/2021 5:00:00 PM 5.43 41.774 0.109 7.38 13.71 12.57
12/30/2021 5:15:00 PM 5.43 41.774 0.109 7.37 13.58 12.52
12/30/2021 5:30:00 PM 5.44 41.792 0.109 7.36 13.25 12.49
12/30/2021 5:45:00 PM 5.45 41.81 0.109 7.35 13.17 12.44
12/30/2021 6:00:00 PM 5.45 41.81 0.109 7.35 13.1 12.42
12/30/2021 6:15:00 PM 5.46 41.828 0.109 7.34 13.08 12.39
12/30/2021 6:30:00 PM 5.47 41.846 0.109 7.33 14.28 12.36
12/30/2021 6:45:00 PM 5.47 41.846 0.109 7.32 14.16 12.34
12/30/2021 7:00:00 PM 5.48 41.864 0.109 7.32 14.33 12.33
12/30/2021 7:15:00 PM 5.49 41.882 0.109 7.31 14.57 12.31
12/30/2021 7:30:00 PM 5.5 41.9 0.109 7.31 14.45 12.3
12/30/2021 7:45:00 PM 5.51 41.918 0.109 7.3 14.71 12.27
12/30/2021 8:00:00 PM 5.52 41.936 0.109 7.3 15.43 12.26
12/30/2021 8:15:00 PM 5.53 41.954 0.109 7.3 15.55 12.26
12/30/2021 8:30:00 PM 5.53 41.954 0.109 7.29 15.63 12.24
12/30/2021 8:45:00 PM 5.54 41.972 0.109 7.29 15.69 12.25
12/30/2021 9:00:00 PM 5.55 41.99 0.108 7.29 15.82 12.24
12/30/2021 9:15:00 PM 5.56 42.008 0.108 7.29 15.83 12.23
12/30/2021 9:30:00 PM 5.57 42.026 0.108 7.29 15.69 12.23
12/30/2021 9:45:00 PM 5.58 42.044 0.108 7.29 15.19 12.22
12/30/2021 10:00:00 PM 5.59 42.062 0.108 7.28 15.37 12.22
12/30/2021 10:15:00 PM 5.6 42.08 0.108 7.28 15.44 12.21
12/30/2021 10:30:00 PM 5.6 42.08 0.108 7.28 15.78 12.21
12/30/2021 10:45:00 PM 5.61 42.098 0.108 7.28 16.2 12.21
12/30/2021 11:00:00 PM 5.62 42.116 0.108 7.28 15.92 12.2
12/30/2021 11:15:00 PM 5.63 42.134 0.109 7.28 15.81 12.2
12/30/2021 11:30:00 PM 5.64 42.152 0.109 7.28 16.5 12.19
12/30/2021 11:45:00 PM 5.64 42.152 0.109 7.27 16.04 12.18
12/31/2021 12:00:00 AM 5.65 42.17 0.109 7.27 16.29 12.2
12/31/2021 12:15:00 AM 5.66 42.188 0.109 7.27 16.09 12.18
12/31/2021 12:30:00 AM 5.66 42.188 0.109 7.27 16.25 12.18
12/31/2021 12:45:00 AM 5.67 42.206 0.109 7.27 15.75 12.18
12/31/2021 1:00:00 AM 5.68 42.224 0.109 7.27 16.56 12.17
12/31/2021 1:15:00 AM 5.68 42.224 0.109 7.27 15.82 12.17
12/31/2021 1:30:00 AM 5.69 42.242 0.109 7.27 15.71 12.17
12/31/2021 1:45:00 AM 5.69 42.242 0.108 7.27 15.73 12.16
12/31/2021 2:00:00 AM 5.7 42.26 0.108 7.27 15.61 12.16
12/31/2021 2:15:00 AM 5.71 42.278 0.109 7.26 15.81 12.15
12/31/2021 2:30:00 AM 5.71 42.278 0.108 7.26 15.76 12.15
12/31/2021 2:45:00 AM 5.72 42.296 0.109 7.26 15.64 12.15
12/31/2021 3:00:00 AM 5.73 42.314 0.109 7.26 15.51 12.16
12/31/2021 3:15:00 AM 5.73 42.314 0.109 7.26 15.89 12.15
12/31/2021 3:30:00 AM 5.74 42.332 0.109 7.26 15.58 12.15
12/31/2021 3:45:00 AM 5.74 42.332 0.108 7.26 17.32 12.15
12/31/2021 4:00:00 AM 5.75 42.35 0.108 7.26 17.32 12.14
12/31/2021 4:15:00 AM 5.75 42.35 0.109 7.26 17.29 12.13
12/31/2021 4:30:00 AM 5.76 42.368 0.109 7.25 16.79 12.15
12/31/2021 4:45:00 AM 5.76 42.368 0.109 7.25 16.53 12.13
12/31/2021 5:00:00 AM 5.77 42.386 0.108 7.25 16.91 12.13
12/31/2021 5:15:00 AM 5.78 42.404 0.108 7.25 16.69 12.11
12/31/2021 5:30:00 AM 5.78 42.404 0.108 7.26 16.64 12.13
12/31/2021 5:45:00 AM 5.79 42.422 0.108 7.25 16.69 12.12
12/31/2021 6:00:00 AM 5.8 42.44 0.108 7.25 17.22 12.12
12/31/2021 6:15:00 AM 5.8 42.44 0.108 7.25 17.18 12.11
12/31/2021 6:30:00 AM 5.81 42.458 0.108 7.25 17.33 12.11
12/31/2021 6:45:00 AM 5.82 42.476 0.108 7.25 17.47 12.1
12/31/2021 7:00:00 AM 5.82 42.476 0.108 7.25 17.14 12.12
12/31/2021 7:15:00 AM 5.83 42.494 0.108 7.25 17.34 12.11
12/31/2021 7:30:00 AM 5.85 42.53 0.108 7.25 17.22 12.11
12/31/2021 7:45:00 AM 5.86 42.548 0.108 7.26 17.41 12.11
12/31/2021 8:00:00 AM 5.86 42.548 0.108 7.26 17.14 12.13
12/31/2021 8:15:00 AM 5.88 42.584 0.108 7.27 17.02 12.14
12/31/2021 8:30:00 AM 5.9 42.62 0.108 7.28 16.78 12.2
12/31/2021 8:45:00 AM 5.92 42.656 0.108 7.29 16.32 12.21
12/31/2021 9:00:00 AM 5.95 42.71 0.108 7.3 16.28 12.29
12/31/2021 9:15:00 AM 5.98 42.764 0.108 7.32 16.12 12.36
12/31/2021 9:30:00 AM 6.01 42.818 0.108 7.33 15.89 12.39
12/31/2021 9:45:00 AM 6.02 42.836 0.108 7.34 15.69 12.39
12/31/2021 10:00:00 AM 6.08 42.944 0.108 7.36 15.66 12.48
12/31/2021 10:15:00 AM 6.13 43.034 0.108 7.37 16.01 12.54
12/31/2021 10:30:00 AM 6.16 43.088 0.108 7.39 16.09 12.61
12/31/2021 10:45:00 AM 6.19 43.142 0.108 7.41 15.45 12.65
12/31/2021 11:00:00 AM 6.25 43.25 0.107 7.42 16.17 12.71
12/31/2021 11:15:00 AM 6.33 43.394 0.107 7.44 16.24 12.79
12/31/2021 11:30:00 AM 6.41 43.538 0.107 7.47 15.78 12.83
12/31/2021 11:45:00 AM 6.48 43.664 0.107 7.49 15.66 12.88
12/31/2021 12:00:00 PM 6.53 43.754 0.107 7.5 16.09 12.9
12/31/2021 12:15:00 PM 6.58 43.844 0.107 7.52 15.89 12.93
12/31/2021 12:30:00 PM 6.63 43.934 0.107 7.54 15.92 12.93
12/31/2021 12:45:00 PM 6.68 44.024 0.107 7.55 16.02 12.96
12/31/2021 1:00:00 PM 6.72 44.096 0.107 7.57 16.26 12.95
12/31/2021 1:15:00 PM 6.76 44.168 0.107 7.58 16.23 12.95
12/31/2021 1:30:00 PM 6.8 44.24 0.107 7.59 16.15 12.94
12/31/2021 1:45:00 PM 6.83 44.294 0.107 7.6 17.95 12.95
12/31/2021 2:00:00 PM 6.85 44.33 0.106 7.6 17.87 12.9
12/31/2021 2:15:00 PM 6.87 44.366 0.106 7.6 17.6 12.87
12/31/2021 2:30:00 PM 6.89 44.402 0.106 7.61 17.59 12.84
12/31/2021 2:45:00 PM 6.91 44.438 0.106 7.59 17.35 12.79
12/31/2021 3:00:00 PM 6.92 44.456 0.106 7.59 17.37 12.75
12/31/2021 3:15:00 PM 6.93 44.474 0.106 7.58 17.88 12.68
12/31/2021 3:30:00 PM 6.92 44.456 0.106 7.56 17.76 12.6
12/31/2021 3:45:00 PM 6.93 44.474 0.106 7.54 17.97 12.55
12/31/2021 4:00:00 PM 6.93 44.474 0.107 7.52 17.98 12.49
12/31/2021 4:15:00 PM 6.94 44.492 0.107 7.51 18.54 12.42
12/31/2021 4:30:00 PM 6.94 44.492 0.107 7.49 18.08 12.33
12/31/2021 4:45:00 PM 6.94 44.492 0.107 7.47 17.05 12.25
12/31/2021 5:00:00 PM 6.94 44.492 0.107 7.45 17.52 12.19
12/31/2021 5:15:00 PM 6.94 44.492 0.107 7.43 17.92 12.12
12/31/2021 5:30:00 PM 6.94 44.492 0.107 7.41 19.28 12.08
12/31/2021 5:45:00 PM 6.94 44.492 0.107 7.4 18.11 12.03
12/31/2021 6:00:00 PM 6.93 44.474 0.107 7.39 17.01 11.99
12/31/2021 6:15:00 PM 6.93 44.474 0.107 7.37 16.91 11.96
12/31/2021 6:30:00 PM 6.93 44.474 0.107 7.37 18.21 11.92
12/31/2021 6:45:00 PM 6.93 44.474 0.107 7.36 18.54 11.92
12/31/2021 7:00:00 PM 6.93 44.474 0.107 7.34 18.35 11.88
12/31/2021 7:15:00 PM 6.93 44.474 0.107 7.33 16.75 11.87
12/31/2021 7:30:00 PM 6.94 44.492 0.107 7.33 16.9 11.83
12/31/2021 7:45:00 PM 6.94 44.492 0.106 7.32 16.96 11.82
12/31/2021 8:00:00 PM 6.94 44.492 0.107 7.32 16.12 11.81
12/31/2021 8:15:00 PM 6.94 44.492 0.107 7.31 17.03 11.8
12/31/2021 8:30:00 PM 6.94 44.492 0.107 7.31 16.41 11.78
12/31/2021 8:45:00 PM 6.93 44.474 0.107 7.3 16.29 11.76
12/31/2021 9:00:00 PM 6.91 44.438 0.106 7.3 16.75 11.76
12/31/2021 9:15:00 PM 6.9 44.42 0.107 7.3 16.41 11.76
12/31/2021 9:30:00 PM 6.89 44.402 0.107 7.3 15.83 11.76
12/31/2021 9:45:00 PM 6.88 44.384 0.107 7.29 15.46 11.75
12/31/2021 10:00:00 PM 6.87 44.366 0.107 7.29 15.3 11.74
12/31/2021 10:15:00 PM 6.86 44.348 0.107 7.28 15.64 11.74
12/31/2021 10:30:00 PM 6.86 44.348 0.107 7.29 15.73 11.75
12/31/2021 10:45:00 PM 6.85 44.33 0.107 7.28 15.36 11.75
12/31/2021 11:00:00 PM 6.85 44.33 0.107 7.28 15.55 11.73
12/31/2021 11:15:00 PM 6.85 44.33 0.107 7.28 15.78 11.74
12/31/2021 11:30:00 PM 6.85 44.33 0.107 7.28 15.81 11.75
12/31/2021 11:45:00 PM 6.85 44.33 0.107 7.28 15.51 11.74
1/1/2022 12:00:00 AM 6.85 44.33 0.107 7.28 15.38 11.73
1/1/2022 12:15:00 AM 6.85 44.33 0.107 7.27 16.28 11.73
1/1/2022 12:30:00 AM 6.85 44.33 0.107 7.28 15.82 11.72
1/1/2022 12:45:00 AM 6.85 44.33 0.107 7.28 15.22 11.74
1/1/2022 1:00:00 AM 6.86 44.348 0.107 7.28 15.17 11.73
1/1/2022 1:15:00 AM 6.86 44.348 0.107 7.28 15.21 11.72
1/1/2022 1:30:00 AM 6.86 44.348 0.107 7.28 15.57 11.73
1/1/2022 1:45:00 AM 6.86 44.348 0.107 7.28 15.47 11.72
1/1/2022 2:00:00 AM 6.86 44.348 0.107 7.28 15.42 11.72
1/1/2022 2:15:00 AM 6.87 44.366 0.107 7.28 15.66 11.71
1/1/2022 2:30:00 AM 6.87 44.366 0.107 7.28 15.99 11.72
1/1/2022 2:45:00 AM 6.88 44.384 0.107 7.27 16.26 11.7
1/1/2022 3:00:00 AM 6.88 44.384 0.107 7.28 16.85 11.7
1/1/2022 3:15:00 AM 6.89 44.402 0.107 7.28 16.66 11.7
1/1/2022 3:30:00 AM 6.89 44.402 0.107 7.28 14.88 11.72
1/1/2022 3:45:00 AM 6.9 44.42 0.107 7.28 14.76 11.72
1/1/2022 4:00:00 AM 6.9 44.42 0.107 7.28 14.72 11.71
1/1/2022 4:15:00 AM 6.91 44.438 0.107 7.28 14.85 11.7
1/1/2022 4:30:00 AM 6.91 44.438 0.107 7.28 14.67 11.7
1/1/2022 4:45:00 AM 6.91 44.438 0.107 7.27 14.74 11.7
1/1/2022 5:00:00 AM 6.92 44.456 0.107 7.27 14.5 11.68
1/1/2022 5:15:00 AM 6.92 44.456 0.107 7.27 14.14 11.69
1/1/2022 5:30:00 AM 6.93 44.474 0.107 7.27 10.65 11.69
1/1/2022 5:45:00 AM 6.93 44.474 0.107 7.27 7.89 11.68
1/1/2022 6:00:00 AM 6.94 44.492 0.107 7.27 12.65 11.68
1/1/2022 6:15:00 AM 6.94 44.492 0.107 7.27 12.71 11.68
1/1/2022 6:30:00 AM 6.95 44.51 0.107 7.27 12.64 11.68
1/1/2022 6:45:00 AM 6.95 44.51 0.107 7.26 12.77 11.67
1/1/2022 7:00:00 AM 6.96 44.528 0.107 7.26 13.41 11.65
1/1/2022 7:15:00 AM 6.96 44.528 0.107 7.26 12.58 11.67
1/1/2022 7:30:00 AM 6.97 44.546 0.107 7.26 12.78 11.66
1/1/2022 7:45:00 AM 6.97 44.546 0.107 7.26 11.99 11.65
1/1/2022 8:00:00 AM 6.98 44.564 0.107 7.26 12.09 11.67
1/1/2022 8:15:00 AM 6.99 44.582 0.107 7.26 12.57 11.67
1/1/2022 8:30:00 AM 7 44.6 0.107 7.27 14.15 11.69
1/1/2022 8:45:00 AM 7.01 44.618 0.107 7.27 13.95 11.72
1/1/2022 9:00:00 AM 7.02 44.636 0.107 7.27 13.79 11.75
1/1/2022 9:15:00 AM 7.03 44.654 0.107 7.29 13.94 11.78
1/1/2022 9:30:00 AM 7.04 44.672 0.107 7.29 13.75 11.82
1/1/2022 9:45:00 AM 7.07 44.726 0.106 7.3 13.91 11.89
1/1/2022 10:00:00 AM 7.09 44.762 0.106 7.32 13.64 11.97
1/1/2022 10:15:00 AM 7.11 44.798 0.106 7.33 13.97 11.99
1/1/2022 10:30:00 AM 7.13 44.834 0.106 7.33 14.23 12.02
1/1/2022 10:45:00 AM 7.15 44.87 0.106 7.35 13.92 12.08
1/1/2022 11:00:00 AM 7.19 44.942 0.106 7.37 13.14 12.15
1/1/2022 11:15:00 AM 7.21 44.978 0.106 7.38 13.62 12.19
1/1/2022 11:30:00 AM 7.23 45.014 0.106 7.4 13.24 12.2
1/1/2022 11:45:00 AM 7.25 45.05 0.106 7.41 13.48 12.24
1/1/2022 12:00:00 PM 7.27 45.086 0.106 7.41 13.39 12.23
1/1/2022 12:15:00 PM 7.3 45.14 0.106 7.42 13.27 12.27
1/1/2022 12:30:00 PM 7.33 45.194 0.105 7.43 13.26 12.26
1/1/2022 12:45:00 PM 7.35 45.23 0.105 7.43 13.32 12.27
1/1/2022 1:00:00 PM 7.38 45.284 0.105 7.44 13.04 12.3
1/1/2022 1:15:00 PM 7.43 45.374 0.105 7.46 12.82 12.34
1/1/2022 1:30:00 PM 7.45 45.41 0.105 7.48 13.08 12.36
1/1/2022 1:45:00 PM 7.49 45.482 0.105 7.49 13.01 12.4
1/1/2022 2:00:00 PM 7.51 45.518 0.105 7.49 13.53 12.41
1/1/2022 2:15:00 PM 7.56 45.608 0.105 7.51 13.92 12.43
1/1/2022 2:30:00 PM 7.57 45.626 0.105 7.51 13.37 12.41
1/1/2022 2:45:00 PM 7.59 45.662 0.105 7.52 13.32 12.39
1/1/2022 3:00:00 PM 7.6 45.68 0.105 7.52 12.57 12.35
1/1/2022 3:15:00 PM 7.62 45.716 0.105 7.51 12.48 12.32
1/1/2022 3:30:00 PM 7.64 45.752 0.105 7.52 12.41 12.28
1/1/2022 3:45:00 PM 7.64 45.752 0.105 7.49 12.58 12.21
1/1/2022 4:00:00 PM 7.65 45.77 0.105 7.48 12.29 12.12
1/1/2022 4:15:00 PM 7.65 45.77 0.105 7.45 12.43 12.03
1/1/2022 4:30:00 PM 7.65 45.77 0.105 7.44 12.22 11.98
1/1/2022 4:45:00 PM 7.65 45.77 0.105 7.41 12.09 11.9
1/1/2022 5:00:00 PM 7.64 45.752 0.105 7.4 12.12 11.85
1/1/2022 5:15:00 PM 7.64 45.752 0.105 7.38 12.04 11.78
1/1/2022 5:30:00 PM 7.64 45.752 0.105 7.37 11.58 11.73
1/1/2022 5:45:00 PM 7.63 45.734 0.105 7.36 11.86 11.69
1/1/2022 6:00:00 PM 7.64 45.752 0.105 7.34 12.24 11.66
1/1/2022 6:15:00 PM 7.63 45.734 0.105 7.33 12.22 11.63
1/1/2022 6:30:00 PM 7.63 45.734 0.104 7.32 12.19 11.6
1/1/2022 6:45:00 PM 7.63 45.734 0.104 7.31 12.21 11.58
1/1/2022 7:00:00 PM 7.63 45.734 0.105 7.3 12.39 11.56
1/1/2022 7:15:00 PM 7.63 45.734 0.104 7.29 12.22 11.53
1/1/2022 7:30:00 PM 7.63 45.734 0.104 7.28 12.39 11.52
1/1/2022 7:45:00 PM 7.63 45.734 0.104 7.28 15.04 11.5
1/1/2022 8:00:00 PM 7.63 45.734 0.104 7.27 16.09 11.49
1/1/2022 8:15:00 PM 7.63 45.734 0.104 7.27 15.53 11.5
1/1/2022 8:30:00 PM 7.63 45.734 0.104 7.27 13.09 11.49
1/1/2022 8:45:00 PM 7.63 45.734 0.104 7.26 16.19 11.47
1/1/2022 9:00:00 PM 7.63 45.734 0.104 7.25 12.95 11.47
1/1/2022 9:15:00 PM 7.63 45.734 0.104 7.25 12.76 11.46
1/1/2022 9:30:00 PM 7.63 45.734 0.104 7.25 13.37 11.45
1/1/2022 9:45:00 PM 7.63 45.734 0.105 7.25 15.89 11.45
1/1/2022 10:00:00 PM 7.64 45.752 0.105 7.26 17.21 11.44
1/1/2022 10:15:00 PM 7.64 45.752 0.106 7.27 19.13 11.44
1/1/2022 10:30:00 PM 7.64 45.752 0.107 7.27 20.28 11.44
1/1/2022 10:45:00 PM 7.65 45.77 0.108 7.28 19.1 11.44
1/1/2022 11:00:00 PM 7.65 45.77 0.109 7.29 22.82 11.44
1/1/2022 11:15:00 PM 7.66 45.788 0.109 7.3 22 11.44
1/1/2022 11:30:00 PM 7.66 45.788 0.109 7.3 21.73 11.43
1/1/2022 11:45:00 PM 7.66 45.788 0.11 7.3 24.25 11.43
1/2/2022 12:00:00 AM 7.66 45.788 0.11 7.31 29.98 11.43
1/2/2022 12:15:00 AM 7.66 45.788 0.111 7.31 22.45 11.42
1/2/2022 12:30:00 AM 7.66 45.788 0.111 7.31 24.61 11.42
1/2/2022 12:45:00 AM 7.66 45.788 0.111 7.31 22.91 11.41
1/2/2022 1:00:00 AM 7.66 45.788 0.111 7.31 33.14 11.41
1/2/2022 1:15:00 AM 7.66 45.788 0.111 7.31 32.22 11.42
1/2/2022 1:30:00 AM 7.66 45.788 0.11 7.3 25.43 11.42
1/2/2022 1:45:00 AM 7.66 45.788 0.11 7.3 29.24 11.43
1/2/2022 2:00:00 AM 7.66 45.788 0.109 7.3 29.82 11.43
1/2/2022 2:15:00 AM 7.66 45.788 0.108 7.29 35.52 11.43
1/2/2022 2:30:00 AM 7.66 45.788 0.108 7.29 36.34 11.43
1/2/2022 2:45:00 AM 7.66 45.788 0.107 7.29 22.07 11.43
1/2/2022 3:00:00 AM 7.66 45.788 0.107 7.29 24.35 11.44
1/2/2022 3:15:00 AM 7.66 45.788 0.106 7.29 21.61 11.43
1/2/2022 3:30:00 AM 7.65 45.77 0.106 7.3 25.84 11.44
1/2/2022 3:45:00 AM 7.64 45.752 0.105 7.3 27.27 11.45
1/2/2022 4:00:00 AM 7.63 45.734 0.105 7.3 29.39 11.45
1/2/2022 4:15:00 AM 7.62 45.716 0.105 7.3 33.12 11.47
1/2/2022 4:30:00 AM 7.61 45.698 0.105 7.3 31.93 11.47
1/2/2022 4:45:00 AM 7.6 45.68 0.105 7.3 30.93 11.47
1/2/2022 5:00:00 AM 7.59 45.662 0.104 7.3 37.64 11.47
1/2/2022 5:15:00 AM 7.58 45.644 0.104 7.3 31.41 11.48
1/2/2022 5:30:00 AM 7.57 45.626 0.104 7.3 30.14 11.48
1/2/2022 5:45:00 AM 7.56 45.608 0.104 7.3 30.45 11.48
1/2/2022 6:00:00 AM 7.55 45.59 0.104 7.3 33.76 11.49
1/2/2022 6:15:00 AM 7.54 45.572 0.104 7.3 38.39 11.48
1/2/2022 6:30:00 AM 7.53 45.554 0.104 7.29 38.33 11.48
1/2/2022 6:45:00 AM 7.52 45.536 0.104 7.3 36.43 11.49
1/2/2022 7:00:00 AM 7.5 45.5 0.104 7.3 35.31 11.5
1/2/2022 7:15:00 AM 7.49 45.482 0.104 7.3 34.88 11.51
1/2/2022 7:30:00 AM 7.47 45.446 0.104 7.3 34.7 11.51
1/2/2022 7:45:00 AM 7.45 45.41 0.104 7.3 35.19 11.51
1/2/2022 8:00:00 AM 7.43 45.374 0.104 7.3 34.64 11.52
1/2/2022 8:15:00 AM 7.42 45.356 0.104 7.3 34.94 11.53
1/2/2022 8:30:00 AM 7.4 45.32 0.104 7.3 36.07 11.55
1/2/2022 8:45:00 AM 7.38 45.284 0.104 7.31 35.33 11.58
1/2/2022 9:00:00 AM 7.36 45.248 0.104 7.32 36 11.6
1/2/2022 9:15:00 AM 7.34 45.212 0.104 7.31 34.93 11.63
1/2/2022 9:30:00 AM 7.34 45.212 0.104 7.33 35.07 11.71
1/2/2022 9:45:00 AM 7.34 45.212 0.104 7.34 35.59 11.8
1/2/2022 10:00:00 AM 7.33 45.194 0.104 7.35 35.62 11.84
1/2/2022 10:15:00 AM 7.33 45.194 0.104 7.37 36.42 11.91
1/2/2022 10:30:00 AM 7.33 45.194 0.104 7.38 35.73 11.98
1/2/2022 10:45:00 AM 7.34 45.212 0.104 7.4 35.67 12.03
1/2/2022 11:00:00 AM 7.35 45.23 0.104 7.41 35.21 12.08
1/2/2022 11:15:00 AM 7.34 45.212 0.104 7.42 39.05 12.11
1/2/2022 11:30:00 AM 7.34 45.212 0.104 7.43 32.05 12.13
1/2/2022 11:45:00 AM 7.35 45.23 0.104 7.44 33.65 12.18
1/2/2022 12:00:00 PM 7.35 45.23 0.104 7.45 39.01 12.22
1/2/2022 12:15:00 PM 7.38 45.284 0.104 7.47 40.1 12.27
1/2/2022 12:30:00 PM 7.4 45.32 0.104 7.48 39.23 12.32
1/2/2022 12:45:00 PM 7.42 45.356 0.104 7.5 40.37 12.37
1/2/2022 1:00:00 PM 7.4 45.32 0.104 7.51 41.63 12.37
1/2/2022 1:15:00 PM 7.41 45.338 0.104 7.52 42.01 12.4
1/2/2022 1:30:00 PM 7.41 45.338 0.104 7.52 39.52 12.39
1/2/2022 1:45:00 PM 7.4 45.32 0.104 7.52 38.6 12.37
1/2/2022 2:00:00 PM 7.39 45.302 0.104 7.52 36.73 12.37
1/2/2022 2:15:00 PM 7.38 45.284 0.104 7.53 40.09 12.38
1/2/2022 2:30:00 PM 7.38 45.284 0.103 7.54 40.31 12.42
1/2/2022 2:45:00 PM 7.38 45.284 0.103 7.54 39.81 12.44
1/2/2022 3:00:00 PM 7.33 45.194 0.103 7.54 38.01 12.41
1/2/2022 3:15:00 PM 7.29 45.122 0.103 7.53 40.35 12.35
1/2/2022 3:30:00 PM 7.26 45.068 0.103 7.51 39.76 12.32
1/2/2022 3:45:00 PM 7.23 45.014 0.103 7.5 41.18 12.28
1/2/2022 4:00:00 PM 7.19 44.942 0.103 7.49 41.43 12.23
1/2/2022 4:15:00 PM 7.15 44.87 0.103 7.47 40.49 12.19
1/2/2022 4:30:00 PM 7.09 44.762 0.103 7.45 34.18 12.16
1/2/2022 4:45:00 PM 7.05 44.69 0.104 7.44 41.05 12.11
1/2/2022 5:00:00 PM 7 44.6 0.104 7.42 40.6 12.07
1/2/2022 5:15:00 PM 6.94 44.492 0.104 7.41 40.44 12.04
1/2/2022 5:30:00 PM 6.88 44.384 0.104 7.39 41.35 12.03
1/2/2022 5:45:00 PM 6.82 44.276 0.104 7.38 41.58 12.01
1/2/2022 6:00:00 PM 6.76 44.168 0.104 7.37 44.02 11.99
1/2/2022 6:15:00 PM 6.71 44.078 0.103 7.36 39.31 11.98
1/2/2022 6:30:00 PM 6.66 43.988 0.104 7.35 44.97 11.98
1/2/2022 6:45:00 PM 6.6 43.88 0.104 7.34 44.84 12
1/2/2022 7:00:00 PM 6.55 43.79 0.104 7.34 45.38 12
1/2/2022 7:15:00 PM 6.49 43.682 0.104 7.33 44.74 12.01
1/2/2022 7:30:00 PM 6.44 43.592 0.104 7.32 44.13 12.01
1/2/2022 7:45:00 PM 6.37 43.466 0.104 7.31 33.68 12.02
1/2/2022 8:00:00 PM 6.31 43.358 0.104 7.31 35.98 12.03
1/2/2022 8:15:00 PM 6.24 43.232 0.104 7.31 41.25 12.04
1/2/2022 8:30:00 PM 6.18 43.124 0.104 7.31 35.96 12.06
1/2/2022 8:45:00 PM 6.12 43.016 0.104 7.3 36.41 12.07
1/2/2022 9:00:00 PM 6.06 42.908 0.104 7.3 34.99 12.08
1/2/2022 9:15:00 PM 5.99 42.782 0.104 7.3 36.26 12.11
1/2/2022 9:30:00 PM 5.92 42.656 0.104 7.29 35.62 12.12
1/2/2022 9:45:00 PM 5.84 42.512 0.104 7.29 31.61 12.15
1/2/2022 10:00:00 PM 5.77 42.386 0.104 7.29 35.01 12.18
1/2/2022 10:15:00 PM 5.7 42.26 0.104 7.29 33.99 12.21
1/2/2022 10:30:00 PM 5.62 42.116 0.104 7.28 34.13 12.23
1/2/2022 10:45:00 PM 5.54 41.972 0.104 7.28 32.8 12.24
1/2/2022 11:00:00 PM 5.47 41.846 0.104 7.26 32.97 12.27
1/2/2022 11:15:00 PM 5.41 41.738 0.104 7.26 34.51 12.29
1/2/2022 11:30:00 PM 5.35 41.63 0.104 7.23 31.45 12.32
1/2/2022 11:45:00 PM 5.3 41.54 0.104 7.21 32.67 12.34
1/3/2022 12:00:00 AM 5.24 41.432 0.104 7.21 32.5 12.37
1/3/2022 12:15:00 AM 5.2 41.36 0.104 7.21 33.06 12.38
1/3/2022 12:30:00 AM 5.15 41.27 0.104 7.21 31.81 12.41
1/3/2022 12:45:00 AM 5.12 41.216 0.104 7.22 32.17 12.43
1/3/2022 1:00:00 AM 5.07 41.126 0.104 7.22 32 12.44
1/3/2022 1:15:00 AM 5.03 41.054 0.104 7.22 32.35 12.46
1/3/2022 1:30:00 AM 4.98 40.964 0.104 7.22 32.42 12.48
1/3/2022 1:45:00 AM 4.94 40.892 0.104 7.22 32.51 12.49
1/3/2022 2:00:00 AM 4.89 40.802 0.104 7.22 32.45 12.51
1/3/2022 2:15:00 AM 4.84 40.712 0.104 7.22 33.23 12.53
1/3/2022 2:30:00 AM 4.79 40.622 0.104 7.22 33.28 12.56
1/3/2022 2:45:00 AM 4.75 40.55 0.104 7.22 34.52 12.58
1/3/2022 3:00:00 AM 4.71 40.478 0.104 7.23 33.17 12.6
1/3/2022 3:15:00 AM 4.66 40.388 0.104 7.23 32.11 12.62
1/3/2022 3:30:00 AM 4.61 40.298 0.104 7.23 32.95 12.64
1/3/2022 3:45:00 AM 4.57 40.226 0.104 7.23 33.08 12.66
1/3/2022 4:00:00 AM 4.52 40.136 0.104 7.23 33.51 12.67
1/3/2022 4:15:00 AM 4.46 40.028 0.104 7.23 33.43 12.69
1/3/2022 4:30:00 AM 4.4 39.92 0.104 7.23 34.94 12.72
1/3/2022 4:45:00 AM 4.33 39.794 0.104 7.23 34.95 12.72
1/3/2022 5:00:00 AM 4.26 39.668 0.104 7.22 32.75 12.74
1/3/2022 5:15:00 AM 4.2 39.56 0.104 7.22 32.87 12.77
1/3/2022 5:30:00 AM 4.12 39.416 0.104 7.22 32.92 12.8
1/3/2022 5:45:00 AM 4.06 39.308 0.104 7.22 31.57 12.83
1/3/2022 6:00:00 AM 3.99 39.182 0.104 7.22 30.47 12.85
1/3/2022 6:15:00 AM 3.92 39.056 0.104 7.22 35.49 12.87
1/3/2022 6:30:00 AM 3.86 38.948 0.104 7.21 34.51 12.9
1/3/2022 6:45:00 AM 3.79 38.822 0.104 7.21 34.91 12.92
1/3/2022 7:00:00 AM 3.72 38.696 0.104 7.21 35.2 12.94
1/3/2022 7:15:00 AM 3.66 38.588 0.104 7.21 35.11 12.97
1/3/2022 7:30:00 AM 3.6 38.48 0.104 7.22 36.01 12.98
1/3/2022 7:45:00 AM 3.54 38.372 0.104 7.21 34.69 13.03
1/3/2022 8:00:00 AM 3.48 38.264 0.104 7.22 34.66 13.06
1/3/2022 8:15:00 AM 3.43 38.174 0.104 7.22 34.43 13.1
1/3/2022 8:30:00 AM 3.37 38.066 0.104 7.23 34.74 13.14
1/3/2022 8:45:00 AM 3.33 37.994 0.104 7.24 34.37 13.19
1/3/2022 9:00:00 AM 3.28 37.904 0.104 7.24 36.54 13.24
1/3/2022 9:15:00 AM 3.24 37.832 0.104 7.27 34.25 13.3
1/3/2022 9:30:00 AM 3.21 37.778 0.104 7.26 33.68 13.36
1/3/2022 9:45:00 AM 3.17 37.706 0.104 7.27 33.73 13.43
1/3/2022 10:00:00 AM 3.13 37.634 0.104 7.28 33.94 13.48
1/3/2022 10:15:00 AM 3.1 37.58 0.104 7.29 34.57 13.54
1/3/2022 10:30:00 AM 3.07 37.526 0.104 7.31 34.37 13.6
1/3/2022 10:45:00 AM 3.04 37.472 0.104 7.32 36.54 13.66
1/3/2022 11:00:00 AM 3.02 37.436 0.103 7.33 36.45 13.72
1/3/2022 11:15:00 AM 2.99 37.382 0.103 7.34 38.46 13.77
1/3/2022 11:30:00 AM 2.96 37.328 0.103 7.35 37.4 13.82
1/3/2022 11:45:00 AM 2.94 37.292 0.103 7.37 37.18 13.87
1/3/2022 12:00:00 PM 2.94 37.292 0.103 7.38 37.98 13.92
1/3/2022 12:15:00 PM 2.93 37.274 0.103 7.39 37.61 13.96
1/3/2022 12:30:00 PM 2.91 37.238 0.103 7.41 39.12 14
1/3/2022 12:45:00 PM 2.89 37.202 0.103 7.41 39.24 14.03
1/3/2022 1:00:00 PM 2.88 37.184 0.103 7.42 38.9 14.05
1/3/2022 1:15:00 PM 2.89 37.202 0.103 7.43 40.35 14.09
1/3/2022 1:30:00 PM 2.89 37.202 0.103 7.44 37.55 14.12
1/3/2022 1:45:00 PM 2.89 37.202 0.103 7.45 36.45 14.13
1/3/2022 2:00:00 PM 2.91 37.238 0.102 7.46 29.92 14.15
1/3/2022 2:15:00 PM 2.91 37.238 0.102 7.47 50.77 14.17
1/3/2022 2:30:00 PM 2.88 37.184 0.102 7.47 24.28 14.17
1/3/2022 2:45:00 PM 2.86 37.148 0.102 7.48 25.17 14.17
1/3/2022 3:00:00 PM 2.84 37.112 0.102 7.47 25.31 14.17
1/3/2022 3:15:00 PM 2.82 37.076 0.102 7.48 26.43 14.16
1/3/2022 3:30:00 PM 2.8 37.04 0.102 7.47 26.59 14.15
1/3/2022 3:45:00 PM 2.76 36.968 0.102 7.47 26.75 14.11
1/3/2022 4:00:00 PM 2.72 36.896 0.102 7.46 23.56 14.09
1/3/2022 4:15:00 PM 2.67 36.806 0.102 7.44 23.81 14.04
1/3/2022 4:30:00 PM 2.62 36.716 0.102 7.42 23.31 14
1/3/2022 4:45:00 PM 2.58 36.644 0.102 7.41 23.06 13.94
1/3/2022 5:00:00 PM 2.54 36.572 0.102 7.39 23.28 13.9
1/3/2022 5:15:00 PM 2.5 36.5 0.102 7.38 23.81 13.85
1/3/2022 5:30:00 PM 2.44 36.392 0.102 7.36 27.56 13.82
1/3/2022 5:45:00 PM 2.39 36.302 0.102 7.34 27.36 13.8
1/3/2022 6:00:00 PM 2.33 36.194 0.102 7.33 27.07 13.79
1/3/2022 6:15:00 PM 2.28 36.104 0.102 7.32 26.71 13.78
1/3/2022 6:30:00 PM 2.23 36.014 0.102 7.31 27.2 13.77
1/3/2022 6:45:00 PM 2.18 35.924 0.102 7.3 27.96 13.77
1/3/2022 7:00:00 PM 2.13 35.834 0.102 7.29 28.52 13.77
1/3/2022 7:15:00 PM 2.08 35.744 0.102 7.28 28.14 13.77
1/3/2022 7:30:00 PM 2.02 35.636 0.102 7.28 30.29 13.77
1/3/2022 7:45:00 PM 1.97 35.546 0.102 7.27 30.17 13.78
1/3/2022 8:00:00 PM 1.91 35.438 0.102 7.26 31.04 13.79
1/3/2022 8:15:00 PM 1.85 35.33 0.102 7.26 31.51 13.79
1/3/2022 8:30:00 PM 1.8 35.24 0.102 7.25 65.81 13.81
1/3/2022 8:45:00 PM 1.75 35.15 0.102 7.25 32.62 13.82
1/3/2022 9:00:00 PM 1.7 35.06 0.102 7.24 33.45 13.84
1/3/2022 9:15:00 PM 1.64 34.952 0.102 7.24 36.28 13.86
1/3/2022 9:30:00 PM 1.59 34.862 0.102 7.24 37.16 13.88
1/3/2022 9:45:00 PM 1.54 34.772 0.102 7.24 37.21 13.9
1/3/2022 10:00:00 PM 1.49 34.682 0.102 7.23 38.55 13.91
1/3/2022 10:15:00 PM 1.44 34.592 0.102 7.23 48.12 13.93
1/3/2022 10:30:00 PM 1.39 34.502 0.102 7.23 40.31 13.95
1/3/2022 10:45:00 PM 1.34 34.412 0.102 7.23 39.5 13.97
1/3/2022 11:00:00 PM 1.29 34.322 0.102 7.23 40.31 13.98
1/3/2022 11:15:00 PM 1.24 34.232 0.102 7.23 40.23 14
1/3/2022 11:30:00 PM 1.19 34.142 0.102 7.23 40.61 14.02
1/3/2022 11:45:00 PM 1.13 34.034 0.102 7.22 41.68 14.05
1/4/2022 12:00:00 AM 1.08 33.944 0.102 7.22 41.71 14.07
1/4/2022 12:15:00 AM 1.03 33.854 0.102 7.22 41.57 14.11
1/4/2022 12:30:00 AM 0.97 33.746 0.102 7.22 43.83 14.12
1/4/2022 12:45:00 AM 0.92 33.656 0.102 7.22 52.92 14.14
1/4/2022 1:00:00 AM 0.88 33.584 0.102 7.22 34.49 14.16
1/4/2022 1:15:00 AM 0.83 33.494 0.102 7.22 32.43 14.18
1/4/2022 1:30:00 AM 0.79 33.422 0.102 7.22 37.17 14.21
1/4/2022 1:45:00 AM 0.75 33.35 0.102 7.22 34.95 14.22
1/4/2022 2:00:00 AM 0.71 33.278 0.102 7.22 35.12 14.24
1/4/2022 2:15:00 AM 0.67 33.206 0.102 7.23 34.19 14.25
1/4/2022 2:30:00 AM 0.63 33.134 0.102 7.22 26.56 14.26
1/4/2022 2:45:00 AM 0.59 33.062 0.102 7.22 27.55 14.28
1/4/2022 3:00:00 AM 0.55 32.99 0.102 7.23 27 14.3
1/4/2022 3:15:00 AM 0.51 32.918 0.102 7.23 29.13 14.32
1/4/2022 3:30:00 AM 0.48 32.864 0.102 7.22 28.53 14.34
1/4/2022 3:45:00 AM 0.45 32.81 0.102 7.22 28.33 14.36
1/4/2022 4:00:00 AM 0.43 32.774 0.102 7.22 29.08 14.37
1/4/2022 4:15:00 AM 0.4 32.72 0.102 7.23 30.13 14.39
1/4/2022 4:30:00 AM 0.38 32.684 0.102 7.22 30.39 14.4
1/4/2022 4:45:00 AM 0.36 32.648 0.102 7.23 30.11 14.42
1/4/2022 5:00:00 AM 0.33 32.594 0.102 7.23 30.18 14.43
1/4/2022 5:15:00 AM 0.3 32.54 0.102 7.22 30.42 14.43
1/4/2022 5:30:00 AM 0.27 32.486 0.102 7.22 30.78 14.45
1/4/2022 5:45:00 AM 0.23 32.414 0.102 7.22 31.01 14.47
1/4/2022 6:00:00 AM 0.2 32.36 0.102 7.22 31.1 14.47
1/4/2022 6:15:00 AM 0.17 32.306 0.102 7.22 30.8 14.48
1/4/2022 6:30:00 AM 0.14 32.252 0.102 7.22 31.8 14.5
1/4/2022 6:45:00 AM 0.1 32.18 0.102 7.22 31.22 14.49
1/4/2022 7:00:00 AM 0.07 32.126 0.102 7.22 32.21 14.51
1/4/2022 7:15:00 AM 0.04 32.072 0.102 7.22 32.18 14.52
1/4/2022 7:30:00 AM 0.02 32.036 0.102 7.22 32.48 14.54
1/4/2022 7:45:00 AM -0.01 31.982 0.102 7.22 33.99 14.57
1/4/2022 8:00:00 AM -0.02 31.964 0.102 7.23 35.23 14.6
1/4/2022 8:15:00 AM -0.04 31.928 0.102 7.23 35.48 14.64
1/4/2022 8:30:00 AM -0.05 31.91 0.102 7.24 35.46 14.7
1/4/2022 8:45:00 AM -0.04 31.928 0.102 7.25 35.72 14.75
1/4/2022 9:00:00 AM -0.03 31.946 0.102 7.26 35.9 14.81
1/4/2022 9:15:00 AM -0.02 31.964 0.102 7.27 37.41 14.85
1/4/2022 9:30:00 AM 0 32 0.102 7.28 36.52 14.89
1/4/2022 9:45:00 AM 0.02 32.036 0.101 7.29 40.74 14.93
1/4/2022 10:00:00 AM 0.06 32.108 0.101 7.3 37.84 14.95
1/4/2022 10:15:00 AM 0.11 32.198 0.101 7.31 40.65 14.99
1/4/2022 10:30:00 AM 0.17 32.306 0.101 7.32 39.93 15.02
1/4/2022 10:45:00 AM 0.23 32.414 0.101 7.33 40.73 15.03
1/4/2022 11:00:00 AM 0.31 32.558 0.101 7.34 40.57 15.03
1/4/2022 11:15:00 AM 0.41 32.738 0.101 7.35 39.04 15.05
1/4/2022 11:30:00 AM 0.47 32.846 0.101 7.36 40.33 15.05
1/4/2022 11:45:00 AM 0.56 33.008 0.1 7.36 40.41 15.03
1/4/2022 12:00:00 PM 0.67 33.206 0.1 7.37 40.59 15.02
1/4/2022 12:15:00 PM 0.75 33.35 0.1 7.37 40.18 15.02
1/4/2022 12:30:00 PM 0.83 33.494 0.1 7.38 38.15 15
1/4/2022 12:45:00 PM 0.89 33.602 0.1 7.39 38.37 15
1/4/2022 1:00:00 PM 0.92 33.656 0.1 7.39 38.37 15
1/4/2022 1:15:00 PM 0.95 33.71 0.1 7.39 38.18 14.98
1/4/2022 1:30:00 PM 0.98 33.764 0.1 7.4 38.31 14.95
1/4/2022 1:45:00 PM 1 33.8 0.099 7.4 38.52 14.93
1/4/2022 2:00:00 PM 1.06 33.908 0.099 7.39 39.1 14.9
1/4/2022 2:15:00 PM 1.11 33.998 0.099 7.4 39.77 14.89
1/4/2022 2:30:00 PM 1.16 34.088 0.099 7.41 39.12 14.84
1/4/2022 2:45:00 PM 1.22 34.196 0.099 7.41 39.52 14.78
1/4/2022 3:00:00 PM 1.27 34.286 0.099 7.41 39.87 14.76
1/4/2022 3:15:00 PM 1.31 34.358 0.099 7.41 39.82 14.74
1/4/2022 3:30:00 PM 1.34 34.412 0.099 7.42 40.76 14.7
1/4/2022 3:45:00 PM 1.36 34.448 0.099 7.42 40.9 14.66
1/4/2022 4:00:00 PM 1.37 34.466 0.099 7.42 40.07 14.62
1/4/2022 4:15:00 PM 1.38 34.484 0.099 7.41 40.63 14.57
1/4/2022 4:30:00 PM 1.38 34.484 0.099 7.4 41.02 14.52
1/4/2022 4:45:00 PM 1.39 34.502 0.098 7.39 41.14 14.47
1/4/2022 5:00:00 PM 1.39 34.502 0.099 7.38 41.32 14.4
1/4/2022 5:15:00 PM 1.38 34.484 0.099 7.36 41.48 14.36
1/4/2022 5:30:00 PM 1.38 34.484 0.099 7.35 41.54 14.31
1/4/2022 5:45:00 PM 1.37 34.466 0.098 7.34 42.25 14.27
1/4/2022 6:00:00 PM 1.36 34.448 0.099 7.33 41.24 14.23
1/4/2022 6:15:00 PM 1.35 34.43 0.099 7.33 40.92 14.18
1/4/2022 6:30:00 PM 1.34 34.412 0.099 7.32 42.32 14.17
1/4/2022 6:45:00 PM 1.34 34.412 0.099 7.31 43.81 14.14
1/4/2022 7:00:00 PM 1.33 34.394 0.099 7.31 42.92 14.12
1/4/2022 7:15:00 PM 1.32 34.376 0.099 7.3 43.99 14.09
1/4/2022 7:30:00 PM 1.31 34.358 0.099 7.29 44.35 14.08
1/4/2022 7:45:00 PM 1.29 34.322 0.099 7.29 43.98 14.07
1/4/2022 8:00:00 PM 1.27 34.286 0.099 7.28 44.69 14.06
1/4/2022 8:15:00 PM 1.26 34.268 0.099 7.28 38.67 14.05
1/4/2022 8:30:00 PM 1.23 34.214 0.099 7.27 42.24 14.05
1/4/2022 8:45:00 PM 1.21 34.178 0.099 7.27 45.13 14.04
1/4/2022 9:00:00 PM 1.19 34.142 0.099 7.27 41.65 14.05
1/4/2022 9:15:00 PM 1.16 34.088 0.099 7.26 38.64 14.05
1/4/2022 9:30:00 PM 1.14 34.052 0.099 7.27 41.03 14.06
1/4/2022 9:45:00 PM 1.11 33.998 0.099 7.26 41.5 14.07
1/4/2022 10:00:00 PM 1.08 33.944 0.099 7.26 40.54 14.08
1/4/2022 10:15:00 PM 1.05 33.89 0.099 7.26 47.06 14.09
1/4/2022 10:30:00 PM 1.02 33.836 0.099 7.25 47.4 14.08
1/4/2022 10:45:00 PM 0.99 33.782 0.099 7.25 40.96 14.09
1/4/2022 11:00:00 PM 0.97 33.746 0.099 7.25 41 14.11
1/4/2022 11:15:00 PM 0.94 33.692 0.099 7.25 41.05 14.11
1/4/2022 11:30:00 PM 0.91 33.638 0.099 7.25 41.1 14.11
1/4/2022 11:45:00 PM 0.88 33.584 0.099 7.24 41.83 14.12
1/5/2022 12:00:00 AM 0.87 33.566 0.099 7.24 40.55 14.13
1/5/2022 12:15:00 AM 0.85 33.53 0.099 7.24 41.45 14.13
1/5/2022 12:30:00 AM 0.83 33.494 0.099 7.24 39.95 14.13
1/5/2022 12:45:00 AM 0.82 33.476 0.099 7.24 40.78 14.14
1/5/2022 1:00:00 AM 0.8 33.44 0.099 7.24 40.58 14.15
1/5/2022 1:15:00 AM 0.78 33.404 0.099 7.24 41.21 14.15
1/5/2022 1:30:00 AM 0.77 33.386 0.099 7.23 35.8 14.15
1/5/2022 1:45:00 AM 0.75 33.35 0.099 7.24 39.26 14.16
1/5/2022 2:00:00 AM 0.74 33.332 0.099 7.23 31.78 14.15
1/5/2022 2:15:00 AM 0.73 33.314 0.099 7.23 26.91 14.16
1/5/2022 2:30:00 AM 0.71 33.278 0.099 7.23 31.02 14.16
1/5/2022 2:45:00 AM 0.69 33.242 0.099 7.23 29.36 14.15
1/5/2022 3:00:00 AM 0.67 33.206 0.099 7.23 34.3 14.15
1/5/2022 3:15:00 AM 0.66 33.188 0.099 7.22 33.5 14.16
1/5/2022 3:30:00 AM 0.64 33.152 0.099 7.23 34.27 14.16
1/5/2022 3:45:00 AM 0.63 33.134 0.099 7.23 33.6 14.17
1/5/2022 4:00:00 AM 0.61 33.098 0.099 7.23 33.64 14.16
1/5/2022 4:15:00 AM 0.6 33.08 0.099 7.22 34.25 14.17
1/5/2022 4:30:00 AM 0.6 33.08 0.099 7.23 35.16 14.17
1/5/2022 4:45:00 AM 0.6 33.08 0.099 7.23 35.11 14.18
1/5/2022 5:00:00 AM 0.61 33.098 0.099 7.23 35.5 14.17
1/5/2022 5:15:00 AM 0.61 33.098 0.099 7.23 35.56 14.17
1/5/2022 5:30:00 AM 0.62 33.116 0.099 7.23 35.52 14.17
1/5/2022 5:45:00 AM 0.63 33.134 0.099 7.23 35.71 14.16
1/5/2022 6:00:00 AM 0.64 33.152 0.099 7.23 36.13 14.17
1/5/2022 6:15:00 AM 0.65 33.17 0.099 7.23 38.39 14.15
1/5/2022 6:30:00 AM 0.66 33.188 0.099 7.23 28.25 14.13
1/5/2022 6:45:00 AM 0.67 33.206 0.099 7.23 37.23 14.14
1/5/2022 7:00:00 AM 0.68 33.224 0.099 7.23 34.48 14.14
1/5/2022 7:15:00 AM 0.68 33.224 0.099 7.23 34.91 14.1
1/5/2022 7:30:00 AM 0.67 33.206 0.099 7.23 36.44 14.11
1/5/2022 7:45:00 AM 0.67 33.206 0.099 7.23 44.48 14.12
1/5/2022 8:00:00 AM 0.68 33.224 0.099 7.24 39.85 14.14
1/5/2022 8:15:00 AM 0.68 33.224 0.099 7.24 41.5 14.18
1/5/2022 8:30:00 AM 0.67 33.206 0.099 7.25 41.8 14.2
1/5/2022 8:45:00 AM 0.68 33.224 0.099 7.25 40.26 14.25
1/5/2022 9:00:00 AM 0.71 33.278 0.098 7.27 47.14 14.3
1/5/2022 9:15:00 AM 0.73 33.314 0.098 7.28 45.8 14.34
1/5/2022 9:30:00 AM 0.77 33.386 0.098 7.29 43.97 14.4
1/5/2022 9:45:00 AM 0.81 33.458 0.098 7.3 39.26 14.44
1/5/2022 10:00:00 AM 0.86 33.548 0.098 7.31 39.17 14.48
1/5/2022 10:15:00 AM 0.91 33.638 0.098 7.32 39.56 14.51
1/5/2022 10:30:00 AM 0.97 33.746 0.098 7.33 41.6 14.53
1/5/2022 10:45:00 AM 1.03 33.854 0.098 7.34 41.74 14.54
1/5/2022 11:00:00 AM 1.11 33.998 0.097 7.35 39.91 14.55
1/5/2022 11:15:00 AM 1.17 34.106 0.097 7.36 40.32 14.54
1/5/2022 11:30:00 AM 1.24 34.232 0.097 7.37 39.67 14.54
1/5/2022 11:45:00 AM 1.31 34.358 0.097 7.38 41.24 14.54
1/5/2022 12:00:00 PM 1.38 34.484 0.097 7.38 41.38 14.54
1/5/2022 12:15:00 PM 1.46 34.628 0.097 7.39 36.82 14.53
1/5/2022 12:30:00 PM 1.54 34.772 0.097 7.4 39.05 14.51
1/5/2022 12:45:00 PM 1.61 34.898 0.097 7.41 36.81 14.5
1/5/2022 1:00:00 PM 1.67 35.006 0.097 7.41 33.75 14.48
1/5/2022 1:15:00 PM 1.73 35.114 0.097 7.42 35.15 14.46
1/5/2022 1:30:00 PM 1.79 35.222 0.097 7.43 35.54 14.43
1/5/2022 1:45:00 PM 1.84 35.312 0.097 7.43 38.96 14.37
1/5/2022 2:00:00 PM 1.9 35.42 0.097 7.44 39.85 14.37
1/5/2022 2:15:00 PM 1.96 35.528 0.096 7.44 39.8 14.36
1/5/2022 2:30:00 PM 2.01 35.618 0.096 7.44 40.38 14.33
1/5/2022 2:45:00 PM 2.05 35.69 0.096 7.44 40.44 14.31
1/5/2022 3:00:00 PM 2.09 35.762 0.096 7.45 40.56 14.28
1/5/2022 3:15:00 PM 2.13 35.834 0.096 7.45 40.92 14.26
1/5/2022 3:30:00 PM 2.18 35.924 0.096 7.45 42.39 14.24
1/5/2022 3:45:00 PM 2.21 35.978 0.096 7.46 35.3 14.21
1/5/2022 4:00:00 PM 2.22 35.996 0.096 7.46 37.96 14.16
1/5/2022 4:15:00 PM 2.22 35.996 0.096 7.45 40.82 14.11
1/5/2022 4:30:00 PM 2.22 35.996 0.096 7.44 33.78 14.05
1/5/2022 4:45:00 PM 2.22 35.996 0.096 7.43 33.22 13.97
1/5/2022 5:00:00 PM 2.22 35.996 0.096 7.41 34.68 13.9
1/5/2022 5:15:00 PM 2.22 35.996 0.096 7.4 34.11 13.82
1/5/2022 5:30:00 PM 2.22 35.996 0.096 7.38 37.32 13.77
1/5/2022 5:45:00 PM 2.22 35.996 0.096 7.37 35.17 13.72
1/5/2022 6:00:00 PM 2.21 35.978 0.096 7.36 30.09 13.68
1/5/2022 6:15:00 PM 2.21 35.978 0.096 7.35 31.1 13.64
1/5/2022 6:30:00 PM 2.19 35.942 0.096 7.34 29.48 13.61
1/5/2022 6:45:00 PM 2.18 35.924 0.096 7.33 28.74 13.59
1/5/2022 7:00:00 PM 2.16 35.888 0.096 7.33 31.54 13.56
1/5/2022 7:15:00 PM 2.15 35.87 0.096 7.32 33.21 13.55
1/5/2022 7:30:00 PM 2.14 35.852 0.096 7.31 29.74 13.53
1/5/2022 7:45:00 PM 2.14 35.852 0.096 7.3 37.67 13.51
1/5/2022 8:00:00 PM 2.12 35.816 0.096 7.3 36.08 13.5
1/5/2022 8:15:00 PM 2.11 35.798 0.096 7.29 36.99 13.49
1/5/2022 8:30:00 PM 2.09 35.762 0.096 7.29 39.93 13.48
1/5/2022 8:45:00 PM 2.07 35.726 0.096 7.28 40.13 13.48
1/5/2022 9:00:00 PM 2.06 35.708 0.096 7.28 38.41 13.47
1/5/2022 9:15:00 PM 2.06 35.708 0.096 7.28 39 13.46
1/5/2022 9:30:00 PM 2.06 35.708 0.096 7.27 39.46 13.46
1/5/2022 9:45:00 PM 2.05 35.69 0.096 7.27 40.48 13.46
1/5/2022 10:00:00 PM 2.03 35.654 0.096 7.27 39.44 13.46
1/5/2022 10:15:00 PM 2.02 35.636 0.096 7.27 38.77 13.45
1/5/2022 10:30:00 PM 2.02 35.636 0.096 7.26 38.11 13.47
1/5/2022 10:45:00 PM 2.01 35.618 0.096 7.26 32.12 13.45
1/5/2022 11:00:00 PM 2.01 35.618 0.096 7.26 33.04 13.47
1/5/2022 11:15:00 PM 2.01 35.618 0.097 7.26 32.71 13.47
1/5/2022 11:30:00 PM 2 35.6 0.097 7.25 31.5 13.47
1/5/2022 11:45:00 PM 1.97 35.546 0.097 7.25 29.79 13.47
1/6/2022 12:00:00 AM 1.96 35.528 0.097 7.25 29.36 13.48
1/6/2022 12:15:00 AM 1.94 35.492 0.097 7.25 29.72 13.48
1/6/2022 12:30:00 AM 1.91 35.438 0.097 7.25 26.71 13.48
1/6/2022 12:45:00 AM 1.89 35.402 0.097 7.25 27.3 13.49
1/6/2022 1:00:00 AM 1.86 35.348 0.097 7.25 27.13 13.49
1/6/2022 1:15:00 AM 1.84 35.312 0.097 7.24 27.1 13.5
1/6/2022 1:30:00 AM 1.8 35.24 0.097 7.24 27.04 13.51
1/6/2022 1:45:00 AM 1.78 35.204 0.097 7.24 30 13.52
1/6/2022 2:00:00 AM 1.75 35.15 0.097 7.24 27.38 13.53
1/6/2022 2:15:00 AM 1.72 35.096 0.097 7.24 27.61 13.55
1/6/2022 2:30:00 AM 1.7 35.06 0.097 7.24 29.58 13.56
1/6/2022 2:45:00 AM 1.67 35.006 0.097 7.24 33.42 13.57
1/6/2022 3:00:00 AM 1.65 34.97 0.097 7.24 33.49 13.58
1/6/2022 3:15:00 AM 1.63 34.934 0.097 7.24 33.94 13.6
1/6/2022 3:30:00 AM 1.62 34.916 0.097 7.24 34.11 13.61
1/6/2022 3:45:00 AM 1.6 34.88 0.097 7.24 35.39 13.62
1/6/2022 4:00:00 AM 1.58 34.844 0.097 7.24 30.16 13.62
1/6/2022 4:15:00 AM 1.56 34.808 0.097 7.24 29.99 13.63
1/6/2022 4:30:00 AM 1.54 34.772 0.097 7.24 29.9 13.64
1/6/2022 4:45:00 AM 1.51 34.718 0.097 7.24 30.31 13.66
1/6/2022 5:00:00 AM 1.48 34.664 0.097 7.24 30.62 13.67
1/6/2022 5:15:00 AM 1.45 34.61 0.097 7.24 31.81 13.69
1/6/2022 5:30:00 AM 1.43 34.574 0.097 7.24 30.43 13.7
1/6/2022 5:45:00 AM 1.41 34.538 0.097 7.24 31.44 13.71
1/6/2022 6:00:00 AM 1.37 34.466 0.097 7.24 31.62 13.73
1/6/2022 6:15:00 AM 1.35 34.43 0.097 7.24 34.3 13.74
1/6/2022 6:30:00 AM 1.32 34.376 0.097 7.24 31.08 13.74
1/6/2022 6:45:00 AM 1.29 34.322 0.097 7.24 26.76 13.76
1/6/2022 7:00:00 AM 1.26 34.268 0.097 7.24 33.86 13.76
1/6/2022 7:15:00 AM 1.23 34.214 0.097 7.24 33.29 13.78
1/6/2022 7:30:00 AM 1.21 34.178 0.097 7.24 33.71 13.79
1/6/2022 7:45:00 AM 1.18 34.124 0.097 7.24 35.26 13.82
1/6/2022 8:00:00 AM 1.15 34.07 0.097 7.24 34.45 13.85
1/6/2022 8:15:00 AM 1.12 34.016 0.097 7.25 34.04 13.89
1/6/2022 8:30:00 AM 1.1 33.98 0.097 7.25 33.9 13.95
1/6/2022 8:45:00 AM 1.08 33.944 0.096 7.26 32.2 14.01
1/6/2022 9:00:00 AM 1.08 33.944 0.096 7.27 32.35 14.08
1/6/2022 9:15:00 AM 1.07 33.926 0.096 7.27 32.99 14.13
1/6/2022 9:30:00 AM 1.07 33.926 0.096 7.29 32.57 14.2
1/6/2022 9:45:00 AM 1.09 33.962 0.096 7.29 33.29 14.25
1/6/2022 10:00:00 AM 1.13 34.034 0.096 7.3 32.04 14.3
1/6/2022 10:15:00 AM 1.14 34.052 0.096 7.32 31.68 14.35
1/6/2022 10:30:00 AM 1.15 34.07 0.096 7.32 33.3 14.4
1/6/2022 10:45:00 AM 1.18 34.124 0.096 7.33 34.69 14.43
1/6/2022 11:00:00 AM 1.21 34.178 0.096 7.34 31.54 14.45
1/6/2022 11:15:00 AM 1.27 34.286 0.096 7.35 27.61 14.49
1/6/2022 11:30:00 AM 1.32 34.376 0.096 7.36 28.53 14.49
1/6/2022 11:45:00 AM 1.38 34.484 0.096 7.37 28.36 14.54
1/6/2022 12:00:00 PM 1.44 34.592 0.095 7.38 28.52 14.55
1/6/2022 12:15:00 PM 1.51 34.718 0.095 7.38 28.51 14.55
1/6/2022 12:30:00 PM 1.6 34.88 0.095 7.39 28.56 14.55
1/6/2022 12:45:00 PM 1.64 34.952 0.095 7.4 32.01 14.56
1/6/2022 1:00:00 PM 1.63 34.934 0.095 7.4 28.99 14.55
1/6/2022 1:15:00 PM 1.61 34.898 0.095 7.41 29.86 14.55
1/6/2022 1:30:00 PM 1.65 34.97 0.095 7.41 26.51 14.54
1/6/2022 1:45:00 PM 1.68 35.024 0.095 7.42 30.61 14.54
1/6/2022 2:00:00 PM 1.7 35.06 0.095 7.42 28.47 14.54
1/6/2022 2:15:00 PM 1.72 35.096 0.095 7.43 27.72 14.53
1/6/2022 2:30:00 PM 1.72 35.096 0.095 7.43 29.04 14.5
1/6/2022 2:45:00 PM 1.73 35.114 0.095 7.43 21.46 14.48
1/6/2022 3:00:00 PM 1.74 35.132 0.095 7.43 29.17 14.45
1/6/2022 3:15:00 PM 1.75 35.15 0.095 7.43 30.41 14.45
1/6/2022 3:30:00 PM 1.76 35.168 0.095 7.43 30.71 14.42
1/6/2022 3:45:00 PM 1.75 35.15 0.095 7.43 28.14 14.38
1/6/2022 4:00:00 PM 1.76 35.168 0.095 7.42 26.19 14.33
1/6/2022 4:15:00 PM 1.76 35.168 0.095 7.41 25.13 14.29
1/6/2022 4:30:00 PM 1.76 35.168 0.095 7.4 27.18 14.22
1/6/2022 4:45:00 PM 1.76 35.168 0.095 7.39 27.25 14.16
1/6/2022 5:00:00 PM 1.75 35.15 0.095 7.38 27.5 14.09
1/6/2022 5:15:00 PM 1.75 35.15 0.095 7.37 27.33 14.05
1/6/2022 5:30:00 PM 1.75 35.15 0.095 7.35 30.49 14.01
1/6/2022 5:45:00 PM 1.74 35.132 0.095 7.34 28.62 13.97
1/6/2022 6:00:00 PM 1.74 35.132 0.095 7.34 27.86 13.92
1/6/2022 6:15:00 PM 1.74 35.132 0.095 7.33 28.75 13.89
1/6/2022 6:30:00 PM 1.74 35.132 0.095 7.32 25.98 13.87
1/6/2022 6:45:00 PM 1.73 35.114 0.095 7.31 27.51 13.84
1/6/2022 7:00:00 PM 1.73 35.114 0.095 7.31 24.6 13.81
1/6/2022 7:15:00 PM 1.73 35.114 0.095 7.3 26.1 13.8
1/6/2022 7:30:00 PM 1.73 35.114 0.095 7.29 26.87 13.78
1/6/2022 7:45:00 PM 1.72 35.096 0.095 7.29 26.74 13.77
1/6/2022 8:00:00 PM 1.71 35.078 0.095 7.28 26.72 13.76
1/6/2022 8:15:00 PM 1.7 35.06 0.095 7.28 23.01 13.74
1/6/2022 8:30:00 PM 1.7 35.06 0.095 7.28 28.38 13.74
1/6/2022 8:45:00 PM 1.68 35.024 0.095 7.27 30.6 13.73
1/6/2022 9:00:00 PM 1.66 34.988 0.095 7.27 29.84 13.73
1/6/2022 9:15:00 PM 1.62 34.916 0.095 7.27 30.06 13.74
1/6/2022 9:30:00 PM 1.57 34.826 0.095 7.26 30.98 13.74
1/6/2022 9:45:00 PM 1.54 34.772 0.095 7.26 30.68 13.74
1/6/2022 10:00:00 PM 1.48 34.664 0.095 7.26 31.09 13.76
1/6/2022 10:15:00 PM 1.42 34.556 0.095 7.26 30.92 13.76
1/6/2022 10:30:00 PM 1.36 34.448 0.095 7.26 30.97 13.78
1/6/2022 10:45:00 PM 1.31 34.358 0.095 7.25 31.06 13.78
1/6/2022 11:00:00 PM 1.26 34.268 0.095 7.25 31.21 13.78
1/6/2022 11:15:00 PM 1.22 34.196 0.095 7.25 26.7 13.79
1/6/2022 11:30:00 PM 1.18 34.124 0.096 7.25 31.39 13.81
1/6/2022 11:45:00 PM 1.16 34.088 0.096 7.25 32.49 13.82
1/7/2022 12:00:00 AM 1.15 34.07 0.096 7.24 31.6 13.84
1/7/2022 12:15:00 AM 1.13 34.034 0.096 7.24 31.42 13.85
1/7/2022 12:30:00 AM 1.12 34.016 0.096 7.24 31.5 13.86
1/7/2022 12:45:00 AM 1.11 33.998 0.096 7.24 32.08 13.86
1/7/2022 1:00:00 AM 1.08 33.944 0.096 7.24 31.13 13.86
1/7/2022 1:15:00 AM 1.04 33.872 0.096 7.24 28.49 13.87
1/7/2022 1:30:00 AM 1 33.8 0.096 7.24 33.13 13.89
1/7/2022 1:45:00 AM 0.95 33.71 0.096 7.24 32 13.9
1/7/2022 2:00:00 AM 0.88 33.584 0.096 7.24 32.18 13.9
1/7/2022 2:15:00 AM 0.83 33.494 0.096 7.23 27.47 13.93
1/7/2022 2:30:00 AM 0.8 33.44 0.096 7.23 27.28 13.93
1/7/2022 2:45:00 AM 0.78 33.404 0.096 7.23 29.79 13.94
1/7/2022 3:00:00 AM 0.75 33.35 0.096 7.23 29.91 13.95
1/7/2022 3:15:00 AM 0.73 33.314 0.096 7.23 30.05 13.95
1/7/2022 3:30:00 AM 0.71 33.278 0.096 7.23 30.1 13.97
1/7/2022 3:45:00 AM 0.7 33.26 0.096 7.23 29.96 13.97
1/7/2022 4:00:00 AM 0.69 33.242 0.096 7.23 33.29 13.99
1/7/2022 4:15:00 AM 0.67 33.206 0.096 7.23 33.63 13.99
1/7/2022 4:30:00 AM 0.66 33.188 0.096 7.22 32.45 14.01
1/7/2022 4:45:00 AM 0.64 33.152 0.095 7.22 61.67 14.01
1/7/2022 5:00:00 AM 0.62 33.116 0.095 7.22 26.41 14.02
1/7/2022 5:15:00 AM 0.6 33.08 0.095 7.22 27.3 14.04
1/7/2022 5:30:00 AM 0.58 33.044 0.095 7.23 23.89 14.03
1/7/2022 5:45:00 AM 0.57 33.026 0.095 7.21 27.63 14.05
1/7/2022 6:00:00 AM 0.56 33.008 0.095 7.21 26.12 14.07
1/7/2022 6:15:00 AM 0.55 32.99 0.095 7.21 21.23 14.08
1/7/2022 6:30:00 AM 0.54 32.972 0.095 7.22 18.52 14.1
1/7/2022 6:45:00 AM 0.53 32.954 0.095 7.22 19.59 14.1
1/7/2022 7:00:00 AM 0.53 32.954 0.095 7.22 24.18 14.11
1/7/2022 7:15:00 AM 0.52 32.936 0.095 7.22 24.36 14.12
1/7/2022 7:30:00 AM 0.51 32.918 0.095 7.22 24.65 14.13
1/7/2022 7:45:00 AM 0.51 32.918 0.095 7.22 20.76 14.15
1/7/2022 8:00:00 AM 0.51 32.918 0.095 7.23 22.6 14.16
1/7/2022 8:15:00 AM 0.51 32.918 0.095 7.23 21.92 14.2
1/7/2022 8:30:00 AM 0.51 32.918 0.095 7.24 21.87 14.24
1/7/2022 8:45:00 AM 0.52 32.936 0.095 7.25 22.17 14.29
1/7/2022 9:00:00 AM 0.53 32.954 0.095 7.26 26.52 14.34
1/7/2022 9:15:00 AM 0.55 32.99 0.095 7.27 30.11 14.39
1/7/2022 9:30:00 AM 0.57 33.026 0.095 7.28 20.02 14.45
1/7/2022 9:45:00 AM 0.59 33.062 0.095 7.29 29.38 14.5
1/7/2022 10:00:00 AM 0.64 33.152 0.095 7.31 28.62 14.55
1/7/2022 10:15:00 AM 0.68 33.224 0.095 7.32 28.48 14.59
1/7/2022 10:30:00 AM 0.74 33.332 0.094 7.33 28.52 14.64
1/7/2022 10:45:00 AM 0.79 33.422 0.094 7.34 29.18 14.66
1/7/2022 11:00:00 AM 0.87 33.566 0.094 7.35 29.45 14.7
1/7/2022 11:15:00 AM 0.93 33.674 0.094 7.36 29.54 14.7
1/7/2022 11:30:00 AM 1.02 33.836 0.094 7.37 28.08 14.72
1/7/2022 11:45:00 AM 1.05 33.89 0.094 7.37 28.21 14.72
1/7/2022 12:00:00 PM 1.07 33.926 0.094 7.38 28.46 14.71
1/7/2022 12:15:00 PM 1.07 33.926 0.094 7.39 30.61 14.7
1/7/2022 12:30:00 PM 1.1 33.98 0.094 7.39 30.26 14.69
1/7/2022 12:45:00 PM 1.13 34.034 0.094 7.4 30.45 14.68
1/7/2022 1:00:00 PM 1.17 34.106 0.094 7.4 29.52 14.68
1/7/2022 1:15:00 PM 1.22 34.196 0.094 7.41 30.15 14.67
1/7/2022 1:30:00 PM 1.27 34.286 0.094 7.41 30.62 14.68
1/7/2022 1:45:00 PM 1.28 34.304 0.094 7.42 30.94 14.68
1/7/2022 2:00:00 PM 1.29 34.322 0.094 7.43 28.2 14.67
1/7/2022 2:15:00 PM 1.28 34.304 0.094 7.43 28.88 14.66
1/7/2022 2:30:00 PM 1.26 34.268 0.094 7.43 29.02 14.66
1/7/2022 2:45:00 PM 1.25 34.25 0.094 7.43 28.91 14.65
1/7/2022 3:00:00 PM 1.22 34.196 0.094 7.43 29.26 14.63
1/7/2022 3:15:00 PM 1.23 34.214 0.094 7.43 28.94 14.63
1/7/2022 3:30:00 PM 1.22 34.196 0.094 7.43 29.12 14.6
1/7/2022 3:45:00 PM 1.2 34.16 0.094 7.43 29.25 14.59
1/7/2022 4:00:00 PM 1.2 34.16 0.094 7.42 28.72 14.56
1/7/2022 4:15:00 PM 1.18 34.124 0.094 7.42 28.82 14.53
1/7/2022 4:30:00 PM 1.16 34.088 0.094 7.41 29.31 14.51
1/7/2022 4:45:00 PM 1.14 34.052 0.094 7.4 28.62 14.46
1/7/2022 5:00:00 PM 1.09 33.962 0.094 7.39 36.17 14.42
1/7/2022 5:15:00 PM 1.05 33.89 0.094 7.37 29.05 14.38
1/7/2022 5:30:00 PM 1 33.8 0.094 7.36 29.63 14.33
1/7/2022 5:45:00 PM 0.96 33.728 0.094 7.35 30.22 14.31
1/7/2022 6:00:00 PM 0.92 33.656 0.094 7.35 31.17 14.3
1/7/2022 6:15:00 PM 0.89 33.602 0.094 7.33 31.13 14.27
1/7/2022 6:30:00 PM 0.85 33.53 0.094 7.33 34.36 14.25
1/7/2022 6:45:00 PM 0.82 33.476 0.094 7.32 34.05 14.26
1/7/2022 7:00:00 PM 0.78 33.404 0.094 7.31 34.34 14.25
1/7/2022 7:15:00 PM 0.74 33.332 0.094 7.3 34.94 14.24
1/7/2022 7:30:00 PM 0.71 33.278 0.094 7.3 35.77 14.24
1/7/2022 7:45:00 PM 0.69 33.242 0.095 7.29 31.78 14.25
1/7/2022 8:00:00 PM 0.66 33.188 0.095 7.29 36.91 14.24
1/7/2022 8:15:00 PM 0.64 33.152 0.095 7.28 37.87 14.23
1/7/2022 8:30:00 PM 0.62 33.116 0.095 7.28 35.54 14.24
1/7/2022 8:45:00 PM 0.58 33.044 0.095 7.27 35.07 14.24
1/7/2022 9:00:00 PM 0.56 33.008 0.095 7.27 33.29 14.25
1/7/2022 9:15:00 PM 0.53 32.954 0.095 7.27 33.19 14.25
1/7/2022 9:30:00 PM 0.5 32.9 0.095 7.26 36.18 14.28
1/7/2022 9:45:00 PM 0.46 32.828 0.095 7.26 35.51 14.29
1/7/2022 10:00:00 PM 0.43 32.774 0.095 7.26 35.78 14.3
1/7/2022 10:15:00 PM 0.41 32.738 0.096 7.26 35.44 14.3
1/7/2022 10:30:00 PM 0.38 32.684 0.096 7.25 33.99 14.29
1/7/2022 10:45:00 PM 0.35 32.63 0.096 7.25 33.31 14.34
1/7/2022 11:00:00 PM 0.32 32.576 0.096 7.24 33.11 14.35
1/7/2022 11:15:00 PM 0.28 32.504 0.096 7.24 28.3 14.36
1/7/2022 11:30:00 PM 0.23 32.414 0.096 7.24 30.54 14.38
1/7/2022 11:45:00 PM 0.18 32.324 0.096 7.23 34.05 14.4
1/8/2022 12:00:00 AM 0.15 32.27 0.096 7.23 27.99 14.42
1/8/2022 12:15:00 AM 0.1 32.18 0.096 7.23 27.92 14.43
1/8/2022 12:30:00 AM 0.06 32.108 0.096 7.22 27.9 14.43
1/8/2022 12:45:00 AM 0.01 32.018 0.096 7.22 30.63 14.45
1/8/2022 1:00:00 AM -0.03 31.946 0.096 7.22 32.33 14.48
1/8/2022 1:15:00 AM -0.06 31.892 0.096 7.22 31.54 14.51
1/8/2022 1:30:00 AM -0.06 31.892 0.097 7.23 31.28 14.53
1/8/2022 1:45:00 AM -0.05 31.91 0.096 7.23 30.98 14.54
1/8/2022 2:00:00 AM -0.05 31.91 0.096 7.23 31.05 14.58
1/8/2022 2:15:00 AM -0.04 31.928 0.096 7.23 30.91 14.57
1/8/2022 2:30:00 AM -0.04 31.928 0.096 7.23 37.36 14.58
1/8/2022 2:45:00 AM -0.04 31.928 0.097 7.23 36.17 14.6
1/8/2022 3:00:00 AM -0.04 31.928 0.097 7.23 32.51 14.61
1/8/2022 3:15:00 AM -0.04 31.928 0.097 7.23 31.99 14.62
1/8/2022 3:30:00 AM -0.04 31.928 0.097 7.23 31.06 14.62
1/8/2022 3:45:00 AM -0.04 31.928 0.097 7.23 30.91 14.6
1/8/2022 4:00:00 AM -0.04 31.928 0.097 7.23 30.77 14.62
1/8/2022 4:15:00 AM -0.04 31.928 0.097 7.23 30.56 14.61
1/8/2022 4:30:00 AM -0.04 31.928 0.097 7.23 30.25 14.65
1/8/2022 4:45:00 AM -0.04 31.928 0.097 7.23 30.06 14.62
1/8/2022 5:00:00 AM -0.04 31.928 0.098 7.23 29.32 14.62
1/8/2022 5:15:00 AM -0.04 31.928 0.098 7.23 29.97 14.63
1/8/2022 5:30:00 AM -0.04 31.928 0.098 7.23 29.93 14.64
1/8/2022 5:45:00 AM -0.04 31.928 0.098 7.23 29.74 14.63
1/8/2022 6:00:00 AM -0.04 31.928 0.098 7.23 29.75 14.64
1/8/2022 6:15:00 AM -0.04 31.928 0.098 7.22 29.88 14.63
1/8/2022 6:30:00 AM -0.04 31.928 0.098 7.23 28.58 14.58
1/8/2022 6:45:00 AM -0.04 31.928 0.098 7.23 29.13 14.64
1/8/2022 7:00:00 AM -0.04 31.928 0.099 7.23 33.76 14.66
1/8/2022 7:15:00 AM -0.04 31.928 0.099 7.23 33.36 14.66
1/8/2022 7:30:00 AM -0.04 31.928 0.099 7.22 32.65 14.63
1/8/2022 7:45:00 AM -0.04 31.928 0.099 7.22 32.95 14.66
1/8/2022 8:00:00 AM -0.04 31.928 0.099 7.23 32.85 14.7
1/8/2022 8:15:00 AM -0.03 31.946 0.099 7.23 32.91 14.67
1/8/2022 8:30:00 AM -0.03 31.946 0.099 7.23 32.99 14.72
1/8/2022 8:45:00 AM -0.03 31.946 0.1 7.24 33.13 14.73
1/8/2022 9:00:00 AM -0.02 31.964 0.1 7.24 32.88 14.83
1/8/2022 9:15:00 AM -0.02 31.964 0.1 7.24 32.56 14.88
1/8/2022 9:30:00 AM -0.01 31.982 0.1 7.25 32.58 14.89
1/8/2022 9:45:00 AM 0 32 0.1 7.25 32.45 14.88
1/8/2022 10:00:00 AM 0 32 0.1 7.25 32.39 14.89
1/8/2022 10:15:00 AM 0.02 32.036 0.1 7.26 28.66 14.97
1/8/2022 10:30:00 AM 0.03 32.054 0.1 7.27 29.15 15
1/8/2022 10:45:00 AM 0.03 32.054 0.1 7.27 29.02 14.91
1/8/2022 11:00:00 AM 0.04 32.072 0.101 7.28 29.32 15.03
1/8/2022 11:15:00 AM 0.07 32.126 0.101 7.28 29.5 15.01
1/8/2022 11:30:00 AM 0.08 32.144 0.101 7.29 29.31 15.07
1/8/2022 11:45:00 AM 0.08 32.144 0.101 7.3 29.99 15.13
1/8/2022 12:00:00 PM 0.08 32.144 0.101 7.31 33.34 15.15
1/8/2022 12:15:00 PM 0.11 32.198 0.101 7.32 33.71 15.16
1/8/2022 12:30:00 PM 0.12 32.216 0.101 7.32 38.01 15.17
1/8/2022 12:45:00 PM 0.13 32.234 0.101 7.33 38.27 15.19
1/8/2022 1:00:00 PM 0.15 32.27 0.101 7.32 37.93 15.14
1/8/2022 1:15:00 PM 0.12 32.216 0.101 7.34 38.32 15.14
1/8/2022 1:30:00 PM 0.1 32.18 0.101 7.34 38.4 15.15
1/8/2022 1:45:00 PM 0.1 32.18 0.101 7.35 38.24 15.16
1/8/2022 2:00:00 PM 0.11 32.198 0.1 7.36 38.59 15.18
1/8/2022 2:15:00 PM 0.11 32.198 0.1 7.36 38.7 15.18
1/8/2022 2:30:00 PM 0.1 32.18 0.1 7.36 39.21 15.17
1/8/2022 2:45:00 PM 0.06 32.108 0.1 7.36 39.46 15.17
1/8/2022 3:00:00 PM 0.05 32.09 0.1 7.36 40.25 15.15
1/8/2022 3:15:00 PM 0.04 32.072 0.099 7.36 40.51 15.12
1/8/2022 3:30:00 PM 0.02 32.036 0.099 7.36 40.35 15.11
1/8/2022 3:45:00 PM 0 32 0.099 7.36 40.06 15.11
1/8/2022 4:00:00 PM -0.02 31.964 0.099 7.36 42.02 15.1
1/8/2022 4:15:00 PM -0.03 31.946 0.099 7.36 40.66 15.09
1/8/2022 4:30:00 PM -0.04 31.928 0.099 7.35 41.49 15.05
1/8/2022 4:45:00 PM -0.05 31.91 0.099 7.35 41.16 15.03
1/8/2022 5:00:00 PM -0.06 31.892 0.099 7.34 40.21 15
1/8/2022 5:15:00 PM -0.06 31.892 0.099 7.33 38.24 14.98
1/8/2022 5:30:00 PM -0.06 31.892 0.098 7.33 38.97 14.96
1/8/2022 5:45:00 PM -0.06 31.892 0.098 7.32 37.81 14.93
1/8/2022 6:00:00 PM -0.06 31.892 0.098 7.32 40.57 14.93
1/8/2022 6:15:00 PM -0.05 31.91 0.098 7.31 42.18 14.9
1/8/2022 6:30:00 PM -0.05 31.91 0.098 7.3 43.26 14.9
1/8/2022 6:45:00 PM -0.05 31.91 0.098 7.3 38.95 14.88
1/8/2022 7:00:00 PM -0.05 31.91 0.098 7.29 39.04 14.88
1/8/2022 7:15:00 PM -0.05 31.91 0.098 7.29 38.82 14.85
1/8/2022 7:30:00 PM -0.05 31.91 0.098 7.29 38.99 14.84
1/8/2022 7:45:00 PM -0.05 31.91 0.098 7.28 38.6 14.8
1/8/2022 8:00:00 PM -0.05 31.91 0.098 7.28 38.62 14.81
1/8/2022 8:15:00 PM -0.05 31.91 0.098 7.27 38.78 14.78
1/8/2022 8:30:00 PM -0.05 31.91 0.098 7.27 38.03 14.76
1/8/2022 8:45:00 PM -0.05 31.91 0.098 7.26 38.97 14.74
1/8/2022 9:00:00 PM -0.04 31.928 0.098 7.26 37.64 14.74
1/8/2022 9:15:00 PM -0.04 31.928 0.098 7.26 37.74 14.69
1/8/2022 9:30:00 PM -0.04 31.928 0.098 7.25 37.39 14.7
1/8/2022 9:45:00 PM -0.04 31.928 0.098 7.25 37.54 14.68
1/8/2022 10:00:00 PM -0.04 31.928 0.099 7.25 37.1 14.69
1/8/2022 10:15:00 PM -0.04 31.928 0.099 7.25 37.19 14.68
1/8/2022 10:30:00 PM -0.04 31.928 0.099 7.25 36.96 14.7
1/8/2022 10:45:00 PM -0.04 31.928 0.099 7.25 36.6 14.67
1/8/2022 11:00:00 PM -0.04 31.928 0.099 7.25 37.75 14.69
1/8/2022 11:15:00 PM -0.04 31.928 0.099 7.24 39.11 14.69
1/8/2022 11:30:00 PM -0.04 31.928 0.099 7.24 34.67 14.65
1/8/2022 11:45:00 PM -0.04 31.928 0.099 7.24 35.57 14.64
1/9/2022 12:00:00 AM -0.04 31.928 0.099 7.24 35.24 14.61
1/9/2022 12:15:00 AM -0.03 31.946 0.1 7.23 33.23 14.65
1/9/2022 12:30:00 AM -0.03 31.946 0.1 7.24 32.35 14.61
1/9/2022 12:45:00 AM -0.03 31.946 0.1 7.23 32.84 14.61
1/9/2022 1:00:00 AM -0.03 31.946 0.1 7.24 32.28 14.58
1/9/2022 1:15:00 AM -0.03 31.946 0.1 7.23 32.41 14.59
1/9/2022 1:30:00 AM -0.03 31.946 0.1 7.23 33.49 14.59
1/9/2022 1:45:00 AM -0.03 31.946 0.1 7.24 32.48 14.58
1/9/2022 2:00:00 AM -0.03 31.946 0.1 7.24 32.77 14.58
1/9/2022 2:15:00 AM -0.03 31.946 0.1 7.23 31.99 14.56
1/9/2022 2:30:00 AM -0.02 31.964 0.1 7.23 31.67 14.55
1/9/2022 2:45:00 AM -0.02 31.964 0.1 7.23 31.99 14.53
1/9/2022 3:00:00 AM -0.02 31.964 0.1 7.23 35.59 14.52
1/9/2022 3:15:00 AM -0.02 31.964 0.1 7.23 34.89 14.53
1/9/2022 3:30:00 AM -0.02 31.964 0.1 7.23 38.39 14.52
1/9/2022 3:45:00 AM -0.02 31.964 0.1 7.23 36.62 14.53
1/9/2022 4:00:00 AM -0.02 31.964 0.1 7.24 36.6 14.52
1/9/2022 4:15:00 AM -0.02 31.964 0.1 7.23 31.86 14.52
1/9/2022 4:30:00 AM -0.02 31.964 0.1 7.23 33.12 14.52
1/9/2022 4:45:00 AM -0.02 31.964 0.1 7.23 32.17 14.53
1/9/2022 5:00:00 AM -0.03 31.946 0.1 7.23 28.96 14.51
1/9/2022 5:15:00 AM -0.03 31.946 0.1 7.23 37.86 14.5
1/9/2022 5:30:00 AM -0.03 31.946 0.1 7.23 29.91 14.51
1/9/2022 5:45:00 AM -0.02 31.964 0.1 7.23 32.11 14.5
1/9/2022 6:00:00 AM -0.02 31.964 0.1 7.23 27.13 14.51
1/9/2022 6:15:00 AM -0.02 31.964 0.099 7.23 36.3 14.5
1/9/2022 6:30:00 AM -0.02 31.964 0.099 7.23 36.22 14.51
1/9/2022 6:45:00 AM -0.02 31.964 0.099 7.23 34.69 14.5
1/9/2022 7:00:00 AM -0.02 31.964 0.099 7.23 34.06 14.49
1/9/2022 7:15:00 AM -0.02 31.964 0.099 7.23 34.91 14.47
1/9/2022 7:30:00 AM -0.03 31.946 0.099 7.23 34.52 14.48
1/9/2022 7:45:00 AM -0.03 31.946 0.099 7.23 34.67 14.48
1/9/2022 8:00:00 AM -0.03 31.946 0.099 7.23 33.92 14.47
1/9/2022 8:15:00 AM -0.03 31.946 0.098 7.23 33.39 14.49
1/9/2022 8:30:00 AM -0.03 31.946 0.098 7.23 34.21 14.51
1/9/2022 8:45:00 AM -0.02 31.964 0.098 7.23 32.41 14.53
1/9/2022 9:00:00 AM -0.02 31.964 0.098 7.24 29.39 14.52
1/9/2022 9:15:00 AM -0.02 31.964 0.098 7.25 32.3 14.57
1/9/2022 9:30:00 AM -0.02 31.964 0.098 7.25 34.68 14.6
1/9/2022 9:45:00 AM -0.01 31.982 0.098 7.25 33.97 14.62
1/9/2022 10:00:00 AM -0.01 31.982 0.098 7.26 33.07 14.67
1/9/2022 10:15:00 AM -0.01 31.982 0.097 7.27 34.32 14.69
1/9/2022 10:30:00 AM 0 32 0.097 7.27 33.61 14.73
1/9/2022 10:45:00 AM 0 32 0.097 7.28 30.08 14.74
1/9/2022 11:00:00 AM 0 32 0.097 7.28 33.25 14.77
1/9/2022 11:15:00 AM -0.01 31.982 0.097 7.29 37.77 14.75
1/9/2022 11:30:00 AM 0 32 0.097 7.29 20.37 14.8
1/9/2022 11:45:00 AM 0 32 0.097 7.3 32.98 14.78
1/9/2022 12:00:00 PM 0 32 0.096 7.3 33.79 14.81
1/9/2022 12:15:00 PM 0 32 0.096 7.3 30.76 14.81
1/9/2022 12:30:00 PM 0 32 0.096 7.31 33.99 14.82
1/9/2022 12:45:00 PM 0 32 0.096 7.31 33.92 14.84
1/9/2022 1:00:00 PM 0 32 0.096 7.32 34.39 14.86
1/9/2022 1:15:00 PM 0.01 32.018 0.096 7.32 32.99 14.86
1/9/2022 1:30:00 PM 0.01 32.018 0.096 7.32 32.15 14.85
1/9/2022 1:45:00 PM 0.01 32.018 0.095 7.32 31.73 14.85
1/9/2022 2:00:00 PM 0.01 32.018 0.095 7.32 31.83 14.83
1/9/2022 2:15:00 PM 0.01 32.018 0.095 7.32 31.58 14.82
1/9/2022 2:30:00 PM 0.01 32.018 0.095 7.33 21.91 14.81
1/9/2022 2:45:00 PM 0.02 32.036 0.095 7.32 34.89 14.8
1/9/2022 3:00:00 PM 0.02 32.036 0.095 7.32 27.7 14.78
1/9/2022 3:15:00 PM 0.02 32.036 0.095 7.32 29.68 14.76
1/9/2022 3:30:00 PM 0.03 32.054 0.095 7.32 28.25 14.73
1/9/2022 3:45:00 PM 0.03 32.054 0.095 7.31 29.85 14.71
1/9/2022 4:00:00 PM 0.04 32.072 0.095 7.31 44.29 14.69
1/9/2022 4:15:00 PM 0.04 32.072 0.095 7.31 49.14 14.66
1/9/2022 4:30:00 PM 0.04 32.072 0.095 7.3 38.45 14.64
1/9/2022 4:45:00 PM 0.04 32.072 0.095 7.29 38.4 14.61
1/9/2022 5:00:00 PM 0.04 32.072 0.095 7.29 42.5 14.55
1/9/2022 5:15:00 PM 0.04 32.072 0.095 7.29 46.37 14.55
1/9/2022 5:30:00 PM 0.05 32.09 0.095 7.28 47.67 14.51
1/9/2022 5:45:00 PM 0.05 32.09 0.095 7.28 21.02 14.5
1/9/2022 6:00:00 PM 0.05 32.09 0.095 7.27 19.85 14.49
1/9/2022 6:15:00 PM 0.05 32.09 0.095 7.27 20.13 14.45
1/9/2022 6:30:00 PM 0.05 32.09 0.095 7.26 20.81 14.45
1/9/2022 6:45:00 PM 0.05 32.09 0.095 7.26 20.93 14.44
1/9/2022 7:00:00 PM 0.06 32.108 0.095 7.26 23.16 14.41
1/9/2022 7:15:00 PM 0.06 32.108 0.095 7.25 14.83 14.41
1/9/2022 7:30:00 PM 0.06 32.108 0.095 7.25 19.95 14.4
1/9/2022 7:45:00 PM 0.06 32.108 0.095 7.25 36.1 14.38
1/9/2022 8:00:00 PM 0.06 32.108 0.095 7.24 27.46 14.36
1/9/2022 8:15:00 PM 0.06 32.108 0.095 7.24 13.5 14.36
1/9/2022 8:30:00 PM 0.07 32.126 0.095 7.24 12.29 14.36
1/9/2022 8:45:00 PM 0.06 32.108 0.095 7.24 20.77 14.33
1/9/2022 9:00:00 PM 0.06 32.108 0.095 7.24 25.36 14.34
1/9/2022 9:15:00 PM 0.07 32.126 0.095 7.24 17.48 14.35
1/9/2022 9:30:00 PM 0.07 32.126 0.095 7.23 19.25 14.35
1/9/2022 9:45:00 PM 0.06 32.108 0.095 7.23 26.03 14.34
1/9/2022 10:00:00 PM 0.07 32.126 0.095 7.23 16.08 14.35
1/9/2022 10:15:00 PM 0.07 32.126 0.095 7.23 21.21 14.34
1/9/2022 10:30:00 PM 0.07 32.126 0.096 7.23 16.62 14.33
1/9/2022 10:45:00 PM 0.08 32.144 0.096 7.23 16.96 14.34
1/9/2022 11:00:00 PM 0.08 32.144 0.096 7.23 17.34 14.34
1/9/2022 11:15:00 PM 0.09 32.162 0.096 7.23 16.31 14.34
1/9/2022 11:30:00 PM 0.08 32.144 0.096 7.23 19.97 14.34
1/9/2022 11:45:00 PM 0.07 32.126 0.096 7.23 20.04 14.33
1/10/2022 12:00:00 AM 0.06 32.108 0.096 7.23 19.59 14.33
1/10/2022 12:15:00 AM 0.05 32.09 0.096 7.23 21.83 14.33
1/10/2022 12:30:00 AM 0.05 32.09 0.096 7.23 22.65 14.3
1/10/2022 12:45:00 AM 0.05 32.09 0.096 7.24 23.34 14.34
1/10/2022 1:00:00 AM 0.05 32.09 0.096 7.24 22.04 14.34
1/10/2022 1:15:00 AM 0.04 32.072 0.096 7.23 22.81 14.33
1/10/2022 1:30:00 AM 0.04 32.072 0.097 7.23 22.13 14.32
1/10/2022 1:45:00 AM 0.04 32.072 0.097 7.24 22.44 14.35
1/10/2022 2:00:00 AM 0.04 32.072 0.097 7.24 22.35 14.35
1/10/2022 2:15:00 AM 0.04 32.072 0.097 7.24 22.32 14.35
1/10/2022 2:30:00 AM 0.05 32.09 0.097 7.24 22.79 14.36
1/10/2022 2:45:00 AM 0.05 32.09 0.097 7.24 22.94 14.37
1/10/2022 3:00:00 AM 0.05 32.09 0.097 7.24 23.27 14.36
1/10/2022 3:15:00 AM 0.04 32.072 0.097 7.24 24.16 14.36
1/10/2022 3:30:00 AM 0.04 32.072 0.097 7.24 23.9 14.37
1/10/2022 3:45:00 AM 0.04 32.072 0.097 7.24 24.26 14.36
1/10/2022 4:00:00 AM 0.04 32.072 0.097 7.24 24.44 14.37
1/10/2022 4:15:00 AM 0.03 32.054 0.097 7.24 24.38 14.36
1/10/2022 4:30:00 AM 0.03 32.054 0.097 7.24 25.2 14.37
1/10/2022 4:45:00 AM 0.02 32.036 0.097 7.24 25.25 14.37
1/10/2022 5:00:00 AM 0 32 0.097 7.24 24.14 14.4
1/10/2022 5:15:00 AM -0.01 31.982 0.097 7.24 24.94 14.41
1/10/2022 5:30:00 AM -0.02 31.964 0.097 7.24 25.25 14.42
1/10/2022 5:45:00 AM -0.05 31.91 0.097 7.24 25.63 14.42
1/10/2022 6:00:00 AM -0.07 31.874 0.097 7.24 25.73 14.43
1/10/2022 6:15:00 AM -0.07 31.874 0.098 7.24 23.69 14.44
1/10/2022 6:30:00 AM -0.06 31.892 0.098 7.24 26.05 14.44
1/10/2022 6:45:00 AM -0.05 31.91 0.098 7.24 26.02 14.44
1/10/2022 7:00:00 AM -0.05 31.91 0.098 7.24 26.55 14.39
1/10/2022 7:15:00 AM -0.05 31.91 0.098 7.24 26.12 14.43
1/10/2022 7:30:00 AM -0.04 31.928 0.098 7.24 26.18 14.37
1/10/2022 7:45:00 AM -0.04 31.928 0.098 7.23 25.82 14.4
1/10/2022 8:00:00 AM -0.04 31.928 0.098 7.24 26.12 14.41
1/10/2022 8:15:00 AM -0.04 31.928 0.098 7.24 26.14 14.47
1/10/2022 8:30:00 AM -0.03 31.946 0.098 7.25 24.61 14.5
1/10/2022 8:45:00 AM -0.03 31.946 0.098 7.26 25.34 14.52
1/10/2022 9:00:00 AM -0.02 31.964 0.098 7.27 25.39 14.65
1/10/2022 9:15:00 AM -0.02 31.964 0.098 7.27 25.53 14.64
1/10/2022 9:30:00 AM -0.01 31.982 0.098 7.28 25.81 14.73
1/10/2022 9:45:00 AM 0 32 0.098 7.29 26.1 14.78
1/10/2022 10:00:00 AM 0 32 0.098 7.3 27.02 14.86
1/10/2022 10:15:00 AM 0.01 32.018 0.098 7.31 26.93 14.89
1/10/2022 10:30:00 AM 0.02 32.036 0.098 7.32 27.16 14.89
1/10/2022 10:45:00 AM 0.04 32.072 0.098 7.33 28.1 14.93
1/10/2022 11:00:00 AM 0.05 32.09 0.098 7.34 28.32 14.97
1/10/2022 11:15:00 AM 0.07 32.126 0.098 7.34 27.9 14.97
1/10/2022 11:30:00 AM 0.12 32.216 0.098 7.35 27.96 15
1/10/2022 11:45:00 AM 0.17 32.306 0.098 7.36 25.5 15.02
1/10/2022 12:00:00 PM 0.19 32.342 0.098 7.37 28.66 15.05
1/10/2022 12:15:00 PM 0.2 32.36 0.097 7.36 29.75 15.06
1/10/2022 12:30:00 PM 0.2 32.36 0.097 7.38 31.6 15.07
1/10/2022 12:45:00 PM 0.22 32.396 0.097 7.38 31.25 15.08
1/10/2022 1:00:00 PM 0.25 32.45 0.097 7.38 31.29 15.07
1/10/2022 1:15:00 PM 0.26 32.468 0.097 7.39 31.67 15.06
1/10/2022 1:30:00 PM 0.23 32.414 0.097 7.39 31.22 15.05
1/10/2022 1:45:00 PM 0.25 32.45 0.097 7.39 31.45 15.05
1/10/2022 2:00:00 PM 0.3 32.54 0.097 7.4 31.98 15.04
1/10/2022 2:15:00 PM 0.29 32.522 0.097 7.4 31.48 15.04
1/10/2022 2:30:00 PM 0.23 32.414 0.097 7.4 31.93 15.03
1/10/2022 2:45:00 PM 0.21 32.378 0.097 7.4 32.12 15.01
1/10/2022 3:00:00 PM 0.2 32.36 0.097 7.4 32.33 15.01
1/10/2022 3:15:00 PM 0.21 32.378 0.097 7.4 32.33 15
1/10/2022 3:30:00 PM 0.21 32.378 0.097 7.4 32.6 15.01
1/10/2022 3:45:00 PM 0.18 32.324 0.097 7.4 32.92 14.99
1/10/2022 4:00:00 PM 0.17 32.306 0.097 7.4 33.22 14.96
1/10/2022 4:15:00 PM 0.16 32.288 0.097 7.4 32.89 14.95
1/10/2022 4:30:00 PM 0.14 32.252 0.097 7.39 32.95 14.89
1/10/2022 4:45:00 PM 0.13 32.234 0.097 7.39 32.98 14.86
1/10/2022 5:00:00 PM 0.1 32.18 0.097 7.38 33.27 14.79
1/10/2022 5:15:00 PM 0.09 32.162 0.097 7.37 33.23 14.78
1/10/2022 5:30:00 PM 0.09 32.162 0.097 7.36 33.78 14.74
1/10/2022 5:45:00 PM 0.06 32.108 0.097 7.36 34.09 14.69
1/10/2022 6:00:00 PM 0.05 32.09 0.097 7.35 33.43 14.67
1/10/2022 6:15:00 PM 0.03 32.054 0.098 7.34 33.71 14.64
1/10/2022 6:30:00 PM 0.02 32.036 0.098 7.33 33.95 14.62
1/10/2022 6:45:00 PM -0.01 31.982 0.098 7.33 33.98 14.56
1/10/2022 7:00:00 PM -0.03 31.946 0.098 7.32 34.1 14.59
1/10/2022 7:15:00 PM -0.06 31.892 0.098 7.32 34.07 14.58
1/10/2022 7:30:00 PM -0.08 31.856 0.097 7.31 34.48 14.58
1/10/2022 7:45:00 PM -0.07 31.874 0.098 7.31 34.33 14.58
1/10/2022 8:00:00 PM -0.05 31.91 0.098 7.3 34.33 14.56
1/10/2022 8:15:00 PM -0.05 31.91 0.098 7.3 34.25 14.55
1/10/2022 8:30:00 PM -0.05 31.91 0.098 7.29 34.7 14.54
1/10/2022 8:45:00 PM -0.05 31.91 0.098 7.29 34.56 14.54
1/10/2022 9:00:00 PM -0.05 31.91 0.098 7.28 34.55 14.51
1/10/2022 9:15:00 PM -0.05 31.91 0.098 7.28 34.26 14.51
1/10/2022 9:30:00 PM -0.04 31.928 0.098 7.28 34.29 14.5
1/10/2022 9:45:00 PM -0.04 31.928 0.098 7.27 33.97 14.47
1/10/2022 10:00:00 PM -0.04 31.928 0.098 7.28 35.01 14.5
1/10/2022 10:15:00 PM -0.04 31.928 0.098 7.27 35.01 14.46
1/10/2022 10:30:00 PM -0.04 31.928 0.098 7.27 34.96 14.47
1/10/2022 10:45:00 PM -0.04 31.928 0.098 7.27 35.23 14.5
1/10/2022 11:00:00 PM -0.04 31.928 0.099 7.27 34.86 14.52
1/10/2022 11:15:00 PM -0.04 31.928 0.099 7.26 34.97 14.49
1/10/2022 11:30:00 PM -0.04 31.928 0.099 7.26 34.98 14.5
1/10/2022 11:45:00 PM -0.04 31.928 0.099 7.26 36.05 14.53
1/11/2022 12:00:00 AM -0.04 31.928 0.099 7.26 33.42 14.54
1/11/2022 12:15:00 AM -0.04 31.928 0.099 7.26 32.42 14.55
1/11/2022 12:30:00 AM -0.04 31.928 0.099 7.26 32.88 14.55
1/11/2022 12:45:00 AM -0.04 31.928 0.099 7.26 32.98 14.56
1/11/2022 1:00:00 AM -0.04 31.928 0.1 7.26 33.44 14.55
1/11/2022 1:15:00 AM -0.04 31.928 0.1 7.25 32.68 14.55
1/11/2022 1:30:00 AM -0.04 31.928 0.1 7.25 31.6 14.56
1/11/2022 1:45:00 AM -0.04 31.928 0.1 7.25 30.93 14.57
1/11/2022 2:00:00 AM -0.04 31.928 0.101 7.26 31.9 14.55
1/11/2022 2:15:00 AM -0.04 31.928 0.101 7.25 29.85 14.57
1/11/2022 2:30:00 AM -0.04 31.928 0.101 7.25 29.14 14.58
1/11/2022 2:45:00 AM -0.04 31.928 0.101 7.25 28.72 14.56
1/11/2022 3:00:00 AM -0.04 31.928 0.101 7.25 27.53 14.57
1/11/2022 3:15:00 AM -0.04 31.928 0.102 7.25 27.89 14.59
1/11/2022 3:30:00 AM -0.04 31.928 0.102 7.25 28.06 14.57
1/11/2022 3:45:00 AM -0.04 31.928 0.102 7.25 28.22 14.55
1/11/2022 4:00:00 AM -0.04 31.928 0.102 7.25 28.33 14.58
1/11/2022 4:15:00 AM -0.04 31.928 0.102 7.25 28.46 14.58
1/11/2022 4:30:00 AM -0.04 31.928 0.103 7.25 28.4 14.56
1/11/2022 4:45:00 AM -0.04 31.928 0.103 7.24 28.38 14.54
1/11/2022 5:00:00 AM -0.04 31.928 0.103 7.24 28.25 14.55
1/11/2022 5:15:00 AM -0.04 31.928 0.103 7.24 27.89 14.55
1/11/2022 5:30:00 AM -0.04 31.928 0.103 7.24 27.2 14.54
1/11/2022 5:45:00 AM -0.04 31.928 0.104 7.24 27.22 14.57
1/11/2022 6:00:00 AM -0.04 31.928 0.104 7.24 27 14.53
1/11/2022 6:15:00 AM -0.04 31.928 0.104 7.23 27.68 14.56
1/11/2022 6:30:00 AM -0.04 31.928 0.104 7.24 27.43 14.56
1/11/2022 6:45:00 AM -0.04 31.928 0.104 7.23 27.33 14.56
1/11/2022 7:00:00 AM -0.04 31.928 0.105 7.23 27.13 14.54
1/11/2022 7:15:00 AM -0.04 31.928 0.105 7.24 26.39 14.56
1/11/2022 7:30:00 AM -0.04 31.928 0.105 7.23 25 14.53
1/11/2022 7:45:00 AM -0.03 31.946 0.105 7.23 24.99 14.55
1/11/2022 8:00:00 AM -0.03 31.946 0.105 7.23 24.34 14.55
1/11/2022 8:15:00 AM -0.03 31.946 0.106 7.22 23.8 14.62
1/11/2022 8:30:00 AM -0.03 31.946 0.106 7.23 25.52 14.58
1/11/2022 8:45:00 AM -0.02 31.964 0.106 7.22 25.37 14.59
1/11/2022 9:00:00 AM -0.01 31.982 0.106 7.21 23.88 14.62
1/11/2022 9:15:00 AM 0 32 0.106 7.24 27.13 14.66
1/11/2022 9:30:00 AM 0 32 0.106 7.24 26.79 14.67
1/11/2022 9:45:00 AM 0.02 32.036 0.106 7.24 27.29 14.67
1/11/2022 10:00:00 AM 0.03 32.054 0.106 7.24 27.31 14.73
1/11/2022 10:15:00 AM 0.04 32.072 0.107 7.24 27.13 14.67
1/11/2022 10:30:00 AM 0.06 32.108 0.107 7.25 27.3 14.84
1/11/2022 10:45:00 AM 0.06 32.108 0.107 7.26 28.46 14.72
1/11/2022 11:00:00 AM 0.06 32.108 0.107 7.25 27.19 14.87
1/11/2022 11:15:00 AM 0.09 32.162 0.107 7.26 27.37 14.92
1/11/2022 11:30:00 AM 0.1 32.18 0.107 7.28 27.46 14.85
1/11/2022 11:45:00 AM 0.1 32.18 0.107 7.29 28.11 15.01
1/11/2022 12:00:00 PM 0.08 32.144 0.107 7.3 27.54 14.98
1/11/2022 12:15:00 PM 0.09 32.162 0.107 7.31 28.18 15.03
1/11/2022 12:30:00 PM 0.08 32.144 0.107 7.32 27.62 15.03
1/11/2022 12:45:00 PM 0.06 32.108 0.107 7.32 27.61 15.02
1/11/2022 1:00:00 PM 0.07 32.126 0.107 7.33 27.74 15.06
1/11/2022 1:15:00 PM 0.05 32.09 0.107 7.33 28.06 15.1
1/11/2022 1:30:00 PM 0.06 32.108 0.107 7.34 27.44 15.18
1/11/2022 1:45:00 PM 0.07 32.126 0.106 7.34 27.64 15.15
1/11/2022 2:00:00 PM 0.07 32.126 0.106 7.34 27.58 15.2
1/11/2022 2:15:00 PM 0.06 32.108 0.106 7.34 27.95 15.15
1/11/2022 2:30:00 PM 0.05 32.09 0.106 7.35 27.72 15.17
1/11/2022 2:45:00 PM 0.02 32.036 0.106 7.35 28.07 15.19
1/11/2022 3:00:00 PM 0.01 32.018 0.106 7.35 26.72 15.19
1/11/2022 3:15:00 PM 0.01 32.018 0.106 7.35 26.4 15.13
1/11/2022 3:30:00 PM 0 32 0.105 7.36 26.61 15.15
1/11/2022 3:45:00 PM -0.01 31.982 0.105 7.36 26.38 15.11
1/11/2022 4:00:00 PM -0.02 31.964 0.105 7.36 26.2 15.1
1/11/2022 4:15:00 PM -0.03 31.946 0.105 7.36 26.2 15.09
1/11/2022 4:30:00 PM -0.03 31.946 0.105 7.35 26.44 15.08
1/11/2022 4:45:00 PM -0.04 31.928 0.105 7.35 26.79 15.06
1/11/2022 5:00:00 PM -0.04 31.928 0.105 7.34 26.79 15.02
1/11/2022 5:15:00 PM -0.05 31.91 0.105 7.33 27.98 14.96
1/11/2022 5:30:00 PM -0.04 31.928 0.105 7.32 36.96 14.97
1/11/2022 5:45:00 PM -0.04 31.928 0.105 7.32 25.08 14.88
1/11/2022 6:00:00 PM -0.04 31.928 0.105 7.31 27.57 14.9
1/11/2022 6:15:00 PM -0.05 31.91 0.105 7.31 26.32 14.82
1/11/2022 6:30:00 PM -0.04 31.928 0.105 7.3 26.96 14.81
1/11/2022 6:45:00 PM -0.04 31.928 0.105 7.3 26.51 14.81
1/11/2022 7:00:00 PM -0.04 31.928 0.105 7.29 26.76 14.8
1/11/2022 7:15:00 PM -0.04 31.928 0.105 7.29 27.14 14.72
1/11/2022 7:30:00 PM -0.04 31.928 0.105 7.29 26.8 14.74
1/11/2022 7:45:00 PM -0.04 31.928 0.105 7.28 26.85 14.62
1/11/2022 8:00:00 PM -0.04 31.928 0.105 7.28 27.07 14.68
1/11/2022 8:15:00 PM -0.04 31.928 0.105 7.27 27 14.66
1/11/2022 8:30:00 PM -0.04 31.928 0.105 7.27 26.99 14.66
1/11/2022 8:45:00 PM -0.04 31.928 0.105 7.27 26.83 14.71
1/11/2022 9:00:00 PM -0.03 31.946 0.105 7.26 26.8 14.7
1/11/2022 9:15:00 PM -0.04 31.928 0.105 7.26 27.07 14.66
1/11/2022 9:30:00 PM -0.03 31.946 0.105 7.26 25.92 14.66
1/11/2022 9:45:00 PM -0.03 31.946 0.105 7.25 26.51 14.67
1/11/2022 10:00:00 PM -0.03 31.946 0.105 7.25 26.13 14.61
1/11/2022 10:15:00 PM -0.03 31.946 0.105 7.24 25.95 14.62
1/11/2022 10:30:00 PM -0.03 31.946 0.105 7.24 26.02 14.65
1/11/2022 10:45:00 PM -0.03 31.946 0.105 7.24 25.79 14.57
1/11/2022 11:00:00 PM -0.03 31.946 0.105 7.23 25.71 14.54
1/11/2022 11:15:00 PM -0.03 31.946 0.105 7.23 26.37 14.59
1/11/2022 11:30:00 PM -0.03 31.946 0.105 7.22 26.05 14.55
1/11/2022 11:45:00 PM -0.03 31.946 0.106 7.22 26.34 14.56
1/12/2022 12:00:00 AM -0.03 31.946 0.106 7.22 26.27 14.54
1/12/2022 12:15:00 AM -0.03 31.946 0.106 7.22 26.05 14.48
1/12/2022 12:30:00 AM -0.03 31.946 0.106 7.21 26.28 14.53
1/12/2022 12:45:00 AM -0.03 31.946 0.106 7.21 26.39 14.51
1/12/2022 1:00:00 AM -0.03 31.946 0.106 7.21 26.49 14.48
1/12/2022 1:15:00 AM -0.02 31.964 0.106 7.2 26.42 14.49
1/12/2022 1:30:00 AM -0.02 31.964 0.106 7.2 26.37 14.47
1/12/2022 1:45:00 AM -0.03 31.946 0.107 7.2 26.39 14.48
1/12/2022 2:00:00 AM -0.02 31.964 0.107 7.2 30.19 14.46
1/12/2022 2:15:00 AM -0.02 31.964 0.107 7.19 27.64 14.47
1/12/2022 2:30:00 AM -0.02 31.964 0.107 7.2 30.79 14.49
1/12/2022 2:45:00 AM -0.02 31.964 0.107 7.2 24.51 14.46
1/12/2022 3:00:00 AM -0.03 31.946 0.107 7.18 24.54 14.44
1/12/2022 3:15:00 AM -0.03 31.946 0.108 7.18 24.53 14.46
1/12/2022 3:30:00 AM -0.03 31.946 0.108 7.19 24.53 14.44
1/12/2022 3:45:00 AM -0.03 31.946 0.108 7.19 27.79 14.39
1/12/2022 4:00:00 AM -0.03 31.946 0.108 7.18 27.32 14.31
1/12/2022 4:15:00 AM -0.03 31.946 0.108 7.18 26.83 14.37
1/12/2022 4:30:00 AM -0.03 31.946 0.108 7.18 26.53 14.35
1/12/2022 4:45:00 AM -0.02 31.964 0.109 7.18 26.68 14.36
1/12/2022 5:00:00 AM -0.03 31.946 0.109 7.17 26.41 14.37
1/12/2022 5:15:00 AM -0.03 31.946 0.109 7.18 26.17 14.39
1/12/2022 5:30:00 AM -0.03 31.946 0.109 7.18 26.04 14.35
1/12/2022 5:45:00 AM -0.02 31.964 0.109 7.18 25.94 14.32
1/12/2022 6:00:00 AM -0.02 31.964 0.109 7.18 25.8 14.28
1/12/2022 6:15:00 AM -0.03 31.946 0.11 7.18 25.75 14.21
1/12/2022 6:30:00 AM -0.02 31.964 0.11 7.17 25.84 14.29
1/12/2022 6:45:00 AM -0.02 31.964 0.11 7.16 25.66 14.3
1/12/2022 7:00:00 AM -0.03 31.946 0.11 7.17 25.69 14.24
1/12/2022 7:15:00 AM -0.02 31.964 0.11 7.17 25.27 14.25
1/12/2022 7:30:00 AM -0.03 31.946 0.11 7.16 25.43 14.27
1/12/2022 7:45:00 AM -0.02 31.964 0.111 7.16 25.31 14.25
1/12/2022 8:00:00 AM -0.02 31.964 0.111 7.17 26.28 14.27
1/12/2022 8:15:00 AM -0.02 31.964 0.111 7.17 26.71 14.3
1/12/2022 8:30:00 AM -0.01 31.982 0.111 7.17 28.11 14.38
1/12/2022 8:45:00 AM -0.01 31.982 0.111 7.17 25.52 14.38
1/12/2022 9:00:00 AM 0 32 0.111 7.18 25.99 14.43
1/12/2022 9:15:00 AM 0 32 0.111 7.19 26.02 14.5
1/12/2022 9:30:00 AM 0.02 32.036 0.111 7.19 25.9 14.55
1/12/2022 9:45:00 AM 0.03 32.054 0.111 7.2 25.98 14.57
1/12/2022 10:00:00 AM 0.04 32.072 0.111 7.21 25.93 14.59
1/12/2022 10:15:00 AM 0.04 32.072 0.111 7.21 26.03 14.62
1/12/2022 10:30:00 AM 0.06 32.108 0.111 7.22 25.97 14.65
1/12/2022 10:45:00 AM 0.07 32.126 0.111 7.22 26.01 14.69
1/12/2022 11:00:00 AM 0.08 32.144 0.111 7.23 26.32 14.69
1/12/2022 11:15:00 AM 0.11 32.198 0.111 7.24 26.16 14.7
1/12/2022 11:30:00 AM 0.13 32.234 0.111 7.25 26.28 14.71
1/12/2022 11:45:00 AM 0.1 32.18 0.111 7.26 26.13 14.73
1/12/2022 12:00:00 PM 0.09 32.162 0.111 7.26 26.09 14.77
1/12/2022 12:15:00 PM 0.1 32.18 0.111 7.28 26.23 14.85
1/12/2022 12:30:00 PM 0.09 32.162 0.111 7.29 25.95 14.84
1/12/2022 12:45:00 PM 0.07 32.126 0.111 7.29 25.46 14.89
1/12/2022 1:00:00 PM 0.05 32.09 0.11 7.3 25.51 14.87
1/12/2022 1:15:00 PM 0.04 32.072 0.11 7.31 25.7 14.89
1/12/2022 1:30:00 PM 0.04 32.072 0.11 7.31 25.91 14.92
1/12/2022 1:45:00 PM 0.02 32.036 0.109 7.32 25.85 14.91
1/12/2022 2:00:00 PM 0.02 32.036 0.109 7.32 25.83 14.93
1/12/2022 2:15:00 PM 0.01 32.018 0.109 7.33 25.41 14.94
1/12/2022 2:30:00 PM 0 32 0.109 7.34 29 14.93
1/12/2022 2:45:00 PM 0 32 0.109 7.34 35.37 14.94
1/12/2022 3:00:00 PM 0.01 32.018 0.109 7.34 34.87 14.95
1/12/2022 3:15:00 PM 0 32 0.108 7.35 39.6 14.94
1/12/2022 3:30:00 PM 0 32 0.108 7.35 41.44 14.95
1/12/2022 3:45:00 PM 0 32 0.108 7.35 39.78 14.95
1/12/2022 4:00:00 PM -0.01 31.982 0.108 7.35 39.29 14.92
1/12/2022 4:15:00 PM -0.01 31.982 0.108 7.35 39.25 14.89
1/12/2022 4:30:00 PM -0.01 31.982 0.107 7.35 38.98 14.88
1/12/2022 4:45:00 PM -0.02 31.964 0.107 7.35 39.28 14.84
1/12/2022 5:00:00 PM -0.02 31.964 0.107 7.34 48.15 14.81
1/12/2022 5:15:00 PM -0.02 31.964 0.107 7.33 42.82 14.77
1/12/2022 5:30:00 PM -0.02 31.964 0.107 7.33 63.41 14.73
1/12/2022 5:45:00 PM -0.02 31.964 0.107 7.32 36.85 14.7
1/12/2022 6:00:00 PM -0.02 31.964 0.106 7.32 37.43 14.63
1/12/2022 6:15:00 PM -0.02 31.964 0.106 7.31 39.84 14.62
1/12/2022 6:30:00 PM -0.02 31.964 0.106 7.31 39.52 14.57
1/12/2022 6:45:00 PM -0.02 31.964 0.106 7.3 39.82 14.54
1/12/2022 7:00:00 PM -0.02 31.964 0.106 7.29 40.04 14.48
1/12/2022 7:15:00 PM -0.02 31.964 0.105 7.29 39.2 14.53
1/12/2022 7:30:00 PM -0.02 31.964 0.105 7.29 40 14.52
1/12/2022 7:45:00 PM -0.02 31.964 0.105 7.28 40.18 14.43
1/12/2022 8:00:00 PM -0.02 31.964 0.105 7.27 40.87 14.45
1/12/2022 8:15:00 PM -0.02 31.964 0.105 7.27 41.16 14.45
1/12/2022 8:30:00 PM -0.02 31.964 0.104 7.27 37.04 14.45
1/12/2022 8:45:00 PM -0.02 31.964 0.104 7.26 35.05 14.45
1/12/2022 9:00:00 PM -0.02 31.964 0.104 7.26 36.55 14.41
1/12/2022 9:15:00 PM -0.02 31.964 0.104 7.25 34.84 14.42
1/12/2022 9:30:00 PM -0.02 31.964 0.104 7.25 35.06 14.4
1/12/2022 9:45:00 PM -0.02 31.964 0.104 7.24 37.1 14.38
1/12/2022 10:00:00 PM -0.02 31.964 0.104 7.24 41.33 14.34
1/12/2022 10:15:00 PM -0.02 31.964 0.104 7.24 40.87 14.34
1/12/2022 10:30:00 PM -0.02 31.964 0.104 7.24 41.34 14.33
1/12/2022 10:45:00 PM -0.02 31.964 0.104 7.23 40.74 14.34
1/12/2022 11:00:00 PM -0.02 31.964 0.103 7.23 41.19 14.33
1/12/2022 11:15:00 PM -0.02 31.964 0.103 7.23 41.32 14.32
1/12/2022 11:30:00 PM -0.02 31.964 0.103 7.23 41.16 14.31
1/12/2022 11:45:00 PM -0.02 31.964 0.103 7.23 41.19 14.31
1/13/2022 12:00:00 AM -0.02 31.964 0.103 7.23 41.21 14.29
1/13/2022 12:15:00 AM -0.02 31.964 0.103 7.22 41.27 14.3
1/13/2022 12:30:00 AM -0.02 31.964 0.103 7.22 41.1 14.31
1/13/2022 12:45:00 AM -0.02 31.964 0.103 7.22 41.17 14.25
1/13/2022 1:00:00 AM -0.02 31.964 0.103 7.22 41.05 14.23
1/13/2022 1:15:00 AM -0.02 31.964 0.103 7.22 41.19 14.23
1/13/2022 1:30:00 AM -0.02 31.964 0.103 7.21 41.14 14.25
1/13/2022 1:45:00 AM -0.02 31.964 0.103 7.21 41.03 14.25
1/13/2022 2:00:00 AM -0.02 31.964 0.103 7.21 39.55 14.26
1/13/2022 2:15:00 AM -0.02 31.964 0.103 7.21 39.68 14.26
1/13/2022 2:30:00 AM -0.01 31.982 0.103 7.21 39.77 14.25
1/13/2022 2:45:00 AM -0.02 31.964 0.103 7.21 39.35 14.26
1/13/2022 3:00:00 AM -0.01 31.982 0.103 7.21 39.35 14.27
1/13/2022 3:15:00 AM -0.02 31.964 0.103 7.2 39.71 14.24
1/13/2022 3:30:00 AM -0.02 31.964 0.103 7.2 40.1 14.24
1/13/2022 3:45:00 AM -0.02 31.964 0.103 7.2 39.64 14.25
1/13/2022 4:00:00 AM -0.01 31.982 0.103 7.2 39.35 14.24
1/13/2022 4:15:00 AM -0.02 31.964 0.103 7.2 39.53 14.26
1/13/2022 4:30:00 AM -0.01 31.982 0.103 7.2 39.6 14.25
1/13/2022 4:45:00 AM -0.01 31.982 0.103 7.2 39.32 14.23
1/13/2022 5:00:00 AM -0.01 31.982 0.103 7.2 39.31 14.22
1/13/2022 5:15:00 AM -0.01 31.982 0.102 7.2 39.23 14.24
1/13/2022 5:30:00 AM -0.01 31.982 0.102 7.2 38.95 14.23
1/13/2022 5:45:00 AM -0.01 31.982 0.102 7.2 38.86 14.23
1/13/2022 6:00:00 AM -0.01 31.982 0.102 7.2 38.65 14.22
1/13/2022 6:15:00 AM -0.02 31.964 0.102 7.2 39.29 14.2
1/13/2022 6:30:00 AM -0.02 31.964 0.102 7.2 39.12 14.2
1/13/2022 6:45:00 AM -0.02 31.964 0.102 7.19 39.05 14.22
1/13/2022 7:00:00 AM -0.02 31.964 0.102 7.19 39.21 14.21
1/13/2022 7:15:00 AM -0.03 31.946 0.102 7.19 39.35 14.23
1/13/2022 7:30:00 AM -0.03 31.946 0.102 7.19 39.3 14.22
1/13/2022 7:45:00 AM -0.03 31.946 0.102 7.19 39.52 14.22
1/13/2022 8:00:00 AM -0.03 31.946 0.102 7.2 39.73 14.27
1/13/2022 8:15:00 AM -0.02 31.964 0.102 7.2 38.41 14.27
1/13/2022 8:30:00 AM -0.02 31.964 0.102 7.19 39.89 14.29
1/13/2022 8:45:00 AM 0 32 0.102 7.2 40.13 14.34
1/13/2022 9:00:00 AM 0.01 32.018 0.102 7.21 40.11 14.4
1/13/2022 9:15:00 AM 0.01 32.018 0.101 7.22 40.28 14.42
1/13/2022 9:30:00 AM 0.03 32.054 0.101 7.21 40.38 14.45
1/13/2022 9:45:00 AM 0.04 32.072 0.101 7.23 40.61 14.53
1/13/2022 10:00:00 AM 0.05 32.09 0.101 7.24 40.66 14.52
1/13/2022 10:15:00 AM 0.06 32.108 0.101 7.24 40.62 14.57
1/13/2022 10:30:00 AM 0.07 32.126 0.101 7.25 40.51 14.64
1/13/2022 10:45:00 AM 0.08 32.144 0.101 7.26 40.61 14.64
1/13/2022 11:00:00 AM 0.09 32.162 0.1 7.27 40.35 14.68
1/13/2022 11:15:00 AM 0.07 32.126 0.1 7.27 40.39 14.72
1/13/2022 11:30:00 AM 0.09 32.162 0.1 7.28 40.43 14.75
1/13/2022 11:45:00 AM 0.11 32.198 0.1 7.29 40.43 14.77
1/13/2022 12:00:00 PM 0.13 32.234 0.1 7.29 40.53 14.8
1/13/2022 12:15:00 PM 0.16 32.288 0.099 7.3 40.49 14.81
1/13/2022 12:30:00 PM 0.16 32.288 0.099 7.3 40.48 14.8
1/13/2022 12:45:00 PM 0.16 32.288 0.099 7.32 40.52 14.83
1/13/2022 1:00:00 PM 0.14 32.252 0.098 7.32 40.48 14.82
1/13/2022 1:15:00 PM 0.13 32.234 0.098 7.32 40.5 14.84
1/13/2022 1:30:00 PM 0.14 32.252 0.098 7.33 40.27 14.83
1/13/2022 1:45:00 PM 0.12 32.216 0.098 7.34 40.35 14.82
1/13/2022 2:00:00 PM 0.11 32.198 0.098 7.34 40.27 14.82
1/13/2022 2:15:00 PM 0.1 32.18 0.098 7.34 40.27 14.78
1/13/2022 2:30:00 PM 0.1 32.18 0.098 7.34 40.33 14.84
1/13/2022 2:45:00 PM 0.12 32.216 0.097 7.35 40.4 14.83
1/13/2022 3:00:00 PM 0.12 32.216 0.097 7.35 39.82 14.84
1/13/2022 3:15:00 PM 0.1 32.18 0.097 7.36 39.95 14.84
1/13/2022 3:30:00 PM 0.08 32.144 0.097 7.36 39.87 14.84
1/13/2022 3:45:00 PM 0.07 32.126 0.097 7.36 40.02 14.82
1/13/2022 4:00:00 PM 0.06 32.108 0.097 7.36 39.87 14.82
1/13/2022 4:15:00 PM 0.05 32.09 0.097 7.36 40.15 14.72
1/13/2022 4:30:00 PM 0.04 32.072 0.097 7.35 40.75 14.77
1/13/2022 4:45:00 PM 0.03 32.054 0.097 7.35 40.41 14.69
1/13/2022 5:00:00 PM 0.02 32.036 0.097 7.34 40.42 14.67
1/13/2022 5:15:00 PM 0.02 32.036 0.097 7.33 39.86 14.63
1/13/2022 5:30:00 PM 0.01 32.018 0.097 7.32 37.75 14.58
1/13/2022 5:45:00 PM 0.01 32.018 0.097 7.32 37.03 14.57
1/13/2022 6:00:00 PM 0.01 32.018 0.097 7.31 36.39 14.49
1/13/2022 6:15:00 PM 0 32 0.097 7.3 36.79 14.49
1/13/2022 6:30:00 PM 0.01 32.018 0.097 7.3 36.94 14.48
1/13/2022 6:45:00 PM 0.01 32.018 0.096 7.29 37.18 14.45
1/13/2022 7:00:00 PM 0 32 0.096 7.29 38.79 14.45
1/13/2022 7:15:00 PM 0 32 0.096 7.28 37.94 14.42
1/13/2022 7:30:00 PM 0 32 0.096 7.28 37.94 14.41
1/13/2022 7:45:00 PM 0 32 0.096 7.27 37.81 14.41
1/13/2022 8:00:00 PM 0.01 32.018 0.096 7.27 37.56 14.39
1/13/2022 8:15:00 PM 0.01 32.018 0.096 7.26 36.64 14.37
1/13/2022 8:30:00 PM 0 32 0.097 7.25 35.67 14.37
1/13/2022 8:45:00 PM 0.01 32.018 0.097 7.25 35.83 14.33
1/13/2022 9:00:00 PM 0 32 0.097 7.25 35.86 14.33
1/13/2022 9:15:00 PM 0.01 32.018 0.097 7.25 35.97 14.29
1/13/2022 9:30:00 PM 0.01 32.018 0.097 7.24 36.17 14.26
1/13/2022 9:45:00 PM 0 32 0.097 7.23 40.14 14.27
1/13/2022 10:00:00 PM 0.01 32.018 0.098 7.23 39.71 14.28
1/13/2022 10:15:00 PM 0.01 32.018 0.098 7.23 39.56 14.25
1/13/2022 10:30:00 PM 0.01 32.018 0.098 7.23 43.62 14.25
1/13/2022 10:45:00 PM 0.01 32.018 0.098 7.22 42.81 14.28
1/13/2022 11:00:00 PM 0.01 32.018 0.098 7.23 43.31 14.26
1/13/2022 11:15:00 PM 0.01 32.018 0.098 7.22 43.76 14.24
1/13/2022 11:30:00 PM 0.01 32.018 0.098 7.22 46.69 14.25
1/13/2022 11:45:00 PM 0.01 32.018 0.098 7.22 43.65 14.26
1/14/2022 12:00:00 AM 0.01 32.018 0.098 7.22 42.71 14.26
1/14/2022 12:15:00 AM 0.01 32.018 0.098 7.22 43.63 14.26
1/14/2022 12:30:00 AM 0.01 32.018 0.098 7.22 41.69 14.19
1/14/2022 12:45:00 AM 0.02 32.036 0.098 7.22 43.3 14.24
1/14/2022 1:00:00 AM 0.02 32.036 0.098 7.22 42.87 14.22
1/14/2022 1:15:00 AM 0.02 32.036 0.098 7.22 40.91 14.25
1/14/2022 1:30:00 AM 0.02 32.036 0.098 7.22 41.85 14.21
1/14/2022 1:45:00 AM 0.02 32.036 0.098 7.22 43.46 14.21
1/14/2022 2:00:00 AM 0.02 32.036 0.098 7.22 43.06 14.23
1/14/2022 2:15:00 AM 0.02 32.036 0.098 7.22 43.4 14.2
1/14/2022 2:30:00 AM 0.02 32.036 0.098 7.22 43.64 14.18
1/14/2022 2:45:00 AM 0.02 32.036 0.098 7.21 43.66 14.19
1/14/2022 3:00:00 AM 0.02 32.036 0.098 7.22 43.7 14.18
1/14/2022 3:15:00 AM 0.02 32.036 0.098 7.22 44.06 14.15
1/14/2022 3:30:00 AM 0.02 32.036 0.098 7.22 44.35 14.19
1/14/2022 3:45:00 AM 0.03 32.054 0.098 7.22 43.95 14.16
1/14/2022 4:00:00 AM 0.03 32.054 0.098 7.22 44.62 14.18
1/14/2022 4:15:00 AM 0.03 32.054 0.098 7.21 44.68 14.16
1/14/2022 4:30:00 AM 0.03 32.054 0.098 7.22 44.55 14.13
1/14/2022 4:45:00 AM 0.03 32.054 0.098 7.22 44.5 14.2
1/14/2022 5:00:00 AM 0.03 32.054 0.098 7.22 44.81 14.18
1/14/2022 5:15:00 AM 0.03 32.054 0.098 7.21 44.59 14.17
1/14/2022 5:30:00 AM 0.03 32.054 0.098 7.22 45.44 14.21
1/14/2022 5:45:00 AM 0.03 32.054 0.098 7.22 45.15 14.21
1/14/2022 6:00:00 AM 0.04 32.072 0.098 7.22 45.28 14.21
1/14/2022 6:15:00 AM 0.04 32.072 0.098 7.22 42.6 14.21
1/14/2022 6:30:00 AM 0.04 32.072 0.098 7.22 42.9 14.22
1/14/2022 6:45:00 AM 0.04 32.072 0.098 7.22 44.04 14.2
1/14/2022 7:00:00 AM 0.04 32.072 0.098 7.22 43.98 14.2
1/14/2022 7:15:00 AM 0.05 32.09 0.098 7.22 45.43 14.17
1/14/2022 7:30:00 AM 0.05 32.09 0.098 7.22 44.64 14.2
1/14/2022 7:45:00 AM 0.05 32.09 0.098 7.22 46.48 14.21
1/14/2022 8:00:00 AM 0.06 32.108 0.098 7.22 46.51 14.2
1/14/2022 8:15:00 AM 0.06 32.108 0.098 7.23 52.32 14.25
1/14/2022 8:30:00 AM 0.06 32.108 0.098 7.23 48.66 14.26
1/14/2022 8:45:00 AM 0.07 32.126 0.098 7.24 48.71 14.27
1/14/2022 9:00:00 AM 0.08 32.144 0.098 7.24 47.74 14.32
1/14/2022 9:15:00 AM 0.08 32.144 0.098 7.25 48.16 14.28
1/14/2022 9:30:00 AM 0.08 32.144 0.098 7.25 48.99 14.29
1/14/2022 9:45:00 AM 0.09 32.162 0.098 7.26 47.86 14.36
1/14/2022 10:00:00 AM 0.11 32.198 0.098 7.27 48.65 14.4
1/14/2022 10:15:00 AM 0.12 32.216 0.098 7.27 48.45 14.45
1/14/2022 10:30:00 AM 0.14 32.252 0.098 7.29 49.29 14.54
1/14/2022 10:45:00 AM 0.15 32.27 0.098 7.29 48.09 14.55
1/14/2022 11:00:00 AM 0.16 32.288 0.098 7.3 46.85 14.61
1/14/2022 11:15:00 AM 0.18 32.324 0.098 7.31 47.51 14.61
1/14/2022 11:30:00 AM 0.19 32.342 0.097 7.32 45.92 14.65
1/14/2022 11:45:00 AM 0.2 32.36 0.097 7.32 47.69 14.68
1/14/2022 12:00:00 PM 0.19 32.342 0.097 7.33 47.69 14.69
1/14/2022 12:15:00 PM 0.18 32.324 0.097 7.33 49.22 14.69
1/14/2022 12:30:00 PM 0.18 32.324 0.097 7.34 47.02 14.71
1/14/2022 12:45:00 PM 0.17 32.306 0.097 7.34 49.27 14.68
1/14/2022 1:00:00 PM 0.19 32.342 0.097 7.34 48.57 14.72
1/14/2022 1:15:00 PM 0.23 32.414 0.097 7.35 49.69 14.73
1/14/2022 1:30:00 PM 0.26 32.468 0.097 7.35 48.02 14.73
1/14/2022 1:45:00 PM 0.31 32.558 0.097 7.36 49.52 14.77
1/14/2022 2:00:00 PM 0.32 32.576 0.097 7.37 49.51 14.77
1/14/2022 2:15:00 PM 0.32 32.576 0.097 7.37 49.77 14.8
1/14/2022 2:30:00 PM 0.32 32.576 0.097 7.38 50.03 14.79
1/14/2022 2:45:00 PM 0.31 32.558 0.096 7.38 49.51 14.82
1/14/2022 3:00:00 PM 0.3 32.54 0.097 7.38 49.53 14.8
1/14/2022 3:15:00 PM 0.29 32.522 0.096 7.39 50.3 14.78
1/14/2022 3:30:00 PM 0.27 32.486 0.096 7.39 50.91 14.81
1/14/2022 3:45:00 PM 0.25 32.45 0.096 7.39 49.14 14.8
1/14/2022 4:00:00 PM 0.24 32.432 0.096 7.39 49.24 14.76
1/14/2022 4:15:00 PM 0.22 32.396 0.096 7.39 49.14 14.77
1/14/2022 4:30:00 PM 0.19 32.342 0.096 7.39 48.28 14.7
1/14/2022 4:45:00 PM 0.17 32.306 0.096 7.38 49.53 14.71
1/14/2022 5:00:00 PM 0.15 32.27 0.096 7.38 48.96 14.69
1/14/2022 5:15:00 PM 0.13 32.234 0.096 7.37 49.43 14.64
1/14/2022 5:30:00 PM 0.09 32.162 0.097 7.36 49.81 14.61
1/14/2022 5:45:00 PM 0.07 32.126 0.097 7.35 49.86 14.59
1/14/2022 6:00:00 PM 0.05 32.09 0.097 7.35 50.12 14.54
1/14/2022 6:15:00 PM 0.03 32.054 0.097 7.34 49.49 14.53
1/14/2022 6:30:00 PM 0.01 32.018 0.097 7.33 49.24 14.54
1/14/2022 6:45:00 PM -0.02 31.964 0.097 7.32 50.15 14.51
1/14/2022 7:00:00 PM -0.05 31.91 0.097 7.32 49.61 14.54
1/14/2022 7:15:00 PM -0.07 31.874 0.097 7.31 51.05 14.54
1/14/2022 7:30:00 PM -0.08 31.856 0.097 7.31 49.65 14.55
1/14/2022 7:45:00 PM -0.07 31.874 0.097 7.3 49.75 14.47
1/14/2022 8:00:00 PM -0.06 31.892 0.097 7.3 50.35 14.48
1/14/2022 8:15:00 PM -0.05 31.91 0.097 7.29 50.5 14.49
1/14/2022 8:30:00 PM -0.05 31.91 0.097 7.29 50.35 14.51
1/14/2022 8:45:00 PM -0.05 31.91 0.097 7.29 49.6 14.5
1/14/2022 9:00:00 PM -0.05 31.91 0.097 7.28 51.77 14.43
1/14/2022 9:15:00 PM -0.05 31.91 0.097 7.27 49.69 14.37
1/14/2022 9:30:00 PM -0.04 31.928 0.097 7.27 50 14.45
1/14/2022 9:45:00 PM -0.04 31.928 0.097 7.26 50.18 14.48
1/14/2022 10:00:00 PM -0.04 31.928 0.098 7.26 50.41 14.48
1/14/2022 10:15:00 PM -0.04 31.928 0.098 7.26 50.06 14.48
1/14/2022 10:30:00 PM -0.04 31.928 0.098 7.26 50.16 14.48
1/14/2022 10:45:00 PM -0.05 31.91 0.098 7.25 50.35 14.46
1/14/2022 11:00:00 PM -0.04 31.928 0.098 7.25 49.86 14.45
1/14/2022 11:15:00 PM -0.04 31.928 0.098 7.23 49.83 14.45
1/14/2022 11:30:00 PM -0.04 31.928 0.098 7.23 50.2 14.41
1/14/2022 11:45:00 PM -0.04 31.928 0.099 7.24 50.38 14.47
1/15/2022 12:00:00 AM -0.04 31.928 0.099 7.23 50.98 14.43
1/15/2022 12:15:00 AM -0.04 31.928 0.099 7.23 50.27 14.46
1/15/2022 12:30:00 AM -0.04 31.928 0.099 7.22 49.94 14.43
1/15/2022 12:45:00 AM -0.04 31.928 0.099 7.22 49.82 14.45
1/15/2022 1:00:00 AM -0.04 31.928 0.099 7.23 50.2 14.46
1/15/2022 1:15:00 AM -0.04 31.928 0.099 7.22 50.2 14.41
1/15/2022 1:30:00 AM -0.04 31.928 0.099 7.22 49.84 14.43
1/15/2022 1:45:00 AM -0.04 31.928 0.099 7.22 50.09 14.4
1/15/2022 2:00:00 AM -0.03 31.946 0.1 7.2 50.74 14.37
1/15/2022 2:15:00 AM -0.03 31.946 0.1 7.2 50.56 14.38
1/15/2022 2:30:00 AM -0.03 31.946 0.1 7.2 50.1 14.39
1/15/2022 2:45:00 AM -0.03 31.946 0.1 7.2 49.91 14.37
1/15/2022 3:00:00 AM -0.03 31.946 0.1 7.18 50.26 14.33
1/15/2022 3:15:00 AM -0.03 31.946 0.101 7.18 50.31 14.34
1/15/2022 3:30:00 AM -0.03 31.946 0.101 7.17 49.73 14.33
1/15/2022 3:45:00 AM -0.03 31.946 0.101 7.18 49.4 14.34
1/15/2022 4:00:00 AM -0.02 31.964 0.101 7.19 49.88 14.31
1/15/2022 4:15:00 AM -0.02 31.964 0.101 7.19 49.47 14.31
1/15/2022 4:30:00 AM -0.02 31.964 0.102 7.16 50.11 14.31
1/15/2022 4:45:00 AM -0.02 31.964 0.102 7.19 50.03 14.31
1/15/2022 5:00:00 AM -0.03 31.946 0.102 7.18 49.92 14.31
1/15/2022 5:15:00 AM -0.03 31.946 0.103 7.18 49.89 14.31
1/15/2022 5:30:00 AM -0.03 31.946 0.103 7.18 50.23 14.3
1/15/2022 5:45:00 AM -0.03 31.946 0.103 7.18 50.16 14.31
1/15/2022 6:00:00 AM -0.02 31.964 0.103 7.18 49.86 14.32
1/15/2022 6:15:00 AM -0.02 31.964 0.104 7.17 49.98 14.29
1/15/2022 6:30:00 AM -0.02 31.964 0.104 7.16 49.67 14.26
1/15/2022 6:45:00 AM -0.02 31.964 0.104 7.16 49.9 14.26
1/15/2022 7:00:00 AM -0.02 31.964 0.104 7.17 49.85 14.28
1/15/2022 7:15:00 AM -0.01 31.982 0.105 7.14 49.72 14.22
1/15/2022 7:30:00 AM -0.01 31.982 0.105 7.15 50.18 14.21
1/15/2022 7:45:00 AM -0.01 31.982 0.105 7.14 49.12 14.2
1/15/2022 8:00:00 AM -0.01 31.982 0.106 7.1 48.72 14.15
1/15/2022 8:15:00 AM 0 32 0.106 7.14 49.45 14.16
1/15/2022 8:30:00 AM 0 32 0.106 7.14 49.88 14.19
1/15/2022 8:45:00 AM 0.01 32.018 0.106 7.13 49.63 14.22
1/15/2022 9:00:00 AM 0.03 32.054 0.107 7.14 49.74 14.25
1/15/2022 9:15:00 AM 0.05 32.09 0.107 7.13 49.74 14.28
1/15/2022 9:30:00 AM 0.07 32.126 0.107 7.13 49.79 14.33
1/15/2022 9:45:00 AM 0.09 32.162 0.107 7.09 50.33 14.38
1/15/2022 10:00:00 AM 0.1 32.18 0.107 7.13 49.68 14.41
1/15/2022 10:15:00 AM 0.1 32.18 0.108 7.18 50.12 14.47
1/15/2022 10:30:00 AM 0.09 32.162 0.108 7.19 51.01 14.55
1/15/2022 10:45:00 AM 0.1 32.18 0.108 7.2 51.06 14.61
1/15/2022 11:00:00 AM 0.1 32.18 0.108 7.21 50.54 14.67
1/15/2022 11:15:00 AM 0.11 32.198 0.108 7.19 51.43 14.71
1/15/2022 11:30:00 AM 0.1 32.18 0.109 7.19 50.32 14.74
1/15/2022 11:45:00 AM 0.07 32.126 0.109 7.22 50.63 14.84
1/15/2022 12:00:00 PM 0.05 32.09 0.109 7.25 50.12 14.91
1/15/2022 12:15:00 PM 0.05 32.09 0.109 7.25 49.9 14.96
1/15/2022 12:30:00 PM 0.05 32.09 0.109 7.26 50.26 15
1/15/2022 12:45:00 PM 0.05 32.09 0.109 7.27 49.83 15.03
1/15/2022 1:00:00 PM 0.04 32.072 0.11 7.28 50.05 15.06
1/15/2022 1:15:00 PM 0.04 32.072 0.11 7.28 49.73 15.1
1/15/2022 1:30:00 PM 0.03 32.054 0.11 7.29 49.88 15.12
1/15/2022 1:45:00 PM 0.04 32.072 0.11 7.3 48.7 15.13
1/15/2022 2:00:00 PM 0.04 32.072 0.109 7.3 48.7 15.1
1/15/2022 2:15:00 PM 0.05 32.09 0.109 7.3 48.72 15.11
1/15/2022 2:30:00 PM 0.04 32.072 0.109 7.31 49.9 15.16
1/15/2022 2:45:00 PM 0.04 32.072 0.109 7.32 49.26 15.17
1/15/2022 3:00:00 PM 0.03 32.054 0.108 7.32 49.88 15.16
1/15/2022 3:15:00 PM 0.04 32.072 0.108 7.33 48.94 15.19
1/15/2022 3:30:00 PM 0.02 32.036 0.108 7.33 49.44 15.13
1/15/2022 3:45:00 PM 0 32 0.108 7.34 50.08 15.18
1/15/2022 4:00:00 PM -0.01 31.982 0.108 7.35 49.5 15.19
1/15/2022 4:15:00 PM -0.02 31.964 0.108 7.35 51.07 15.19
1/15/2022 4:30:00 PM -0.03 31.946 0.108 7.35 51.44 15.2
1/15/2022 4:45:00 PM -0.04 31.928 0.108 7.35 50.65 15.15
1/15/2022 5:00:00 PM -0.04 31.928 0.108 7.35 50.63 15.13
1/15/2022 5:15:00 PM -0.04 31.928 0.108 7.34 50.94 15.04
1/15/2022 5:30:00 PM -0.04 31.928 0.108 7.34 51.26 14.98
1/15/2022 5:45:00 PM -0.05 31.91 0.108 7.33 51.09 14.98
1/15/2022 6:00:00 PM -0.04 31.928 0.108 7.32 50.13 14.95
1/15/2022 6:15:00 PM -0.05 31.91 0.109 7.32 49.74 14.93
1/15/2022 6:30:00 PM -0.05 31.91 0.109 7.31 51.15 14.88
1/15/2022 6:45:00 PM -0.05 31.91 0.109 7.31 51.97 14.86
1/15/2022 7:00:00 PM -0.04 31.928 0.109 7.3 52.22 14.83
1/15/2022 7:15:00 PM -0.05 31.91 0.109 7.3 49.84 14.79
1/15/2022 7:30:00 PM -0.05 31.91 0.109 7.29 49.41 14.83
1/15/2022 7:45:00 PM -0.05 31.91 0.109 7.29 50.11 14.78
1/15/2022 8:00:00 PM -0.05 31.91 0.109 7.29 49.59 14.72
1/15/2022 8:15:00 PM -0.05 31.91 0.109 7.28 49.76 14.77
1/15/2022 8:30:00 PM -0.05 31.91 0.109 7.28 50.44 14.76
1/15/2022 8:45:00 PM -0.05 31.91 0.109 7.28 48.83 14.66
1/15/2022 9:00:00 PM -0.05 31.91 0.109 7.28 50.05 14.76
1/15/2022 9:15:00 PM -0.05 31.91 0.109 7.27 49.57 14.74
1/15/2022 9:30:00 PM -0.05 31.91 0.109 7.27 48.32 14.73
1/15/2022 9:45:00 PM -0.04 31.928 0.109 7.27 47.2 14.7
1/15/2022 10:00:00 PM -0.04 31.928 0.109 7.27 47.32 14.7
1/15/2022 10:15:00 PM -0.05 31.91 0.109 7.26 47.46 14.64
1/15/2022 10:30:00 PM -0.05 31.91 0.109 7.26 47.21 14.63
1/15/2022 10:45:00 PM -0.05 31.91 0.109 7.26 47.85 14.61
1/15/2022 11:00:00 PM -0.05 31.91 0.109 7.25 46.9 14.63
1/15/2022 11:15:00 PM -0.05 31.91 0.109 7.25 47.64 14.62
1/15/2022 11:30:00 PM -0.05 31.91 0.109 7.25 46.58 14.6
1/15/2022 11:45:00 PM -0.05 31.91 0.109 7.25 47.43 14.61
1/16/2022 12:00:00 AM -0.05 31.91 0.109 7.25 47.09 14.59
1/16/2022 12:15:00 AM -0.04 31.928 0.109 7.24 47.33 14.6
1/16/2022 12:30:00 AM -0.05 31.91 0.109 7.23 48.21 14.63
1/16/2022 12:45:00 AM -0.05 31.91 0.109 7.24 47.94 14.59
1/16/2022 1:00:00 AM -0.05 31.91 0.109 7.23 49.01 14.55
1/16/2022 1:15:00 AM -0.05 31.91 0.109 7.23 49.73 14.54
1/16/2022 1:30:00 AM -0.05 31.91 0.11 7.23 47.37 14.5
1/16/2022 1:45:00 AM -0.05 31.91 0.11 7.22 48.04 14.58
1/16/2022 2:00:00 AM -0.04 31.928 0.11 7.21 47.8 14.52
1/16/2022 2:15:00 AM -0.04 31.928 0.11 7.21 47.54 14.5
1/16/2022 2:30:00 AM -0.05 31.91 0.11 7.19 70.71 14.33
1/16/2022 2:45:00 AM -0.04 31.928 0.11 7.17 51.56 14.42
1/16/2022 3:00:00 AM -0.04 31.928 0.11 7.19 47.51 14.48
1/16/2022 3:15:00 AM -0.04 31.928 0.11 7.19 45.39 14.39
1/16/2022 3:30:00 AM -0.04 31.928 0.11 7.19 45.83 14.39
1/16/2022 3:45:00 AM -0.04 31.928 0.111 7.18 47.46 14.37
1/16/2022 4:00:00 AM -0.04 31.928 0.111 7.18 43.19 14.37
1/16/2022 4:15:00 AM -0.04 31.928 0.111 7.18 44.74 14.35
1/16/2022 4:30:00 AM -0.04 31.928 0.111 7.18 45.6 14.32
1/16/2022 4:45:00 AM -0.04 31.928 0.111 7.17 51.47 14.29
1/16/2022 5:00:00 AM -0.04 31.928 0.111 7.17 47.52 14.32
1/16/2022 5:15:00 AM -0.04 31.928 0.111 7.15 48.16 14.37
1/16/2022 5:30:00 AM -0.04 31.928 0.112 7.16 46.42 14.35
1/16/2022 5:45:00 AM -0.04 31.928 0.112 7.17 50.63 14.34
1/16/2022 6:00:00 AM -0.04 31.928 0.112 7.16 45.79 14.34
1/16/2022 6:15:00 AM -0.04 31.928 0.112 7.16 46.69 14.28
1/16/2022 6:30:00 AM -0.04 31.928 0.112 7.16 70.84 14.15
1/16/2022 6:45:00 AM -0.04 31.928 0.113 7.16 44.43 14.34
1/16/2022 7:00:00 AM -0.04 31.928 0.113 7.17 47.24 14.37
1/16/2022 7:15:00 AM -0.04 31.928 0.113 7.15 48.15 14.28
1/16/2022 7:30:00 AM -0.04 31.928 0.113 7.15 46.5 14.28
1/16/2022 7:45:00 AM -0.04 31.928 0.113 7.16 43.97 14.33
1/16/2022 8:00:00 AM -0.04 31.928 0.114 7.16 45.05 14.38
1/16/2022 8:15:00 AM -0.03 31.946 0.114 7.16 45.07 14.36
1/16/2022 8:30:00 AM -0.03 31.946 0.114 7.15 45.47 14.35
1/16/2022 8:45:00 AM -0.02 31.964 0.114 7.15 44.88 14.34
1/16/2022 9:00:00 AM 0 32 0.114 7.15 44.57 14.39
1/16/2022 9:15:00 AM 0 32 0.114 7.16 44.7 14.34
1/16/2022 9:30:00 AM